PWSweather.com
Personal Weather Stations
Station Observations
KOHAMHER7
Amherst, OH 44001

Amherst, OH 44001

Lat: 41.403497, Lon: -82.25041499999998

Elevation: 679

Station Type: Ambient WS1001

Latest ConditionsUpdated 12:48:00 PM EST Sunday, Nov 19, 2017
Currently Today's Max Today's Min Today's Average
Temperature 39.9°F4.4°C 43.9°F6.6°C 38.1°F3.4°C 39.8°F4.3°C
Dew Point 28.0°F-2.2°C 43.0°F6.1°C 24.0°F-4.4°C 30.6°F-0.8°C
Winds 0.2 mph N0.3 kmh N 13.9 mph SW22.4 kmh SW - 4.2 mph 6.8 kmh
Wind Gusts 2.5 mph4.0 kmh 19.9 mph32.0 kmh - -
Humidity 62% 99% 56% 70%
Pressure 29.88 in1011.9 mb 29.88 in1011.9 mb 29.30 in992.2 mb -
Precipitation - 0.04 in1.0 mm - -
Hour Temp Dew Point Humidity Winds Wind Gusts Pressure Precip Precip Rate Daily Precip Total
12:48 PM 39.9°F4.4°C 28.0°F-2.2°C 62% 0.2 mph N0.3 kmh N 2.5 mph4.0 kmh 29.88 in1011.9 mb 0.00 in0.0 mm 0.00 in0.0 mm 0.04 in1.0 mm
12:47 PM 39.9°F4.4°C 28.0°F-2.2°C 62% 0.2 mph N0.3 kmh N 2.5 mph4.0 kmh 29.88 in1011.9 mb 0.00 in0.0 mm 0.00 in0.0 mm 0.04 in1.0 mm
12:46 PM 39.9°F4.4°C 28.0°F-2.2°C 62% 0.2 mph N0.3 kmh N 2.5 mph4.0 kmh 29.88 in1011.9 mb 0.00 in0.0 mm 0.00 in0.0 mm 0.04 in1.0 mm
12:45 PM 39.9°F4.4°C 28.0°F-2.2°C 62% 7.6 mph W12.2 kmh W 9.8 mph15.8 kmh 29.88 in1011.9 mb 0.00 in0.0 mm 0.00 in0.0 mm 0.04 in1.0 mm
12:44 PM 39.9°F4.4°C 28.0°F-2.2°C 62% 7.6 mph W12.2 kmh W 9.8 mph15.8 kmh 29.88 in1011.9 mb 0.00 in0.0 mm 0.00 in0.0 mm 0.04 in1.0 mm
12:43 PM 39.9°F4.4°C 28.0°F-2.2°C 62% 7.6 mph W12.2 kmh W 9.8 mph15.8 kmh 29.88 in1011.9 mb 0.00 in0.0 mm 0.00 in0.0 mm 0.04 in1.0 mm
12:42 PM 39.9°F4.4°C 28.0°F-2.2°C 62% 7.6 mph W12.2 kmh W 9.8 mph15.8 kmh 29.88 in1011.9 mb 0.00 in0.0 mm 0.00 in0.0 mm 0.04 in1.0 mm
12:41 PM 39.9°F4.4°C 28.0°F-2.2°C 62% 7.6 mph W12.2 kmh W 9.8 mph15.8 kmh 29.88 in1011.9 mb 0.00 in0.0 mm 0.00 in0.0 mm 0.04 in1.0 mm
12:40 PM 39.7°F4.3°C 28.0°F-2.2°C 62% 4.3 mph NW6.9 kmh NW 7.4 mph11.9 kmh 29.88 in1011.9 mb 0.00 in0.0 mm 0.00 in0.0 mm 0.04 in1.0 mm
12:39 PM 39.7°F4.3°C 28.0°F-2.2°C 62% 4.3 mph NW6.9 kmh NW 7.4 mph11.9 kmh 29.88 in1011.9 mb 0.00 in0.0 mm 0.00 in0.0 mm 0.04 in1.0 mm
12:38 PM 39.7°F4.3°C 28.0°F-2.2°C 62% 4.3 mph NW6.9 kmh NW 7.4 mph11.9 kmh 29.88 in1011.9 mb 0.00 in0.0 mm 0.00 in0.0 mm 0.04 in1.0 mm
12:37 PM 39.7°F4.3°C 28.0°F-2.2°C 62% 4.3 mph NW6.9 kmh NW 7.4 mph11.9 kmh 29.88 in1011.9 mb 0.00 in0.0 mm 0.00 in0.0 mm 0.04 in1.0 mm
12:36 PM 39.7°F4.3°C 28.0°F-2.2°C 62% 4.3 mph NW6.9 kmh NW 7.4 mph11.9 kmh 29.88 in1011.9 mb 0.00 in0.0 mm 0.00 in0.0 mm 0.04 in1.0 mm
12:35 PM 39.7°F4.3°C 28.0°F-2.2°C 63% 6.7 mph WSW10.8 kmh WSW 9.8 mph15.8 kmh 29.88 in1011.9 mb 0.00 in0.0 mm 0.00 in0.0 mm 0.04 in1.0 mm
12:34 PM 39.7°F4.3°C 28.0°F-2.2°C 63% 6.7 mph WSW10.8 kmh WSW 9.8 mph15.8 kmh 29.88 in1011.9 mb 0.00 in0.0 mm 0.00 in0.0 mm 0.04 in1.0 mm
12:33 PM 39.7°F4.3°C 28.0°F-2.2°C 63% 6.7 mph WSW10.8 kmh WSW 9.8 mph15.8 kmh 29.88 in1011.9 mb 0.00 in0.0 mm 0.00 in0.0 mm 0.04 in1.0 mm
12:32 PM 39.7°F4.3°C 28.0°F-2.2°C 63% 6.7 mph WSW10.8 kmh WSW 9.8 mph15.8 kmh 29.88 in1011.9 mb 0.00 in0.0 mm 0.00 in0.0 mm 0.04 in1.0 mm
12:31 PM 39.7°F4.3°C 28.0°F-2.2°C 63% 6.7 mph WSW10.8 kmh WSW 9.8 mph15.8 kmh 29.88 in1011.9 mb 0.00 in0.0 mm 0.00 in0.0 mm 0.04 in1.0 mm
12:30 PM 39.7°F4.3°C 28.0°F-2.2°C 62% 3.4 mph WSW5.5 kmh WSW 7.4 mph11.9 kmh 29.88 in1011.9 mb 0.00 in0.0 mm 0.00 in0.0 mm 0.04 in1.0 mm
12:29 PM 39.7°F4.3°C 28.0°F-2.2°C 62% 3.4 mph WSW5.5 kmh WSW 7.4 mph11.9 kmh 29.88 in1011.9 mb 0.00 in0.0 mm 0.00 in0.0 mm 0.04 in1.0 mm
12:28 PM 39.7°F4.3°C 28.0°F-2.2°C 62% 3.4 mph WSW5.5 kmh WSW 7.4 mph11.9 kmh 29.88 in1011.9 mb 0.00 in0.0 mm 0.00 in0.0 mm 0.04 in1.0 mm
12:27 PM 39.7°F4.3°C 28.0°F-2.2°C 62% 3.4 mph WSW5.5 kmh WSW 7.4 mph11.9 kmh 29.88 in1011.9 mb 0.00 in0.0 mm 0.00 in0.0 mm 0.04 in1.0 mm
12:26 PM 39.7°F4.3°C 28.0°F-2.2°C 62% 3.4 mph WSW5.5 kmh WSW 7.4 mph11.9 kmh 29.88 in1011.9 mb 0.00 in0.0 mm 0.00 in0.0 mm 0.04 in1.0 mm
12:25 PM 39.7°F4.3°C 28.0°F-2.2°C 62% 7.6 mph NNW12.2 kmh NNW 12.3 mph19.8 kmh 29.88 in1011.9 mb 0.00 in0.0 mm 0.00 in0.0 mm 0.04 in1.0 mm
12:24 PM 39.7°F4.3°C 28.0°F-2.2°C 62% 7.6 mph NNW12.2 kmh NNW 12.3 mph19.8 kmh 29.88 in1011.9 mb 0.00 in0.0 mm 0.00 in0.0 mm 0.04 in1.0 mm
12:23 PM 39.7°F4.3°C 28.0°F-2.2°C 62% 7.6 mph NNW12.2 kmh NNW 12.3 mph19.8 kmh 29.88 in1011.9 mb 0.00 in0.0 mm 0.00 in0.0 mm 0.04 in1.0 mm
12:22 PM 39.7°F4.3°C 28.0°F-2.2°C 62% 7.6 mph NNW12.2 kmh NNW 12.3 mph19.8 kmh 29.88 in1011.9 mb 0.00 in0.0 mm 0.00 in0.0 mm 0.04 in1.0 mm
12:21 PM 39.7°F4.3°C 28.0°F-2.2°C 62% 7.6 mph NNW12.2 kmh NNW 12.3 mph19.8 kmh 29.88 in1011.9 mb 0.00 in0.0 mm 0.00 in0.0 mm 0.04 in1.0 mm
12:20 PM 39.7°F4.3°C 28.0°F-2.2°C 62% 3.4 mph W5.5 kmh W 7.4 mph11.9 kmh 29.88 in1011.9 mb 0.00 in0.0 mm 0.00 in0.0 mm 0.04 in1.0 mm
12:19 PM 39.7°F4.3°C 28.0°F-2.2°C 62% 3.4 mph W5.5 kmh W 7.4 mph11.9 kmh 29.88 in1011.9 mb 0.00 in0.0 mm 0.00 in0.0 mm 0.04 in1.0 mm
12:18 PM 39.7°F4.3°C 28.0°F-2.2°C 62% 3.4 mph W5.5 kmh W 7.4 mph11.9 kmh 29.88 in1011.9 mb 0.00 in0.0 mm 0.00 in0.0 mm 0.04 in1.0 mm
12:17 PM 39.7°F4.3°C 28.0°F-2.2°C 62% 3.4 mph W5.5 kmh W 7.4 mph11.9 kmh 29.88 in1011.9 mb 0.00 in0.0 mm 0.00 in0.0 mm 0.04 in1.0 mm
12:16 PM 39.7°F4.3°C 28.0°F-2.2°C 62% 3.4 mph W5.5 kmh W 7.4 mph11.9 kmh 29.88 in1011.9 mb 0.00 in0.0 mm 0.00 in0.0 mm 0.04 in1.0 mm
12:15 PM 39.7°F4.3°C 28.0°F-2.2°C 62% Calm Calm -- 29.88 in1011.9 mb 0.00 in0.0 mm 0.00 in0.0 mm 0.04 in1.0 mm
12:14 PM 39.7°F4.3°C 28.0°F-2.2°C 62% Calm Calm -- 29.88 in1011.9 mb 0.00 in0.0 mm 0.00 in0.0 mm 0.04 in1.0 mm
12:13 PM 39.7°F4.3°C 28.0°F-2.2°C 62% Calm Calm -- 29.88 in1011.9 mb 0.00 in0.0 mm 0.00 in0.0 mm 0.04 in1.0 mm
12:12 PM 39.7°F4.3°C 28.0°F-2.2°C 62% Calm Calm -- 29.88 in1011.9 mb 0.00 in0.0 mm 0.00 in0.0 mm 0.04 in1.0 mm
12:11 PM 39.7°F4.3°C 28.0°F-2.2°C 62% Calm Calm -- 29.88 in1011.9 mb 0.00 in0.0 mm 0.00 in0.0 mm 0.04 in1.0 mm
12:10 PM 39.7°F4.3°C 28.0°F-2.2°C 63% 0.9 mph WSW1.4 kmh WSW 2.5 mph4.0 kmh 29.88 in1011.9 mb 0.00 in0.0 mm 0.00 in0.0 mm 0.04 in1.0 mm
12:09 PM 39.7°F4.3°C 28.0°F-2.2°C 63% 0.9 mph WSW1.4 kmh WSW 2.5 mph4.0 kmh 29.88 in1011.9 mb 0.00 in0.0 mm 0.00 in0.0 mm 0.04 in1.0 mm
12:08 PM 39.7°F4.3°C 28.0°F-2.2°C 63% 0.9 mph WSW1.4 kmh WSW 2.5 mph4.0 kmh 29.88 in1011.9 mb 0.00 in0.0 mm 0.00 in0.0 mm 0.04 in1.0 mm
12:07 PM 39.7°F4.3°C 28.0°F-2.2°C 63% 0.9 mph WSW1.4 kmh WSW 2.5 mph4.0 kmh 29.88 in1011.9 mb 0.00 in0.0 mm 0.00 in0.0 mm 0.04 in1.0 mm
12:06 PM 39.7°F4.3°C 28.0°F-2.2°C 63% 0.9 mph WSW1.4 kmh WSW 2.5 mph4.0 kmh 29.88 in1011.9 mb 0.00 in0.0 mm 0.00 in0.0 mm 0.04 in1.0 mm
12:05 PM 39.7°F4.3°C 29.0°F-1.7°C 64% 6.7 mph SW10.8 kmh SW 9.8 mph15.8 kmh 29.88 in1011.9 mb 0.00 in0.0 mm 0.00 in0.0 mm 0.04 in1.0 mm
12:04 PM 39.7°F4.3°C 29.0°F-1.7°C 64% 6.7 mph SW10.8 kmh SW 9.8 mph15.8 kmh 29.88 in1011.9 mb 0.00 in0.0 mm 0.00 in0.0 mm 0.04 in1.0 mm
12:03 PM 39.7°F4.3°C 29.0°F-1.7°C 64% 6.7 mph SW10.8 kmh SW 9.8 mph15.8 kmh 29.88 in1011.9 mb 0.00 in0.0 mm 0.00 in0.0 mm 0.04 in1.0 mm
12:02 PM 39.7°F4.3°C 29.0°F-1.7°C 64% 6.7 mph SW10.8 kmh SW 9.8 mph15.8 kmh 29.88 in1011.9 mb 0.00 in0.0 mm 0.00 in0.0 mm 0.04 in1.0 mm
12:01 PM 39.7°F4.3°C 29.0°F-1.7°C 64% 6.7 mph SW10.8 kmh SW 9.8 mph15.8 kmh 29.88 in1011.9 mb 0.00 in0.0 mm 0.00 in0.0 mm 0.04 in1.0 mm
12:00 PM 39.7°F4.3°C 28.0°F-2.2°C 63% 0.9 mph NNW1.4 kmh NNW 2.5 mph4.0 kmh 29.88 in1011.9 mb 0.00 in0.0 mm 0.00 in0.0 mm 0.04 in1.0 mm
11:59 AM 39.7°F4.3°C 28.0°F-2.2°C 63% 0.9 mph NNW1.4 kmh NNW 2.5 mph4.0 kmh 29.88 in1011.9 mb 0.00 in0.0 mm 0.00 in0.0 mm 0.04 in1.0 mm
11:58 AM 39.7°F4.3°C 28.0°F-2.2°C 63% 0.9 mph NNW1.4 kmh NNW 2.5 mph4.0 kmh 29.88 in1011.9 mb 0.00 in0.0 mm 0.00 in0.0 mm 0.04 in1.0 mm
11:57 AM 39.7°F4.3°C 28.0°F-2.2°C 63% 0.9 mph NNW1.4 kmh NNW 2.5 mph4.0 kmh 29.88 in1011.9 mb 0.00 in0.0 mm 0.00 in0.0 mm 0.04 in1.0 mm
11:56 AM 39.7°F4.3°C 28.0°F-2.2°C 63% 0.9 mph NNW1.4 kmh NNW 2.5 mph4.0 kmh 29.88 in1011.9 mb 0.00 in0.0 mm 0.00 in0.0 mm 0.04 in1.0 mm
11:55 AM 39.7°F4.3°C 28.0°F-2.2°C 63% 4.3 mph SSW6.9 kmh SSW 7.4 mph11.9 kmh 29.88 in1011.9 mb 0.00 in0.0 mm 0.00 in0.0 mm 0.04 in1.0 mm
11:54 AM 39.7°F4.3°C 28.0°F-2.2°C 63% 4.3 mph SSW6.9 kmh SSW 7.4 mph11.9 kmh 29.88 in1011.9 mb 0.00 in0.0 mm 0.00 in0.0 mm 0.04 in1.0 mm
11:53 AM 39.7°F4.3°C 28.0°F-2.2°C 63% 4.3 mph SSW6.9 kmh SSW 7.4 mph11.9 kmh 29.88 in1011.9 mb 0.00 in0.0 mm 0.00 in0.0 mm 0.04 in1.0 mm
11:52 AM 39.7°F4.3°C 28.0°F-2.2°C 63% 4.3 mph SSW6.9 kmh SSW 7.4 mph11.9 kmh 29.88 in1011.9 mb 0.00 in0.0 mm 0.00 in0.0 mm 0.04 in1.0 mm
11:51 AM 39.7°F4.3°C 28.0°F-2.2°C 63% 4.3 mph SSW6.9 kmh SSW 7.4 mph11.9 kmh 29.88 in1011.9 mb 0.00 in0.0 mm 0.00 in0.0 mm 0.04 in1.0 mm
11:50 AM 39.9°F4.4°C 29.0°F-1.7°C 64% 2.7 mph W4.3 kmh W 4.9 mph7.9 kmh 29.88 in1011.9 mb 0.00 in0.0 mm 0.00 in0.0 mm 0.04 in1.0 mm
11:49 AM 39.9°F4.4°C 29.0°F-1.7°C 64% 2.7 mph W4.3 kmh W 4.9 mph7.9 kmh 29.88 in1011.9 mb 0.00 in0.0 mm 0.00 in0.0 mm 0.04 in1.0 mm
11:48 AM 39.9°F4.4°C 29.0°F-1.7°C 64% 2.7 mph W4.3 kmh W 4.9 mph7.9 kmh 29.88 in1011.9 mb 0.00 in0.0 mm 0.00 in0.0 mm 0.04 in1.0 mm
11:47 AM 39.9°F4.4°C 29.0°F-1.7°C 64% 2.7 mph W4.3 kmh W 4.9 mph7.9 kmh 29.88 in1011.9 mb 0.00 in0.0 mm 0.00 in0.0 mm 0.04 in1.0 mm
11:46 AM 39.9°F4.4°C 29.0°F-1.7°C 64% 2.7 mph W4.3 kmh W 4.9 mph7.9 kmh 29.88 in1011.9 mb 0.00 in0.0 mm 0.00 in0.0 mm 0.04 in1.0 mm
11:45 AM 40.3°F4.6°C 29.0°F-1.7°C 63% 1.8 mph NW2.9 kmh NW 2.5 mph4.0 kmh 29.88 in1011.9 mb 0.00 in0.0 mm 0.00 in0.0 mm 0.04 in1.0 mm
11:44 AM 40.3°F4.6°C 29.0°F-1.7°C 63% 1.8 mph NW2.9 kmh NW 2.5 mph4.0 kmh 29.88 in1011.9 mb 0.00 in0.0 mm 0.00 in0.0 mm 0.04 in1.0 mm
11:43 AM 40.3°F4.6°C 29.0°F-1.7°C 63% 1.8 mph NW2.9 kmh NW 2.5 mph4.0 kmh 29.88 in1011.9 mb 0.00 in0.0 mm 0.00 in0.0 mm 0.04 in1.0 mm
11:42 AM 40.3°F4.6°C 29.0°F-1.7°C 63% 1.8 mph NW2.9 kmh NW 2.5 mph4.0 kmh 29.88 in1011.9 mb 0.00 in0.0 mm 0.00 in0.0 mm 0.04 in1.0 mm
11:41 AM 40.3°F4.6°C 29.0°F-1.7°C 63% 1.8 mph NW2.9 kmh NW 2.5 mph4.0 kmh 29.88 in1011.9 mb 0.00 in0.0 mm 0.00 in0.0 mm 0.04 in1.0 mm
11:40 AM 40.5°F4.7°C 28.0°F-2.2°C 62% 8.1 mph WSW13.0 kmh WSW 9.8 mph15.8 kmh 29.88 in1011.9 mb 0.00 in0.0 mm 0.00 in0.0 mm 0.04 in1.0 mm
11:39 AM 40.5°F4.7°C 28.0°F-2.2°C 62% 8.1 mph WSW13.0 kmh WSW 9.8 mph15.8 kmh 29.88 in1011.9 mb 0.00 in0.0 mm 0.00 in0.0 mm 0.04 in1.0 mm
11:38 AM 40.5°F4.7°C 28.0°F-2.2°C 62% 8.1 mph WSW13.0 kmh WSW 9.8 mph15.8 kmh 29.88 in1011.9 mb 0.00 in0.0 mm 0.00 in0.0 mm 0.04 in1.0 mm
11:37 AM 40.5°F4.7°C 28.0°F-2.2°C 62% 8.1 mph WSW13.0 kmh WSW 9.8 mph15.8 kmh 29.88 in1011.9 mb 0.00 in0.0 mm 0.00 in0.0 mm 0.04 in1.0 mm
11:36 AM 40.5°F4.7°C 28.0°F-2.2°C 62% 8.1 mph WSW13.0 kmh WSW 9.8 mph15.8 kmh 29.88 in1011.9 mb 0.00 in0.0 mm 0.00 in0.0 mm 0.04 in1.0 mm
11:35 AM 40.5°F4.7°C 28.0°F-2.2°C 62% 1.3 mph W2.1 kmh W 2.5 mph4.0 kmh 29.88 in1011.9 mb 0.00 in0.0 mm 0.00 in0.0 mm 0.04 in1.0 mm
11:34 AM 40.5°F4.7°C 28.0°F-2.2°C 62% 1.3 mph W2.1 kmh W 2.5 mph4.0 kmh 29.88 in1011.9 mb 0.00 in0.0 mm 0.00 in0.0 mm 0.04 in1.0 mm
11:33 AM 40.5°F4.7°C 28.0°F-2.2°C 62% 1.3 mph W2.1 kmh W 2.5 mph4.0 kmh 29.88 in1011.9 mb 0.00 in0.0 mm 0.00 in0.0 mm 0.04 in1.0 mm
11:32 AM 40.5°F4.7°C 28.0°F-2.2°C 62% 1.3 mph W2.1 kmh W 2.5 mph4.0 kmh 29.88 in1011.9 mb 0.00 in0.0 mm 0.00 in0.0 mm 0.04 in1.0 mm
11:31 AM 40.5°F4.7°C 28.0°F-2.2°C 62% 1.3 mph W2.1 kmh W 2.5 mph4.0 kmh 29.88 in1011.9 mb 0.00 in0.0 mm 0.00 in0.0 mm 0.04 in1.0 mm
11:30 AM 40.6°F4.8°C 29.0°F-1.7°C 62% 7.2 mph NW11.6 kmh NW 9.8 mph15.8 kmh 29.88 in1011.9 mb 0.00 in0.0 mm 0.00 in0.0 mm 0.04 in1.0 mm
11:29 AM 40.6°F4.8°C 29.0°F-1.7°C 62% 7.2 mph NW11.6 kmh NW 9.8 mph15.8 kmh 29.88 in1011.9 mb 0.00 in0.0 mm 0.00 in0.0 mm 0.04 in1.0 mm
11:28 AM 40.6°F4.8°C 29.0°F-1.7°C 62% 7.2 mph NW11.6 kmh NW 9.8 mph15.8 kmh 29.88 in1011.9 mb 0.00 in0.0 mm 0.00 in0.0 mm 0.04 in1.0 mm
11:27 AM 40.6°F4.8°C 29.0°F-1.7°C 62% 7.2 mph NW11.6 kmh NW 9.8 mph15.8 kmh 29.88 in1011.9 mb 0.00 in0.0 mm 0.00 in0.0 mm 0.04 in1.0 mm
11:26 AM 40.6°F4.8°C 29.0°F-1.7°C 62% 7.2 mph NW11.6 kmh NW 9.8 mph15.8 kmh 29.88 in1011.9 mb 0.00 in0.0 mm 0.00 in0.0 mm 0.04 in1.0 mm
11:25 AM 40.8°F4.9°C 29.0°F-1.7°C 62% 4.3 mph W6.9 kmh W 4.9 mph7.9 kmh 29.88 in1011.9 mb 0.00 in0.0 mm 0.00 in0.0 mm 0.04 in1.0 mm
11:24 AM 40.8°F4.9°C 29.0°F-1.7°C 62% 4.3 mph W6.9 kmh W 4.9 mph7.9 kmh 29.88 in1011.9 mb 0.00 in0.0 mm 0.00 in0.0 mm 0.04 in1.0 mm
11:23 AM 40.8°F4.9°C 29.0°F-1.7°C 62% 4.3 mph W6.9 kmh W 4.9 mph7.9 kmh 29.88 in1011.9 mb 0.00 in0.0 mm 0.00 in0.0 mm 0.04 in1.0 mm
11:22 AM 40.8°F4.9°C 29.0°F-1.7°C 62% 4.3 mph W6.9 kmh W 4.9 mph7.9 kmh 29.88 in1011.9 mb 0.00 in0.0 mm 0.00 in0.0 mm 0.04 in1.0 mm
11:21 AM 40.8°F4.9°C 29.0°F-1.7°C 62% 4.3 mph W6.9 kmh W 4.9 mph7.9 kmh 29.88 in1011.9 mb 0.00 in0.0 mm 0.00 in0.0 mm 0.04 in1.0 mm
11:20 AM 40.6°F4.8°C 28.0°F-2.2°C 61% 7.6 mph WSW12.2 kmh WSW 9.8 mph15.8 kmh 29.88 in1011.9 mb 0.00 in0.0 mm 0.00 in0.0 mm 0.04 in1.0 mm
11:19 AM 40.6°F4.8°C 28.0°F-2.2°C 61% 7.6 mph WSW12.2 kmh WSW 9.8 mph15.8 kmh 29.88 in1011.9 mb 0.00 in0.0 mm 0.00 in0.0 mm 0.04 in1.0 mm
11:18 AM 40.6°F4.8°C 28.0°F-2.2°C 61% 7.6 mph WSW12.2 kmh WSW 9.8 mph15.8 kmh 29.88 in1011.9 mb 0.00 in0.0 mm 0.00 in0.0 mm 0.04 in1.0 mm
11:17 AM 40.6°F4.8°C 28.0°F-2.2°C 61% 7.6 mph WSW12.2 kmh WSW 9.8 mph15.8 kmh 29.88 in1011.9 mb 0.00 in0.0 mm 0.00 in0.0 mm 0.04 in1.0 mm
11:16 AM 40.6°F4.8°C 28.0°F-2.2°C 61% 7.6 mph WSW12.2 kmh WSW 9.8 mph15.8 kmh 29.88 in1011.9 mb 0.00 in0.0 mm 0.00 in0.0 mm 0.04 in1.0 mm
11:15 AM 40.3°F4.6°C 28.0°F-2.2°C 61% 0.2 mph NNW0.3 kmh NNW 2.5 mph4.0 kmh 29.88 in1011.9 mb 0.00 in0.0 mm 0.00 in0.0 mm 0.04 in1.0 mm
11:14 AM 40.3°F4.6°C 28.0°F-2.2°C 61% 0.2 mph NNW0.3 kmh NNW 2.5 mph4.0 kmh 29.88 in1011.9 mb 0.00 in0.0 mm 0.00 in0.0 mm 0.04 in1.0 mm
11:13 AM 40.3°F4.6°C 28.0°F-2.2°C 61% 0.2 mph NNW0.3 kmh NNW 2.5 mph4.0 kmh 29.88 in1011.9 mb 0.00 in0.0 mm 0.00 in0.0 mm 0.04 in1.0 mm
11:12 AM 40.3°F4.6°C 28.0°F-2.2°C 61% 0.2 mph NNW0.3 kmh NNW 2.5 mph4.0 kmh 29.88 in1011.9 mb 0.00 in0.0 mm 0.00 in0.0 mm 0.04 in1.0 mm
11:11 AM 40.3°F4.6°C 28.0°F-2.2°C 61% 0.2 mph NNW0.3 kmh NNW 2.5 mph4.0 kmh 29.88 in1011.9 mb 0.00 in0.0 mm 0.00 in0.0 mm 0.04 in1.0 mm
11:10 AM 40.1°F4.5°C 28.0°F-2.2°C 62% 2.7 mph WSW4.3 kmh WSW 4.9 mph7.9 kmh 29.88 in1011.9 mb 0.00 in0.0 mm 0.00 in0.0 mm 0.04 in1.0 mm
11:09 AM 40.1°F4.5°C 28.0°F-2.2°C 62% 2.7 mph WSW4.3 kmh WSW 4.9 mph7.9 kmh 29.88 in1011.9 mb 0.00 in0.0 mm 0.00 in0.0 mm 0.04 in1.0 mm
11:08 AM 40.1°F4.5°C 28.0°F-2.2°C 62% 2.7 mph WSW4.3 kmh WSW 4.9 mph7.9 kmh 29.88 in1011.9 mb 0.00 in0.0 mm 0.00 in0.0 mm 0.04 in1.0 mm
11:07 AM 40.1°F4.5°C 28.0°F-2.2°C 62% 2.7 mph WSW4.3 kmh WSW 4.9 mph7.9 kmh 29.88 in1011.9 mb 0.00 in0.0 mm 0.00 in0.0 mm 0.04 in1.0 mm
11:06 AM 40.1°F4.5°C 28.0°F-2.2°C 62% 2.7 mph WSW4.3 kmh WSW 4.9 mph7.9 kmh 29.88 in1011.9 mb 0.00 in0.0 mm 0.00 in0.0 mm 0.04 in1.0 mm
11:05 AM 39.9°F4.4°C 28.0°F-2.2°C 62% 1.8 mph N2.9 kmh N 4.9 mph7.9 kmh 29.85 in1010.8 mb 0.00 in0.0 mm 0.00 in0.0 mm 0.04 in1.0 mm
11:04 AM 39.9°F4.4°C 28.0°F-2.2°C 62% 1.8 mph N2.9 kmh N 4.9 mph7.9 kmh 29.85 in1010.8 mb 0.00 in0.0 mm 0.00 in0.0 mm 0.04 in1.0 mm
11:03 AM 39.9°F4.4°C 28.0°F-2.2°C 62% 1.8 mph N2.9 kmh N 4.9 mph7.9 kmh 29.85 in1010.8 mb 0.00 in0.0 mm 0.00 in0.0 mm 0.04 in1.0 mm
11:02 AM 39.9°F4.4°C 28.0°F-2.2°C 62% 1.8 mph N2.9 kmh N 4.9 mph7.9 kmh 29.85 in1010.8 mb 0.00 in0.0 mm 0.00 in0.0 mm 0.04 in1.0 mm
11:01 AM 39.9°F4.4°C 28.0°F-2.2°C 62% 1.8 mph N2.9 kmh N 4.9 mph7.9 kmh 29.85 in1010.8 mb 0.00 in0.0 mm 0.00 in0.0 mm 0.04 in1.0 mm
11:00 AM 39.7°F4.3°C 28.0°F-2.2°C 62% Calm Calm -- 29.85 in1010.8 mb 0.00 in0.0 mm 0.00 in0.0 mm 0.04 in1.0 mm
10:59 AM 39.7°F4.3°C 28.0°F-2.2°C 62% Calm Calm -- 29.85 in1010.8 mb 0.00 in0.0 mm 0.00 in0.0 mm 0.04 in1.0 mm
10:58 AM 39.7°F4.3°C 28.0°F-2.2°C 62% Calm Calm -- 29.85 in1010.8 mb 0.00 in0.0 mm 0.00 in0.0 mm 0.04 in1.0 mm
10:57 AM 39.7°F4.3°C 28.0°F-2.2°C 62% Calm Calm -- 29.85 in1010.8 mb 0.00 in0.0 mm 0.00 in0.0 mm 0.04 in1.0 mm
10:56 AM 39.7°F4.3°C 28.0°F-2.2°C 62% Calm Calm -- 29.85 in1010.8 mb 0.00 in0.0 mm 0.00 in0.0 mm 0.04 in1.0 mm
10:55 AM 39.6°F4.2°C 28.0°F-2.2°C 63% 1.3 mph WSW2.1 kmh WSW 2.5 mph4.0 kmh 29.85 in1010.8 mb 0.00 in0.0 mm 0.00 in0.0 mm 0.04 in1.0 mm
10:54 AM 39.6°F4.2°C 28.0°F-2.2°C 63% 1.3 mph WSW2.1 kmh WSW 2.5 mph4.0 kmh 29.85 in1010.8 mb 0.00 in0.0 mm 0.00 in0.0 mm 0.04 in1.0 mm
10:53 AM 39.6°F4.2°C 28.0°F-2.2°C 63% 1.3 mph WSW2.1 kmh WSW 2.5 mph4.0 kmh 29.85 in1010.8 mb 0.00 in0.0 mm 0.00 in0.0 mm 0.04 in1.0 mm
10:52 AM 39.6°F4.2°C 28.0°F-2.2°C 63% 1.3 mph WSW2.1 kmh WSW 2.5 mph4.0 kmh 29.85 in1010.8 mb 0.00 in0.0 mm 0.00 in0.0 mm 0.04 in1.0 mm
10:51 AM 39.6°F4.2°C 28.0°F-2.2°C 63% 1.3 mph WSW2.1 kmh WSW 2.5 mph4.0 kmh 29.85 in1010.8 mb 0.00 in0.0 mm 0.00 in0.0 mm 0.04 in1.0 mm
10:50 AM 39.6°F4.2°C 28.0°F-2.2°C 63% 1.3 mph WSW2.1 kmh WSW 2.5 mph4.0 kmh 29.85 in1010.8 mb 0.00 in0.0 mm 0.00 in0.0 mm 0.04 in1.0 mm
10:49 AM 39.6°F4.2°C 28.0°F-2.2°C 63% 3.4 mph NNW5.5 kmh NNW 4.9 mph7.9 kmh 29.85 in1010.8 mb 0.00 in0.0 mm 0.00 in0.0 mm 0.04 in1.0 mm
10:48 AM 39.6°F4.2°C 28.0°F-2.2°C 63% 3.4 mph NNW5.5 kmh NNW 4.9 mph7.9 kmh 29.85 in1010.8 mb 0.00 in0.0 mm 0.00 in0.0 mm 0.04 in1.0 mm
10:47 AM 39.6°F4.2°C 28.0°F-2.2°C 63% 3.4 mph NNW5.5 kmh NNW 4.9 mph7.9 kmh 29.85 in1010.8 mb 0.00 in0.0 mm 0.00 in0.0 mm 0.04 in1.0 mm
10:46 AM 39.6°F4.2°C 28.0°F-2.2°C 63% 3.4 mph NNW5.5 kmh NNW 4.9 mph7.9 kmh 29.85 in1010.8 mb 0.00 in0.0 mm 0.00 in0.0 mm 0.04 in1.0 mm
10:45 AM 39.6°F4.2°C 28.0°F-2.2°C 63% 3.4 mph NNW5.5 kmh NNW 4.9 mph7.9 kmh 29.85 in1010.8 mb 0.00 in0.0 mm 0.00 in0.0 mm 0.04 in1.0 mm
10:44 AM 39.6°F4.2°C 28.0°F-2.2°C 62% 5.1 mph SW8.2 kmh SW 9.8 mph15.8 kmh 29.85 in1010.8 mb 0.00 in0.0 mm 0.00 in0.0 mm 0.04 in1.0 mm
10:43 AM 39.6°F4.2°C 28.0°F-2.2°C 62% 5.1 mph SW8.2 kmh SW 9.8 mph15.8 kmh 29.85 in1010.8 mb 0.00 in0.0 mm 0.00 in0.0 mm 0.04 in1.0 mm
10:42 AM 39.6°F4.2°C 28.0°F-2.2°C 62% 5.1 mph SW8.2 kmh SW 9.8 mph15.8 kmh 29.85 in1010.8 mb 0.00 in0.0 mm 0.00 in0.0 mm 0.04 in1.0 mm
10:41 AM 39.6°F4.2°C 27.0°F-2.8°C 61% Calm Calm -- 29.85 in1010.8 mb 0.00 in0.0 mm 0.00 in0.0 mm 0.04 in1.0 mm
10:40 AM 39.6°F4.2°C 27.0°F-2.8°C 61% Calm Calm -- 29.85 in1010.8 mb 0.00 in0.0 mm 0.00 in0.0 mm 0.04 in1.0 mm
10:39 AM 39.6°F4.2°C 27.0°F-2.8°C 61% Calm Calm -- 29.85 in1010.8 mb 0.00 in0.0 mm 0.00 in0.0 mm 0.04 in1.0 mm
10:38 AM 39.6°F4.2°C 27.0°F-2.8°C 61% Calm Calm -- 29.85 in1010.8 mb 0.00 in0.0 mm 0.00 in0.0 mm 0.04 in1.0 mm
10:37 AM 39.6°F4.2°C 27.0°F-2.8°C 61% Calm Calm -- 29.85 in1010.8 mb 0.00 in0.0 mm 0.00 in0.0 mm 0.04 in1.0 mm
10:36 AM 39.7°F4.3°C 27.0°F-2.8°C 61% 7.6 mph WSW12.2 kmh WSW 9.8 mph15.8 kmh 29.85 in1010.8 mb 0.00 in0.0 mm 0.00 in0.0 mm 0.04 in1.0 mm
10:35 AM 39.7°F4.3°C 27.0°F-2.8°C 61% 7.6 mph WSW12.2 kmh WSW 9.8 mph15.8 kmh 29.85 in1010.8 mb 0.00 in0.0 mm 0.00 in0.0 mm 0.04 in1.0 mm
10:34 AM 39.7°F4.3°C 27.0°F-2.8°C 61% 7.6 mph WSW12.2 kmh WSW 9.8 mph15.8 kmh 29.85 in1010.8 mb 0.00 in0.0 mm 0.00 in0.0 mm 0.04 in1.0 mm
10:33 AM 39.7°F4.3°C 27.0°F-2.8°C 61% 7.6 mph WSW12.2 kmh WSW 9.8 mph15.8 kmh 29.85 in1010.8 mb 0.00 in0.0 mm 0.00 in0.0 mm 0.04 in1.0 mm
10:32 AM 39.7°F4.3°C 27.0°F-2.8°C 61% 7.6 mph WSW12.2 kmh WSW 9.8 mph15.8 kmh 29.85 in1010.8 mb 0.00 in0.0 mm 0.00 in0.0 mm 0.04 in1.0 mm
10:31 AM 43.9°F6.6°C 43.0°F6.1°C 98% Calm Calm -- 29.30 in992.2 mb 0.00 in0.0 mm 0.00 in0.0 mm 1.31 in33.3 mm
10:30 AM 43.9°F6.6°C 43.0°F6.1°C 98% Calm Calm -- 29.30 in992.2 mb 0.00 in0.0 mm 0.00 in0.0 mm 1.31 in33.3 mm
10:29 AM 43.9°F6.6°C 43.0°F6.1°C 98% Calm Calm -- 29.30 in992.2 mb 0.00 in0.0 mm 0.00 in0.0 mm 1.31 in33.3 mm
10:28 AM 43.9°F6.6°C 43.0°F6.1°C 98% Calm Calm -- 29.30 in992.2 mb 0.00 in0.0 mm 0.00 in0.0 mm 1.31 in33.3 mm
10:27 AM 43.9°F6.6°C 43.0°F6.1°C 98% Calm Calm -- 29.30 in992.2 mb 0.00 in0.0 mm 0.00 in0.0 mm 1.31 in33.3 mm
10:26 AM 39.9°F4.4°C 28.0°F-2.2°C 62% 6.0 mph W9.7 kmh W 7.4 mph11.9 kmh 29.85 in1010.8 mb 0.00 in0.0 mm 0.00 in0.0 mm 0.04 in1.0 mm
10:25 AM 39.9°F4.4°C 28.0°F-2.2°C 62% 6.0 mph W9.7 kmh W 7.4 mph11.9 kmh 29.85 in1010.8 mb 0.00 in0.0 mm 0.00 in0.0 mm 0.04 in1.0 mm
10:24 AM 39.9°F4.4°C 28.0°F-2.2°C 62% 6.0 mph W9.7 kmh W 7.4 mph11.9 kmh 29.85 in1010.8 mb 0.00 in0.0 mm 0.00 in0.0 mm 0.04 in1.0 mm
10:23 AM 39.9°F4.4°C 28.0°F-2.2°C 62% 6.0 mph W9.7 kmh W 7.4 mph11.9 kmh 29.85 in1010.8 mb 0.00 in0.0 mm 0.00 in0.0 mm 0.04 in1.0 mm
10:22 AM 39.9°F4.4°C 28.0°F-2.2°C 62% 6.0 mph W9.7 kmh W 7.4 mph11.9 kmh 29.85 in1010.8 mb 0.00 in0.0 mm 0.00 in0.0 mm 0.04 in1.0 mm
10:21 AM 39.9°F4.4°C 28.0°F-2.2°C 61% 2.7 mph W4.3 kmh W 4.9 mph7.9 kmh 29.85 in1010.8 mb 0.00 in0.0 mm 0.00 in0.0 mm 0.04 in1.0 mm
10:20 AM 39.9°F4.4°C 28.0°F-2.2°C 61% 2.7 mph W4.3 kmh W 4.9 mph7.9 kmh 29.85 in1010.8 mb 0.00 in0.0 mm 0.00 in0.0 mm 0.04 in1.0 mm
10:19 AM 39.9°F4.4°C 28.0°F-2.2°C 61% 2.7 mph W4.3 kmh W 4.9 mph7.9 kmh 29.85 in1010.8 mb 0.00 in0.0 mm 0.00 in0.0 mm 0.04 in1.0 mm
10:18 AM 39.9°F4.4°C 28.0°F-2.2°C 61% 2.7 mph W4.3 kmh W 4.9 mph7.9 kmh 29.85 in1010.8 mb 0.00 in0.0 mm 0.00 in0.0 mm 0.04 in1.0 mm
10:17 AM 39.9°F4.4°C 28.0°F-2.2°C 61% 2.7 mph W4.3 kmh W 4.9 mph7.9 kmh 29.85 in1010.8 mb 0.00 in0.0 mm 0.00 in0.0 mm 0.04 in1.0 mm
10:16 AM 39.7°F4.3°C 27.0°F-2.8°C 60% 4.0 mph WSW6.4 kmh WSW 4.9 mph7.9 kmh 29.85 in1010.8 mb 0.00 in0.0 mm 0.00 in0.0 mm 0.04 in1.0 mm
10:15 AM 39.7°F4.3°C 27.0°F-2.8°C 60% 4.0 mph WSW6.4 kmh WSW 4.9 mph7.9 kmh 29.85 in1010.8 mb 0.00 in0.0 mm 0.00 in0.0 mm 0.04 in1.0 mm
10:14 AM 39.7°F4.3°C 27.0°F-2.8°C 60% 4.0 mph WSW6.4 kmh WSW 4.9 mph7.9 kmh 29.85 in1010.8 mb 0.00 in0.0 mm 0.00 in0.0 mm 0.04 in1.0 mm
10:13 AM 39.7°F4.3°C 27.0°F-2.8°C 60% 4.0 mph WSW6.4 kmh WSW 4.9 mph7.9 kmh 29.85 in1010.8 mb 0.00 in0.0 mm 0.00 in0.0 mm 0.04 in1.0 mm
10:12 AM 39.7°F4.3°C 27.0°F-2.8°C 60% 4.0 mph WSW6.4 kmh WSW 4.9 mph7.9 kmh 29.85 in1010.8 mb 0.00 in0.0 mm 0.00 in0.0 mm 0.04 in1.0 mm
10:11 AM 39.7°F4.3°C 27.0°F-2.8°C 60% 9.8 mph SW15.8 kmh SW 12.3 mph19.8 kmh 29.85 in1010.8 mb 0.00 in0.0 mm 0.00 in0.0 mm 0.04 in1.0 mm
10:10 AM 39.7°F4.3°C 27.0°F-2.8°C 60% 9.8 mph SW15.8 kmh SW 12.3 mph19.8 kmh 29.85 in1010.8 mb 0.00 in0.0 mm 0.00 in0.0 mm 0.04 in1.0 mm
10:09 AM 39.7°F4.3°C 27.0°F-2.8°C 60% 9.8 mph SW15.8 kmh SW 12.3 mph19.8 kmh 29.85 in1010.8 mb 0.00 in0.0 mm 0.00 in0.0 mm 0.04 in1.0 mm
10:08 AM 39.7°F4.3°C 27.0°F-2.8°C 60% 9.8 mph SW15.8 kmh SW 12.3 mph19.8 kmh 29.85 in1010.8 mb 0.00 in0.0 mm 0.00 in0.0 mm 0.04 in1.0 mm
10:07 AM 39.7°F4.3°C 27.0°F-2.8°C 60% 9.8 mph SW15.8 kmh SW 12.3 mph19.8 kmh 29.85 in1010.8 mb 0.00 in0.0 mm 0.00 in0.0 mm 0.04 in1.0 mm
10:06 AM 39.6°F4.2°C 26.0°F-3.3°C 59% 3.4 mph W5.5 kmh W 4.9 mph7.9 kmh 29.82 in1009.8 mb 0.00 in0.0 mm 0.00 in0.0 mm 0.04 in1.0 mm
10:05 AM 39.6°F4.2°C 26.0°F-3.3°C 59% 3.4 mph W5.5 kmh W 4.9 mph7.9 kmh 29.82 in1009.8 mb 0.00 in0.0 mm 0.00 in0.0 mm 0.04 in1.0 mm
10:04 AM 39.6°F4.2°C 26.0°F-3.3°C 59% 3.4 mph W5.5 kmh W 4.9 mph7.9 kmh 29.82 in1009.8 mb 0.00 in0.0 mm 0.00 in0.0 mm 0.04 in1.0 mm
10:03 AM 39.6°F4.2°C 26.0°F-3.3°C 59% 3.4 mph W5.5 kmh W 4.9 mph7.9 kmh 29.82 in1009.8 mb 0.00 in0.0 mm 0.00 in0.0 mm 0.04 in1.0 mm
10:02 AM 39.6°F4.2°C 26.0°F-3.3°C 59% 3.4 mph W5.5 kmh W 4.9 mph7.9 kmh 29.82 in1009.8 mb 0.00 in0.0 mm 0.00 in0.0 mm 0.04 in1.0 mm
10:01 AM 39.2°F4.0°C 26.0°F-3.3°C 60% 8.1 mph WSW13.0 kmh WSW 9.8 mph15.8 kmh 29.82 in1009.8 mb 0.00 in0.0 mm 0.00 in0.0 mm 0.04 in1.0 mm
10:00 AM 39.2°F4.0°C 26.0°F-3.3°C 60% 8.1 mph WSW13.0 kmh WSW 9.8 mph15.8 kmh 29.82 in1009.8 mb 0.00 in0.0 mm 0.00 in0.0 mm 0.04 in1.0 mm
09:59 AM 39.2°F4.0°C 26.0°F-3.3°C 60% 8.1 mph WSW13.0 kmh WSW 9.8 mph15.8 kmh 29.82 in1009.8 mb 0.00 in0.0 mm 0.00 in0.0 mm 0.04 in1.0 mm
09:58 AM 39.2°F4.0°C 26.0°F-3.3°C 60% 8.1 mph WSW13.0 kmh WSW 9.8 mph15.8 kmh 29.82 in1009.8 mb 0.00 in0.0 mm 0.00 in0.0 mm 0.04 in1.0 mm
09:57 AM 39.2°F4.0°C 26.0°F-3.3°C 60% 8.1 mph WSW13.0 kmh WSW 9.8 mph15.8 kmh 29.82 in1009.8 mb 0.00 in0.0 mm 0.00 in0.0 mm 0.04 in1.0 mm
09:56 AM 39.0°F3.9°C 26.0°F-3.3°C 58% 4.3 mph W6.9 kmh W 7.4 mph11.9 kmh 29.82 in1009.8 mb 0.00 in0.0 mm 0.00 in0.0 mm 0.04 in1.0 mm
09:55 AM 39.0°F3.9°C 26.0°F-3.3°C 58% 4.3 mph W6.9 kmh W 7.4 mph11.9 kmh 29.82 in1009.8 mb 0.00 in0.0 mm 0.00 in0.0 mm 0.04 in1.0 mm
09:54 AM 39.0°F3.9°C 26.0°F-3.3°C 58% 4.3 mph W6.9 kmh W 7.4 mph11.9 kmh 29.82 in1009.8 mb 0.00 in0.0 mm 0.00 in0.0 mm 0.04 in1.0 mm
09:53 AM 39.0°F3.9°C 26.0°F-3.3°C 58% 4.3 mph W6.9 kmh W 7.4 mph11.9 kmh 29.82 in1009.8 mb 0.00 in0.0 mm 0.00 in0.0 mm 0.04 in1.0 mm
09:52 AM 39.0°F3.9°C 26.0°F-3.3°C 58% 4.3 mph W6.9 kmh W 7.4 mph11.9 kmh 29.82 in1009.8 mb 0.00 in0.0 mm 0.00 in0.0 mm 0.04 in1.0 mm
09:51 AM 38.8°F3.8°C 25.0°F-3.9°C 57% 8.9 mph W14.3 kmh W 12.3 mph19.8 kmh 29.82 in1009.8 mb 0.00 in0.0 mm 0.00 in0.0 mm 0.04 in1.0 mm
09:50 AM 38.8°F3.8°C 25.0°F-3.9°C 57% 8.9 mph W14.3 kmh W 12.3 mph19.8 kmh 29.82 in1009.8 mb 0.00 in0.0 mm 0.00 in0.0 mm 0.04 in1.0 mm
09:49 AM 38.8°F3.8°C 25.0°F-3.9°C 57% 8.9 mph W14.3 kmh W 12.3 mph19.8 kmh 29.82 in1009.8 mb 0.00 in0.0 mm 0.00 in0.0 mm 0.04 in1.0 mm
09:48 AM 38.8°F3.8°C 25.0°F-3.9°C 57% 8.9 mph W14.3 kmh W 12.3 mph19.8 kmh 29.82 in1009.8 mb 0.00 in0.0 mm 0.00 in0.0 mm 0.04 in1.0 mm
09:47 AM 38.8°F3.8°C 25.0°F-3.9°C 57% 8.9 mph W14.3 kmh W 12.3 mph19.8 kmh 29.82 in1009.8 mb 0.00 in0.0 mm 0.00 in0.0 mm 0.04 in1.0 mm
09:46 AM 38.5°F3.6°C 24.0°F-4.4°C 56% 0.2 mph NNE0.3 kmh NNE 2.5 mph4.0 kmh 29.82 in1009.8 mb 0.00 in0.0 mm 0.00 in0.0 mm 0.04 in1.0 mm
09:45 AM 38.5°F3.6°C 24.0°F-4.4°C 56% 0.2 mph NNE0.3 kmh NNE 2.5 mph4.0 kmh 29.82 in1009.8 mb 0.00 in0.0 mm 0.00 in0.0 mm 0.04 in1.0 mm
09:44 AM 38.5°F3.6°C 24.0°F-4.4°C 56% 0.2 mph NNE0.3 kmh NNE 2.5 mph4.0 kmh 29.82 in1009.8 mb 0.00 in0.0 mm 0.00 in0.0 mm 0.04 in1.0 mm
09:43 AM 38.5°F3.6°C 24.0°F-4.4°C 56% 0.2 mph NNE0.3 kmh NNE 2.5 mph4.0 kmh 29.82 in1009.8 mb 0.00 in0.0 mm 0.00 in0.0 mm 0.04 in1.0 mm
09:42 AM 38.5°F3.6°C 24.0°F-4.4°C 56% 0.2 mph NNE0.3 kmh NNE 2.5 mph4.0 kmh 29.82 in1009.8 mb 0.00 in0.0 mm 0.00 in0.0 mm 0.04 in1.0 mm
09:41 AM 38.3°F3.5°C 24.0°F-4.4°C 57% 8.7 mph SW14.0 kmh SW 9.8 mph15.8 kmh 29.83 in1010.2 mb 0.00 in0.0 mm 0.00 in0.0 mm 0.04 in1.0 mm
09:40 AM 38.3°F3.5°C 24.0°F-4.4°C 57% 8.7 mph SW14.0 kmh SW 9.8 mph15.8 kmh 29.83 in1010.2 mb 0.00 in0.0 mm 0.00 in0.0 mm 0.04 in1.0 mm
09:39 AM 38.3°F3.5°C 24.0°F-4.4°C 57% 8.7 mph SW14.0 kmh SW 9.8 mph15.8 kmh 29.83 in1010.2 mb 0.00 in0.0 mm 0.00 in0.0 mm 0.04 in1.0 mm
09:38 AM 38.3°F3.5°C 24.0°F-4.4°C 57% 8.7 mph SW14.0 kmh SW 9.8 mph15.8 kmh 29.83 in1010.2 mb 0.00 in0.0 mm 0.00 in0.0 mm 0.04 in1.0 mm
09:37 AM 38.3°F3.5°C 24.0°F-4.4°C 57% 8.7 mph SW14.0 kmh SW 9.8 mph15.8 kmh 29.83 in1010.2 mb 0.00 in0.0 mm 0.00 in0.0 mm 0.04 in1.0 mm
09:36 AM 38.1°F3.4°C 26.0°F-3.3°C 62% 5.6 mph W9.0 kmh W 7.4 mph11.9 kmh 29.83 in1010.2 mb 0.00 in0.0 mm 0.00 in0.0 mm 0.04 in1.0 mm
09:35 AM 38.1°F3.4°C 26.0°F-3.3°C 62% 5.6 mph W9.0 kmh W 7.4 mph11.9 kmh 29.83 in1010.2 mb 0.00 in0.0 mm 0.00 in0.0 mm 0.04 in1.0 mm
09:34 AM 38.1°F3.4°C 26.0°F-3.3°C 62% 5.6 mph W9.0 kmh W 7.4 mph11.9 kmh 29.83 in1010.2 mb 0.00 in0.0 mm 0.00 in0.0 mm 0.04 in1.0 mm
09:33 AM 38.1°F3.4°C 26.0°F-3.3°C 62% 5.6 mph W9.0 kmh W 7.4 mph11.9 kmh 29.83 in1010.2 mb 0.00 in0.0 mm 0.00 in0.0 mm 0.04 in1.0 mm
09:32 AM 38.1°F3.4°C 26.0°F-3.3°C 62% 5.6 mph W9.0 kmh W 7.4 mph11.9 kmh 29.83 in1010.2 mb 0.00 in0.0 mm 0.00 in0.0 mm 0.04 in1.0 mm
09:31 AM 38.1°F3.4°C 26.0°F-3.3°C 62% 4.5 mph NW7.2 kmh NW 7.4 mph11.9 kmh 29.83 in1010.2 mb 0.00 in0.0 mm 0.00 in0.0 mm 0.04 in1.0 mm
09:30 AM 38.1°F3.4°C 26.0°F-3.3°C 62% 4.5 mph NW7.2 kmh NW 7.4 mph11.9 kmh 29.83 in1010.2 mb 0.00 in0.0 mm 0.00 in0.0 mm 0.04 in1.0 mm
09:29 AM 38.1°F3.4°C 26.0°F-3.3°C 62% 4.5 mph NW7.2 kmh NW 7.4 mph11.9 kmh 29.83 in1010.2 mb 0.00 in0.0 mm 0.00 in0.0 mm 0.04 in1.0 mm
09:28 AM 38.1°F3.4°C 26.0°F-3.3°C 62% 4.5 mph NW7.2 kmh NW 7.4 mph11.9 kmh 29.83 in1010.2 mb 0.00 in0.0 mm 0.00 in0.0 mm 0.04 in1.0 mm
09:27 AM 38.1°F3.4°C 26.0°F-3.3°C 62% 4.5 mph NW7.2 kmh NW 7.4 mph11.9 kmh 29.83 in1010.2 mb 0.00 in0.0 mm 0.00 in0.0 mm 0.04 in1.0 mm
09:26 AM 38.1°F3.4°C 27.0°F-2.8°C 63% 4.5 mph NNW7.2 kmh NNW 4.9 mph7.9 kmh 29.83 in1010.2 mb 0.00 in0.0 mm 0.00 in0.0 mm 0.04 in1.0 mm
09:25 AM 38.1°F3.4°C 27.0°F-2.8°C 63% 4.5 mph NNW7.2 kmh NNW 4.9 mph7.9 kmh 29.83 in1010.2 mb 0.00 in0.0 mm 0.00 in0.0 mm 0.04 in1.0 mm
09:24 AM 38.1°F3.4°C 27.0°F-2.8°C 63% 4.5 mph NNW7.2 kmh NNW 4.9 mph7.9 kmh 29.83 in1010.2 mb 0.00 in0.0 mm 0.00 in0.0 mm 0.04 in1.0 mm
09:23 AM 38.1°F3.4°C 27.0°F-2.8°C 63% 4.5 mph NNW7.2 kmh NNW 4.9 mph7.9 kmh 29.83 in1010.2 mb 0.00 in0.0 mm 0.00 in0.0 mm 0.04 in1.0 mm
09:22 AM 38.1°F3.4°C 27.0°F-2.8°C 63% 4.5 mph NNW7.2 kmh NNW 4.9 mph7.9 kmh 29.83 in1010.2 mb 0.00 in0.0 mm 0.00 in0.0 mm 0.04 in1.0 mm
09:21 AM 38.1°F3.4°C 27.0°F-2.8°C 64% 1.8 mph WSW2.9 kmh WSW 4.9 mph7.9 kmh 29.83 in1010.2 mb 0.00 in0.0 mm 0.00 in0.0 mm 0.04 in1.0 mm
09:20 AM 38.1°F3.4°C 27.0°F-2.8°C 64% 1.8 mph WSW2.9 kmh WSW 4.9 mph7.9 kmh 29.83 in1010.2 mb 0.00 in0.0 mm 0.00 in0.0 mm 0.04 in1.0 mm
09:19 AM 38.1°F3.4°C 27.0°F-2.8°C 64% 1.8 mph WSW2.9 kmh WSW 4.9 mph7.9 kmh 29.83 in1010.2 mb 0.00 in0.0 mm 0.00 in0.0 mm 0.04 in1.0 mm
09:18 AM 38.1°F3.4°C 27.0°F-2.8°C 64% 1.8 mph WSW2.9 kmh WSW 4.9 mph7.9 kmh 29.83 in1010.2 mb 0.00 in0.0 mm 0.00 in0.0 mm 0.04 in1.0 mm
09:17 AM 38.1°F3.4°C 27.0°F-2.8°C 64% 1.8 mph WSW2.9 kmh WSW 4.9 mph7.9 kmh 29.83 in1010.2 mb 0.00 in0.0 mm 0.00 in0.0 mm 0.04 in1.0 mm
09:16 AM 38.1°F3.4°C 28.0°F-2.2°C 67% 1.1 mph NE1.8 kmh NE 2.5 mph4.0 kmh 29.84 in1010.5 mb 0.00 in0.0 mm 0.00 in0.0 mm 0.04 in1.0 mm
09:15 AM 38.1°F3.4°C 28.0°F-2.2°C 67% 1.1 mph NE1.8 kmh NE 2.5 mph4.0 kmh 29.84 in1010.5 mb 0.00 in0.0 mm 0.00 in0.0 mm 0.04 in1.0 mm
09:14 AM 38.1°F3.4°C 28.0°F-2.2°C 67% 1.1 mph NE1.8 kmh NE 2.5 mph4.0 kmh 29.84 in1010.5 mb 0.00 in0.0 mm 0.00 in0.0 mm 0.04 in1.0 mm
09:13 AM 38.1°F3.4°C 28.0°F-2.2°C 67% 1.1 mph NE1.8 kmh NE 2.5 mph4.0 kmh 29.84 in1010.5 mb 0.00 in0.0 mm 0.00 in0.0 mm 0.04 in1.0 mm
09:12 AM 38.1°F3.4°C 28.0°F-2.2°C 67% 1.1 mph NE1.8 kmh NE 2.5 mph4.0 kmh 29.84 in1010.5 mb 0.00 in0.0 mm 0.00 in0.0 mm 0.04 in1.0 mm
09:11 AM 38.3°F3.5°C 30.0°F-1.1°C 71% 5.6 mph WSW9.0 kmh WSW 9.8 mph15.8 kmh 29.84 in1010.5 mb 0.00 in0.0 mm 0.00 in0.0 mm 0.04 in1.0 mm
09:10 AM 38.3°F3.5°C 30.0°F-1.1°C 71% 5.6 mph WSW9.0 kmh WSW 9.8 mph15.8 kmh 29.84 in1010.5 mb 0.00 in0.0 mm 0.00 in0.0 mm 0.04 in1.0 mm
09:09 AM 38.3°F3.5°C 30.0°F-1.1°C 71% 5.6 mph WSW9.0 kmh WSW 9.8 mph15.8 kmh 29.84 in1010.5 mb 0.00 in0.0 mm 0.00 in0.0 mm 0.04 in1.0 mm
09:08 AM 38.3°F3.5°C 30.0°F-1.1°C 71% 5.6 mph WSW9.0 kmh WSW 9.8 mph15.8 kmh 29.84 in1010.5 mb 0.00 in0.0 mm 0.00 in0.0 mm 0.04 in1.0 mm
09:07 AM 38.3°F3.5°C 30.0°F-1.1°C 71% 5.6 mph WSW9.0 kmh WSW 9.8 mph15.8 kmh 29.84 in1010.5 mb 0.00 in0.0 mm 0.00 in0.0 mm 0.04 in1.0 mm
09:06 AM 38.5°F3.6°C 30.0°F-1.1°C 70% 3.4 mph WNW5.5 kmh WNW 4.9 mph7.9 kmh 29.82 in1009.8 mb 0.00 in0.0 mm 0.00 in0.0 mm 0.04 in1.0 mm
09:05 AM 38.5°F3.6°C 30.0°F-1.1°C 70% 3.4 mph WNW5.5 kmh WNW 4.9 mph7.9 kmh 29.82 in1009.8 mb 0.00 in0.0 mm 0.00 in0.0 mm 0.04 in1.0 mm
09:04 AM 38.5°F3.6°C 30.0°F-1.1°C 70% 3.4 mph WNW5.5 kmh WNW 4.9 mph7.9 kmh 29.82 in1009.8 mb 0.00 in0.0 mm 0.00 in0.0 mm 0.04 in1.0 mm
09:03 AM 38.5°F3.6°C 30.0°F-1.1°C 70% 3.4 mph WNW5.5 kmh WNW 4.9 mph7.9 kmh 29.82 in1009.8 mb 0.00 in0.0 mm 0.00 in0.0 mm 0.04 in1.0 mm
09:02 AM 38.5°F3.6°C 30.0°F-1.1°C 70% 3.4 mph WNW5.5 kmh WNW 4.9 mph7.9 kmh 29.82 in1009.8 mb 0.00 in0.0 mm 0.00 in0.0 mm 0.04 in1.0 mm
09:01 AM 38.5°F3.6°C 29.0°F-1.7°C 68% 7.6 mph WSW12.2 kmh WSW 9.8 mph15.8 kmh 29.82 in1009.8 mb 0.00 in0.0 mm 0.00 in0.0 mm 0.04 in1.0 mm
09:00 AM 38.5°F3.6°C 29.0°F-1.7°C 68% 7.6 mph WSW12.2 kmh WSW 9.8 mph15.8 kmh 29.82 in1009.8 mb 0.00 in0.0 mm 0.00 in0.0 mm 0.04 in1.0 mm
08:59 AM 38.5°F3.6°C 29.0°F-1.7°C 68% 7.6 mph WSW12.2 kmh WSW 9.8 mph15.8 kmh 29.82 in1009.8 mb 0.00 in0.0 mm 0.00 in0.0 mm 0.04 in1.0 mm
08:58 AM 38.5°F3.6°C 29.0°F-1.7°C 68% 7.6 mph WSW12.2 kmh WSW 9.8 mph15.8 kmh 29.82 in1009.8 mb 0.00 in0.0 mm 0.00 in0.0 mm 0.04 in1.0 mm
08:57 AM 38.5°F3.6°C 29.0°F-1.7°C 68% 7.6 mph WSW12.2 kmh WSW 9.8 mph15.8 kmh 29.82 in1009.8 mb 0.00 in0.0 mm 0.00 in0.0 mm 0.04 in1.0 mm
08:56 AM 38.7°F3.7°C 29.0°F-1.7°C 67% Calm Calm -- 29.82 in1009.8 mb 0.00 in0.0 mm 0.00 in0.0 mm 0.04 in1.0 mm
08:55 AM 38.7°F3.7°C 29.0°F-1.7°C 67% Calm Calm -- 29.82 in1009.8 mb 0.00 in0.0 mm 0.00 in0.0 mm 0.04 in1.0 mm
08:54 AM 38.7°F3.7°C 29.0°F-1.7°C 67% Calm Calm -- 29.82 in1009.8 mb 0.00 in0.0 mm 0.00 in0.0 mm 0.04 in1.0 mm
08:53 AM 38.7°F3.7°C 29.0°F-1.7°C 67% Calm Calm -- 29.82 in1009.8 mb 0.00 in0.0 mm 0.00 in0.0 mm 0.04 in1.0 mm
08:52 AM 38.7°F3.7°C 29.0°F-1.7°C 67% Calm Calm -- 29.82 in1009.8 mb 0.00 in0.0 mm 0.00 in0.0 mm 0.04 in1.0 mm
08:51 AM 38.7°F3.7°C 28.0°F-2.2°C 65% 1.8 mph WSW2.9 kmh WSW 2.5 mph4.0 kmh 29.82 in1009.8 mb 0.00 in0.0 mm 0.00 in0.0 mm 0.04 in1.0 mm
08:50 AM 38.7°F3.7°C 28.0°F-2.2°C 65% 1.8 mph WSW2.9 kmh WSW 2.5 mph4.0 kmh 29.82 in1009.8 mb 0.00 in0.0 mm 0.00 in0.0 mm 0.04 in1.0 mm
08:49 AM 38.7°F3.7°C 28.0°F-2.2°C 65% 1.8 mph WSW2.9 kmh WSW 2.5 mph4.0 kmh 29.82 in1009.8 mb 0.00 in0.0 mm 0.00 in0.0 mm 0.04 in1.0 mm
08:48 AM 38.7°F3.7°C 28.0°F-2.2°C 65% 1.8 mph WSW2.9 kmh WSW 2.5 mph4.0 kmh 29.82 in1009.8 mb 0.00 in0.0 mm 0.00 in0.0 mm 0.04 in1.0 mm
08:47 AM 38.7°F3.7°C 28.0°F-2.2°C 65% 1.8 mph WSW2.9 kmh WSW 2.5 mph4.0 kmh 29.82 in1009.8 mb 0.00 in0.0 mm 0.00 in0.0 mm 0.04 in1.0 mm
08:46 AM 38.7°F3.7°C 28.0°F-2.2°C 64% 0.9 mph NW1.4 kmh NW 2.5 mph4.0 kmh 29.82 in1009.8 mb 0.00 in0.0 mm 0.00 in0.0 mm 0.04 in1.0 mm
08:45 AM 38.7°F3.7°C 28.0°F-2.2°C 64% 0.9 mph NW1.4 kmh NW 2.5 mph4.0 kmh 29.82 in1009.8 mb 0.00 in0.0 mm 0.00 in0.0 mm 0.04 in1.0 mm
08:44 AM 38.7°F3.7°C 28.0°F-2.2°C 64% 0.9 mph NW1.4 kmh NW 2.5 mph4.0 kmh 29.82 in1009.8 mb 0.00 in0.0 mm 0.00 in0.0 mm 0.04 in1.0 mm
08:43 AM 38.7°F3.7°C 28.0°F-2.2°C 64% 0.9 mph NW1.4 kmh NW 2.5 mph4.0 kmh 29.82 in1009.8 mb 0.00 in0.0 mm 0.00 in0.0 mm 0.04 in1.0 mm
08:42 AM 38.7°F3.7°C 28.0°F-2.2°C 64% 0.9 mph NW1.4 kmh NW 2.5 mph4.0 kmh 29.82 in1009.8 mb 0.00 in0.0 mm 0.00 in0.0 mm 0.04 in1.0 mm
08:41 AM 38.7°F3.7°C 28.0°F-2.2°C 64% 1.1 mph N1.8 kmh N 2.5 mph4.0 kmh 29.82 in1009.8 mb 0.00 in0.0 mm 0.00 in0.0 mm 0.04 in1.0 mm
08:40 AM 38.5°F3.6°C 27.0°F-2.8°C 62% 7.2 mph WSW11.6 kmh WSW 19.9 mph32.0 kmh 29.82 in1009.8 mb 0.00 in0.0 mm 0.00 in0.0 mm 0.04 in1.0 mm
08:39 AM 38.5°F3.6°C 27.0°F-2.8°C 62% 7.2 mph WSW11.6 kmh WSW 19.9 mph32.0 kmh 29.82 in1009.8 mb 0.00 in0.0 mm 0.00 in0.0 mm 0.04 in1.0 mm
08:38 AM 38.5°F3.6°C 27.0°F-2.8°C 62% 7.2 mph WSW11.6 kmh WSW 19.9 mph32.0 kmh 29.82 in1009.8 mb 0.00 in0.0 mm 0.00 in0.0 mm 0.04 in1.0 mm
08:37 AM 38.5°F3.6°C 27.0°F-2.8°C 62% 7.2 mph WSW11.6 kmh WSW 19.9 mph32.0 kmh 29.82 in1009.8 mb 0.00 in0.0 mm 0.00 in0.0 mm 0.04 in1.0 mm
08:36 AM 38.5°F3.6°C 27.0°F-2.8°C 62% 7.2 mph WSW11.6 kmh WSW 19.9 mph32.0 kmh 29.82 in1009.8 mb 0.00 in0.0 mm 0.00 in0.0 mm 0.04 in1.0 mm
08:35 AM 39.9°F4.4°C 28.0°F-2.2°C 61% 1.3 mph NW2.1 kmh NW 2.5 mph4.0 kmh 29.68 in1005.1 mb 0.00 in0.0 mm 0.00 in0.0 mm 1.34 in34.0 mm
08:34 AM 39.9°F4.4°C 28.0°F-2.2°C 61% 1.3 mph NW2.1 kmh NW 2.5 mph4.0 kmh 29.68 in1005.1 mb 0.00 in0.0 mm 0.00 in0.0 mm 1.34 in34.0 mm
08:33 AM 39.9°F4.4°C 28.0°F-2.2°C 61% 1.3 mph NW2.1 kmh NW 2.5 mph4.0 kmh 29.68 in1005.1 mb 0.00 in0.0 mm 0.00 in0.0 mm 1.34 in34.0 mm
08:32 AM 39.9°F4.4°C 28.0°F-2.2°C 61% 1.3 mph NW2.1 kmh NW 2.5 mph4.0 kmh 29.68 in1005.1 mb 0.00 in0.0 mm 0.00 in0.0 mm 1.34 in34.0 mm
08:31 AM 39.9°F4.4°C 28.0°F-2.2°C 61% 1.3 mph NW2.1 kmh NW 2.5 mph4.0 kmh 29.68 in1005.1 mb 0.00 in0.0 mm 0.00 in0.0 mm 1.34 in34.0 mm
08:30 AM 38.5°F3.6°C 27.0°F-2.8°C 62% 2.5 mph WSW4.0 kmh WSW 4.9 mph7.9 kmh 29.82 in1009.8 mb 0.00 in0.0 mm 0.00 in0.0 mm 0.04 in1.0 mm
08:29 AM 38.5°F3.6°C 27.0°F-2.8°C 62% 2.5 mph WSW4.0 kmh WSW 4.9 mph7.9 kmh 29.82 in1009.8 mb 0.00 in0.0 mm 0.00 in0.0 mm 0.04 in1.0 mm
08:28 AM 38.5°F3.6°C 27.0°F-2.8°C 62% 2.5 mph WSW4.0 kmh WSW 4.9 mph7.9 kmh 29.82 in1009.8 mb 0.00 in0.0 mm 0.00 in0.0 mm 0.04 in1.0 mm
08:27 AM 38.5°F3.6°C 27.0°F-2.8°C 62% 2.5 mph WSW4.0 kmh WSW 4.9 mph7.9 kmh 29.82 in1009.8 mb 0.00 in0.0 mm 0.00 in0.0 mm 0.04 in1.0 mm
08:26 AM 38.5°F3.6°C 27.0°F-2.8°C 62% 2.5 mph WSW4.0 kmh WSW 4.9 mph7.9 kmh 29.82 in1009.8 mb 0.00 in0.0 mm 0.00 in0.0 mm 0.04 in1.0 mm
08:25 AM 38.5°F3.6°C 27.0°F-2.8°C 62% Calm Calm -- 29.82 in1009.8 mb 0.00 in0.0 mm 0.00 in0.0 mm 0.04 in1.0 mm
08:24 AM 38.5°F3.6°C 27.0°F-2.8°C 62% Calm Calm -- 29.82 in1009.8 mb 0.00 in0.0 mm 0.00 in0.0 mm 0.04 in1.0 mm
08:23 AM 38.5°F3.6°C 27.0°F-2.8°C 62% Calm Calm -- 29.82 in1009.8 mb 0.00 in0.0 mm 0.00 in0.0 mm 0.04 in1.0 mm
08:22 AM 38.5°F3.6°C 27.0°F-2.8°C 62% Calm Calm -- 29.82 in1009.8 mb 0.00 in0.0 mm 0.00 in0.0 mm 0.04 in1.0 mm
08:21 AM 38.5°F3.6°C 27.0°F-2.8°C 62% Calm Calm -- 29.82 in1009.8 mb 0.00 in0.0 mm 0.00 in0.0 mm 0.04 in1.0 mm
08:20 AM 38.5°F3.6°C 27.0°F-2.8°C 62% 0.9 mph WSW1.4 kmh WSW 2.5 mph4.0 kmh 29.82 in1009.8 mb 0.00 in0.0 mm 0.00 in0.0 mm 0.04 in1.0 mm
08:19 AM 38.5°F3.6°C 27.0°F-2.8°C 62% 0.9 mph WSW1.4 kmh WSW 2.5 mph4.0 kmh 29.82 in1009.8 mb 0.00 in0.0 mm 0.00 in0.0 mm 0.04 in1.0 mm
08:18 AM 38.5°F3.6°C 27.0°F-2.8°C 62% 0.9 mph WSW1.4 kmh WSW 2.5 mph4.0 kmh 29.82 in1009.8 mb 0.00 in0.0 mm 0.00 in0.0 mm 0.04 in1.0 mm
08:17 AM 38.5°F3.6°C 27.0°F-2.8°C 62% 0.9 mph WSW1.4 kmh WSW 2.5 mph4.0 kmh 29.82 in1009.8 mb 0.00 in0.0 mm 0.00 in0.0 mm 0.04 in1.0 mm
08:16 AM 38.5°F3.6°C 27.0°F-2.8°C 62% 0.9 mph WSW1.4 kmh WSW 2.5 mph4.0 kmh 29.82 in1009.8 mb 0.00 in0.0 mm 0.00 in0.0 mm 0.04 in1.0 mm
08:15 AM 38.7°F3.7°C 27.0°F-2.8°C 62% 4.0 mph WSW6.4 kmh WSW 4.9 mph7.9 kmh 29.82 in1009.8 mb 0.00 in0.0 mm 0.00 in0.0 mm 0.04 in1.0 mm
08:14 AM 38.7°F3.7°C 27.0°F-2.8°C 62% 4.0 mph WSW6.4 kmh WSW 4.9 mph7.9 kmh 29.82 in1009.8 mb 0.00 in0.0 mm 0.00 in0.0 mm 0.04 in1.0 mm
08:13 AM 38.7°F3.7°C 27.0°F-2.8°C 62% 4.0 mph WSW6.4 kmh WSW 4.9 mph7.9 kmh 29.82 in1009.8 mb 0.00 in0.0 mm 0.00 in0.0 mm 0.04 in1.0 mm
08:12 AM 38.7°F3.7°C 27.0°F-2.8°C 62% 4.0 mph WSW6.4 kmh WSW 4.9 mph7.9 kmh 29.82 in1009.8 mb 0.00 in0.0 mm 0.00 in0.0 mm 0.04 in1.0 mm
08:11 AM 38.7°F3.7°C 27.0°F-2.8°C 62% 4.0 mph WSW6.4 kmh WSW 4.9 mph7.9 kmh 29.82 in1009.8 mb 0.00 in0.0 mm 0.00 in0.0 mm 0.04 in1.0 mm
08:10 AM 38.7°F3.7°C 27.0°F-2.8°C 62% 4.0 mph WSW6.4 kmh WSW 4.9 mph7.9 kmh 29.82 in1009.8 mb 0.00 in0.0 mm 0.00 in0.0 mm 0.04 in1.0 mm
08:09 AM 38.8°F3.8°C 27.0°F-2.8°C 62% 6.5 mph WSW10.5 kmh WSW 9.8 mph15.8 kmh 29.82 in1009.8 mb 0.00 in0.0 mm 0.00 in0.0 mm 0.04 in1.0 mm
08:08 AM 38.8°F3.8°C 27.0°F-2.8°C 62% 6.5 mph WSW10.5 kmh WSW 9.8 mph15.8 kmh 29.82 in1009.8 mb 0.00 in0.0 mm 0.00 in0.0 mm 0.04 in1.0 mm
08:07 AM 38.8°F3.8°C 27.0°F-2.8°C 62% 6.5 mph WSW10.5 kmh WSW 9.8 mph15.8 kmh 29.82 in1009.8 mb 0.00 in0.0 mm 0.00 in0.0 mm 0.04 in1.0 mm
08:06 AM 38.8°F3.8°C 27.0°F-2.8°C 62% 6.5 mph WSW10.5 kmh WSW 9.8 mph15.8 kmh 29.82 in1009.8 mb 0.00 in0.0 mm 0.00 in0.0 mm 0.04 in1.0 mm
08:05 AM 38.8°F3.8°C 27.0°F-2.8°C 62% 6.5 mph WSW10.5 kmh WSW 9.8 mph15.8 kmh 29.82 in1009.8 mb 0.00 in0.0 mm 0.00 in0.0 mm 0.04 in1.0 mm
08:04 AM 38.8°F3.8°C 27.0°F-2.8°C 63% 4.0 mph SE6.4 kmh SE 7.4 mph11.9 kmh 29.78 in1008.5 mb 0.00 in0.0 mm 0.00 in0.0 mm 0.04 in1.0 mm
08:03 AM 38.8°F3.8°C 27.0°F-2.8°C 63% 4.0 mph SE6.4 kmh SE 7.4 mph11.9 kmh 29.78 in1008.5 mb 0.00 in0.0 mm 0.00 in0.0 mm 0.04 in1.0 mm
08:02 AM 38.8°F3.8°C 27.0°F-2.8°C 63% 4.0 mph SE6.4 kmh SE 7.4 mph11.9 kmh 29.78 in1008.5 mb 0.00 in0.0 mm 0.00 in0.0 mm 0.04 in1.0 mm
08:01 AM 38.8°F3.8°C 27.0°F-2.8°C 63% 4.0 mph SE6.4 kmh SE 7.4 mph11.9 kmh 29.78 in1008.5 mb 0.00 in0.0 mm 0.00 in0.0 mm 0.04 in1.0 mm
08:00 AM 38.8°F3.8°C 27.0°F-2.8°C 63% 4.0 mph SE6.4 kmh SE 7.4 mph11.9 kmh 29.78 in1008.5 mb 0.00 in0.0 mm 0.00 in0.0 mm 0.04 in1.0 mm
07:59 AM 39.0°F3.9°C 28.0°F-2.2°C 64% 6.5 mph WSW10.5 kmh WSW 7.4 mph11.9 kmh 29.78 in1008.5 mb 0.00 in0.0 mm 0.00 in0.0 mm 0.04 in1.0 mm
07:58 AM 39.0°F3.9°C 28.0°F-2.2°C 64% 6.5 mph WSW10.5 kmh WSW 7.4 mph11.9 kmh 29.78 in1008.5 mb 0.00 in0.0 mm 0.00 in0.0 mm 0.04 in1.0 mm
07:57 AM 39.0°F3.9°C 28.0°F-2.2°C 64% 6.5 mph WSW10.5 kmh WSW 7.4 mph11.9 kmh 29.78 in1008.5 mb 0.00 in0.0 mm 0.00 in0.0 mm 0.04 in1.0 mm
07:56 AM 39.0°F3.9°C 28.0°F-2.2°C 64% 6.5 mph WSW10.5 kmh WSW 7.4 mph11.9 kmh 29.78 in1008.5 mb 0.00 in0.0 mm 0.00 in0.0 mm 0.04 in1.0 mm
07:55 AM 39.0°F3.9°C 28.0°F-2.2°C 64% 6.5 mph WSW10.5 kmh WSW 7.4 mph11.9 kmh 29.78 in1008.5 mb 0.00 in0.0 mm 0.00 in0.0 mm 0.04 in1.0 mm
07:54 AM 39.0°F3.9°C 28.0°F-2.2°C 63% Calm Calm -- 29.78 in1008.5 mb 0.00 in0.0 mm 0.00 in0.0 mm 0.04 in1.0 mm
07:53 AM 39.0°F3.9°C 28.0°F-2.2°C 63% Calm Calm -- 29.78 in1008.5 mb 0.00 in0.0 mm 0.00 in0.0 mm 0.04 in1.0 mm
07:52 AM 39.0°F3.9°C 28.0°F-2.2°C 63% Calm Calm -- 29.78 in1008.5 mb 0.00 in0.0 mm 0.00 in0.0 mm 0.04 in1.0 mm
07:51 AM 39.0°F3.9°C 28.0°F-2.2°C 63% Calm Calm -- 29.78 in1008.5 mb 0.00 in0.0 mm 0.00 in0.0 mm 0.04 in1.0 mm
07:50 AM 39.0°F3.9°C 28.0°F-2.2°C 63% Calm Calm -- 29.78 in1008.5 mb 0.00 in0.0 mm 0.00 in0.0 mm 0.04 in1.0 mm
07:49 AM 39.2°F4.0°C 28.0°F-2.2°C 63% 1.1 mph NE1.8 kmh NE 2.5 mph4.0 kmh 29.78 in1008.5 mb 0.00 in0.0 mm 0.00 in0.0 mm 0.04 in1.0 mm
07:48 AM 39.2°F4.0°C 28.0°F-2.2°C 63% 1.1 mph NE1.8 kmh NE 2.5 mph4.0 kmh 29.78 in1008.5 mb 0.00 in0.0 mm 0.00 in0.0 mm 0.04 in1.0 mm
07:47 AM 39.2°F4.0°C 28.0°F-2.2°C 63% 1.1 mph NE1.8 kmh NE 2.5 mph4.0 kmh 29.78 in1008.5 mb 0.00 in0.0 mm 0.00 in0.0 mm 0.04 in1.0 mm
07:46 AM 39.2°F4.0°C 28.0°F-2.2°C 63% 1.1 mph NE1.8 kmh NE 2.5 mph4.0 kmh 29.78 in1008.5 mb 0.00 in0.0 mm 0.00 in0.0 mm 0.04 in1.0 mm
07:45 AM 39.2°F4.0°C 28.0°F-2.2°C 63% 1.1 mph NE1.8 kmh NE 2.5 mph4.0 kmh 29.78 in1008.5 mb 0.00 in0.0 mm 0.00 in0.0 mm 0.04 in1.0 mm
07:44 AM 39.2°F4.0°C 27.0°F-2.8°C 62% 8.3 mph WSW13.4 kmh WSW 12.3 mph19.8 kmh 29.78 in1008.5 mb 0.00 in0.0 mm 0.00 in0.0 mm 0.04 in1.0 mm
07:43 AM 39.2°F4.0°C 27.0°F-2.8°C 62% 8.3 mph WSW13.4 kmh WSW 12.3 mph19.8 kmh 29.78 in1008.5 mb 0.00 in0.0 mm 0.00 in0.0 mm 0.04 in1.0 mm
07:42 AM 39.2°F4.0°C 27.0°F-2.8°C 62% 8.3 mph WSW13.4 kmh WSW 12.3 mph19.8 kmh 29.78 in1008.5 mb 0.00 in0.0 mm 0.00 in0.0 mm 0.04 in1.0 mm
07:41 AM 39.2°F4.0°C 27.0°F-2.8°C 62% 8.3 mph WSW13.4 kmh WSW 12.3 mph19.8 kmh 29.78 in1008.5 mb 0.00 in0.0 mm 0.00 in0.0 mm 0.04 in1.0 mm
07:40 AM 39.2°F4.0°C 27.0°F-2.8°C 62% 8.3 mph WSW13.4 kmh WSW 12.3 mph19.8 kmh 29.78 in1008.5 mb 0.00 in0.0 mm 0.00 in0.0 mm 0.04 in1.0 mm
07:39 AM 39.4°F4.1°C 28.0°F-2.2°C 64% 4.9 mph WSW7.9 kmh WSW 7.4 mph11.9 kmh 29.78 in1008.5 mb 0.00 in0.0 mm 0.00 in0.0 mm 0.04 in1.0 mm
07:38 AM 39.4°F4.1°C 28.0°F-2.2°C 64% 4.9 mph WSW7.9 kmh WSW 7.4 mph11.9 kmh 29.78 in1008.5 mb 0.00 in0.0 mm 0.00 in0.0 mm 0.04 in1.0 mm
07:37 AM 39.4°F4.1°C 28.0°F-2.2°C 64% 4.9 mph WSW7.9 kmh WSW 7.4 mph11.9 kmh 29.78 in1008.5 mb 0.00 in0.0 mm 0.00 in0.0 mm 0.04 in1.0 mm
07:36 AM 39.4°F4.1°C 28.0°F-2.2°C 64% 4.9 mph WSW7.9 kmh WSW 7.4 mph11.9 kmh 29.78 in1008.5 mb 0.00 in0.0 mm 0.00 in0.0 mm 0.04 in1.0 mm
07:35 AM 39.4°F4.1°C 28.0°F-2.2°C 64% 4.9 mph WSW7.9 kmh WSW 7.4 mph11.9 kmh 29.78 in1008.5 mb 0.00 in0.0 mm 0.00 in0.0 mm 0.04 in1.0 mm
07:34 AM 39.4°F4.1°C 29.0°F-1.7°C 65% 4.0 mph W6.4 kmh W 7.4 mph11.9 kmh 29.78 in1008.5 mb 0.00 in0.0 mm 0.00 in0.0 mm 0.04 in1.0 mm
07:33 AM 39.4°F4.1°C 29.0°F-1.7°C 65% 4.0 mph W6.4 kmh W 7.4 mph11.9 kmh 29.78 in1008.5 mb 0.00 in0.0 mm 0.00 in0.0 mm 0.04 in1.0 mm
07:32 AM 39.4°F4.1°C 29.0°F-1.7°C 65% 4.0 mph W6.4 kmh W 7.4 mph11.9 kmh 29.78 in1008.5 mb 0.00 in0.0 mm 0.00 in0.0 mm 0.04 in1.0 mm
07:31 AM 39.4°F4.1°C 29.0°F-1.7°C 65% 4.0 mph W6.4 kmh W 7.4 mph11.9 kmh 29.78 in1008.5 mb 0.00 in0.0 mm 0.00 in0.0 mm 0.04 in1.0 mm
07:30 AM 39.4°F4.1°C 29.0°F-1.7°C 65% 4.0 mph W6.4 kmh W 7.4 mph11.9 kmh 29.78 in1008.5 mb 0.00 in0.0 mm 0.00 in0.0 mm 0.04 in1.0 mm
07:29 AM 39.6°F4.2°C 29.0°F-1.7°C 65% 5.6 mph W9.0 kmh W 7.4 mph11.9 kmh 29.78 in1008.5 mb 0.00 in0.0 mm 0.00 in0.0 mm 0.04 in1.0 mm
07:28 AM 39.6°F4.2°C 29.0°F-1.7°C 65% 5.6 mph W9.0 kmh W 7.4 mph11.9 kmh 29.78 in1008.5 mb 0.00 in0.0 mm 0.00 in0.0 mm 0.04 in1.0 mm
07:27 AM 39.6°F4.2°C 29.0°F-1.7°C 65% 5.6 mph W9.0 kmh W 7.4 mph11.9 kmh 29.78 in1008.5 mb 0.00 in0.0 mm 0.00 in0.0 mm 0.04 in1.0 mm
07:26 AM 39.6°F4.2°C 29.0°F-1.7°C 65% 5.6 mph W9.0 kmh W 7.4 mph11.9 kmh 29.78 in1008.5 mb 0.00 in0.0 mm 0.00 in0.0 mm 0.04 in1.0 mm
07:25 AM 39.6°F4.2°C 29.0°F-1.7°C 65% 5.6 mph W9.0 kmh W 7.4 mph11.9 kmh 29.78 in1008.5 mb 0.00 in0.0 mm 0.00 in0.0 mm 0.04 in1.0 mm
07:24 AM 39.6°F4.2°C 29.0°F-1.7°C 65% 4.5 mph SW7.2 kmh SW 4.9 mph7.9 kmh 29.78 in1008.5 mb 0.00 in0.0 mm 0.00 in0.0 mm 0.04 in1.0 mm
07:23 AM 39.6°F4.2°C 29.0°F-1.7°C 65% 4.5 mph SW7.2 kmh SW 4.9 mph7.9 kmh 29.78 in1008.5 mb 0.00 in0.0 mm 0.00 in0.0 mm 0.04 in1.0 mm
07:22 AM 39.6°F4.2°C 29.0°F-1.7°C 65% 4.5 mph SW7.2 kmh SW 4.9 mph7.9 kmh 29.78 in1008.5 mb 0.00 in0.0 mm 0.00 in0.0 mm 0.04 in1.0 mm
07:21 AM 39.6°F4.2°C 29.0°F-1.7°C 65% 4.5 mph SW7.2 kmh SW 4.9 mph7.9 kmh 29.78 in1008.5 mb 0.00 in0.0 mm 0.00 in0.0 mm 0.04 in1.0 mm
07:20 AM 39.6°F4.2°C 29.0°F-1.7°C 65% 4.5 mph SW7.2 kmh SW 4.9 mph7.9 kmh 29.78 in1008.5 mb 0.00 in0.0 mm 0.00 in0.0 mm 0.04 in1.0 mm
07:19 AM 39.7°F4.3°C 29.0°F-1.7°C 64% 9.6 mph S15.4 kmh S 12.3 mph19.8 kmh 29.78 in1008.5 mb 0.00 in0.0 mm 0.00 in0.0 mm 0.04 in1.0 mm
07:18 AM 39.7°F4.3°C 29.0°F-1.7°C 64% 9.6 mph S15.4 kmh S 12.3 mph19.8 kmh 29.78 in1008.5 mb 0.00 in0.0 mm 0.00 in0.0 mm 0.04 in1.0 mm
07:17 AM 39.7°F4.3°C 29.0°F-1.7°C 64% 9.6 mph S15.4 kmh S 12.3 mph19.8 kmh 29.78 in1008.5 mb 0.00 in0.0 mm 0.00 in0.0 mm 0.04 in1.0 mm
07:16 AM 39.7°F4.3°C 29.0°F-1.7°C 64% 9.6 mph S15.4 kmh S 12.3 mph19.8 kmh 29.78 in1008.5 mb 0.00 in0.0 mm 0.00 in0.0 mm 0.04 in1.0 mm
07:15 AM 39.7°F4.3°C 29.0°F-1.7°C 64% 9.6 mph S15.4 kmh S 12.3 mph19.8 kmh 29.78 in1008.5 mb 0.00 in0.0 mm 0.00 in0.0 mm 0.04 in1.0 mm
07:14 AM 39.7°F4.3°C 28.0°F-2.2°C 63% 6.7 mph WSW10.8 kmh WSW 9.8 mph15.8 kmh 29.78 in1008.5 mb 0.00 in0.0 mm 0.00 in0.0 mm 0.04 in1.0 mm
07:13 AM 39.7°F4.3°C 28.0°F-2.2°C 63% 6.7 mph WSW10.8 kmh WSW 9.8 mph15.8 kmh 29.78 in1008.5 mb 0.00 in0.0 mm 0.00 in0.0 mm 0.04 in1.0 mm
07:12 AM 39.7°F4.3°C 28.0°F-2.2°C 63% 6.7 mph WSW10.8 kmh WSW 9.8 mph15.8 kmh 29.78 in1008.5 mb 0.00 in0.0 mm 0.00 in0.0 mm 0.04 in1.0 mm
07:11 AM 39.7°F4.3°C 28.0°F-2.2°C 63% 6.7 mph WSW10.8 kmh WSW 9.8 mph15.8 kmh 29.78 in1008.5 mb 0.00 in0.0 mm 0.00 in0.0 mm 0.04 in1.0 mm
07:10 AM 39.7°F4.3°C 28.0°F-2.2°C 63% 6.7 mph WSW10.8 kmh WSW 9.8 mph15.8 kmh 29.78 in1008.5 mb 0.00 in0.0 mm 0.00 in0.0 mm 0.04 in1.0 mm
07:09 AM 39.7°F4.3°C 28.0°F-2.2°C 63% 5.1 mph WSW8.2 kmh WSW 7.4 mph11.9 kmh 29.78 in1008.5 mb 0.00 in0.0 mm 0.00 in0.0 mm 0.04 in1.0 mm
07:08 AM 39.7°F4.3°C 28.0°F-2.2°C 63% 5.1 mph WSW8.2 kmh WSW 7.4 mph11.9 kmh 29.78 in1008.5 mb 0.00 in0.0 mm 0.00 in0.0 mm 0.04 in1.0 mm
07:07 AM 39.7°F4.3°C 28.0°F-2.2°C 63% 5.1 mph WSW8.2 kmh WSW 7.4 mph11.9 kmh 29.78 in1008.5 mb 0.00 in0.0 mm 0.00 in0.0 mm 0.04 in1.0 mm
07:06 AM 39.7°F4.3°C 28.0°F-2.2°C 63% 5.1 mph WSW8.2 kmh WSW 7.4 mph11.9 kmh 29.78 in1008.5 mb 0.00 in0.0 mm 0.00 in0.0 mm 0.04 in1.0 mm
07:05 AM 39.7°F4.3°C 28.0°F-2.2°C 63% 5.1 mph WSW8.2 kmh WSW 7.4 mph11.9 kmh 29.78 in1008.5 mb 0.00 in0.0 mm 0.00 in0.0 mm 0.04 in1.0 mm
07:04 AM 39.9°F4.4°C 28.0°F-2.2°C 62% 0.4 mph WSW0.6 kmh WSW 2.5 mph4.0 kmh 29.75 in1007.5 mb 0.00 in0.0 mm 0.00 in0.0 mm 0.04 in1.0 mm
07:03 AM 39.9°F4.4°C 28.0°F-2.2°C 62% 0.4 mph WSW0.6 kmh WSW 2.5 mph4.0 kmh 29.75 in1007.5 mb 0.00 in0.0 mm 0.00 in0.0 mm 0.04 in1.0 mm
07:02 AM 39.9°F4.4°C 28.0°F-2.2°C 62% 0.4 mph WSW0.6 kmh WSW 2.5 mph4.0 kmh 29.75 in1007.5 mb 0.00 in0.0 mm 0.00 in0.0 mm 0.04 in1.0 mm
07:01 AM 39.9°F4.4°C 28.0°F-2.2°C 62% 0.4 mph WSW0.6 kmh WSW 2.5 mph4.0 kmh 29.75 in1007.5 mb 0.00 in0.0 mm 0.00 in0.0 mm 0.04 in1.0 mm
07:00 AM 39.9°F4.4°C 28.0°F-2.2°C 62% 0.4 mph WSW0.6 kmh WSW 2.5 mph4.0 kmh 29.75 in1007.5 mb 0.00 in0.0 mm 0.00 in0.0 mm 0.04 in1.0 mm
06:59 AM 39.9°F4.4°C 28.0°F-2.2°C 62% 1.1 mph NNW1.8 kmh NNW 2.5 mph4.0 kmh 29.75 in1007.5 mb 0.00 in0.0 mm 0.00 in0.0 mm 0.04 in1.0 mm
06:58 AM 39.9°F4.4°C 28.0°F-2.2°C 62% 1.1 mph NNW1.8 kmh NNW 2.5 mph4.0 kmh 29.75 in1007.5 mb 0.00 in0.0 mm 0.00 in0.0 mm 0.04 in1.0 mm
06:57 AM 39.9°F4.4°C 28.0°F-2.2°C 62% 1.1 mph NNW1.8 kmh NNW 2.5 mph4.0 kmh 29.75 in1007.5 mb 0.00 in0.0 mm 0.00 in0.0 mm 0.04 in1.0 mm
06:56 AM 39.9°F4.4°C 28.0°F-2.2°C 62% 1.1 mph NNW1.8 kmh NNW 2.5 mph4.0 kmh 29.75 in1007.5 mb 0.00 in0.0 mm 0.00 in0.0 mm 0.04 in1.0 mm
06:55 AM 39.9°F4.4°C 28.0°F-2.2°C 62% 1.1 mph NNW1.8 kmh NNW 2.5 mph4.0 kmh 29.75 in1007.5 mb 0.00 in0.0 mm 0.00 in0.0 mm 0.04 in1.0 mm
06:54 AM 39.9°F4.4°C 28.0°F-2.2°C 62% 0.2 mph NNW0.3 kmh NNW 2.5 mph4.0 kmh 29.75 in1007.5 mb 0.00 in0.0 mm 0.00 in0.0 mm 0.04 in1.0 mm
06:53 AM 39.9°F4.4°C 28.0°F-2.2°C 62% 0.2 mph NNW0.3 kmh NNW 2.5 mph4.0 kmh 29.75 in1007.5 mb 0.00 in0.0 mm 0.00 in0.0 mm 0.04 in1.0 mm
06:52 AM 39.9°F4.4°C 28.0°F-2.2°C 62% 0.2 mph NNW0.3 kmh NNW 2.5 mph4.0 kmh 29.75 in1007.5 mb 0.00 in0.0 mm 0.00 in0.0 mm 0.04 in1.0 mm
06:51 AM 39.9°F4.4°C 28.0°F-2.2°C 62% 0.2 mph NNW0.3 kmh NNW 2.5 mph4.0 kmh 29.75 in1007.5 mb 0.00 in0.0 mm 0.00 in0.0 mm 0.04 in1.0 mm
06:50 AM 39.9°F4.4°C 28.0°F-2.2°C 62% 0.2 mph NNW0.3 kmh NNW 2.5 mph4.0 kmh 29.75 in1007.5 mb 0.00 in0.0 mm 0.00 in0.0 mm 0.04 in1.0 mm
06:49 AM 39.9°F4.4°C 28.0°F-2.2°C 61% 1.8 mph NW2.9 kmh NW 2.5 mph4.0 kmh 29.75 in1007.5 mb 0.00 in0.0 mm 0.00 in0.0 mm 0.04 in1.0 mm
06:48 AM 39.9°F4.4°C 28.0°F-2.2°C 61% 1.8 mph NW2.9 kmh NW 2.5 mph4.0 kmh 29.75 in1007.5 mb 0.00 in0.0 mm 0.00 in0.0 mm 0.04 in1.0 mm
06:47 AM 39.9°F4.4°C 28.0°F-2.2°C 61% 1.8 mph NW2.9 kmh NW 2.5 mph4.0 kmh 29.75 in1007.5 mb 0.00 in0.0 mm 0.00 in0.0 mm 0.04 in1.0 mm
06:46 AM 39.9°F4.4°C 28.0°F-2.2°C 61% 1.8 mph NW2.9 kmh NW 2.5 mph4.0 kmh 29.75 in1007.5 mb 0.00 in0.0 mm 0.00 in0.0 mm 0.04 in1.0 mm
06:45 AM 39.9°F4.4°C 28.0°F-2.2°C 61% 1.8 mph NW2.9 kmh NW 2.5 mph4.0 kmh 29.75 in1007.5 mb 0.00 in0.0 mm 0.00 in0.0 mm 0.04 in1.0 mm
06:44 AM 39.9°F4.4°C 28.0°F-2.2°C 61% 3.6 mph W5.8 kmh W 4.9 mph7.9 kmh 29.75 in1007.5 mb 0.00 in0.0 mm 0.00 in0.0 mm 0.04 in1.0 mm
06:43 AM 39.9°F4.4°C 28.0°F-2.2°C 61% 3.6 mph W5.8 kmh W 4.9 mph7.9 kmh 29.75 in1007.5 mb 0.00 in0.0 mm 0.00 in0.0 mm 0.04 in1.0 mm
06:42 AM 39.9°F4.4°C 28.0°F-2.2°C 61% 3.6 mph W5.8 kmh W 4.9 mph7.9 kmh 29.75 in1007.5 mb 0.00 in0.0 mm 0.00 in0.0 mm 0.04 in1.0 mm
06:41 AM 39.9°F4.4°C 28.0°F-2.2°C 61% 3.6 mph W5.8 kmh W 4.9 mph7.9 kmh 29.75 in1007.5 mb 0.00 in0.0 mm 0.00 in0.0 mm 0.04 in1.0 mm
06:40 AM 39.9°F4.4°C 28.0°F-2.2°C 61% 3.6 mph W5.8 kmh W 4.9 mph7.9 kmh 29.75 in1007.5 mb 0.00 in0.0 mm 0.00 in0.0 mm 0.04 in1.0 mm
06:39 AM 43.3°F6.3°C 43.0°F6.1°C 99% 0.2 mph NW0.3 kmh NW 2.5 mph4.0 kmh 29.75 in1007.5 mb 0.00 in0.0 mm 0.00 in0.0 mm 0.00 in0.0 mm
06:38 AM 43.3°F6.3°C 43.0°F6.1°C 99% 0.2 mph NW0.3 kmh NW 2.5 mph4.0 kmh 29.75 in1007.5 mb 0.00 in0.0 mm 0.00 in0.0 mm 0.00 in0.0 mm
06:37 AM 43.3°F6.3°C 43.0°F6.1°C 99% 0.2 mph NW0.3 kmh NW 2.5 mph4.0 kmh 29.75 in1007.5 mb 0.00 in0.0 mm 0.00 in0.0 mm 0.00 in0.0 mm
06:36 AM 43.3°F6.3°C 43.0°F6.1°C 99% 0.2 mph NW0.3 kmh NW 2.5 mph4.0 kmh 29.75 in1007.5 mb 0.00 in0.0 mm 0.00 in0.0 mm 0.00 in0.0 mm
06:35 AM 43.3°F6.3°C 43.0°F6.1°C 99% 0.2 mph NW0.3 kmh NW 2.5 mph4.0 kmh 29.75 in1007.5 mb 0.00 in0.0 mm 0.00 in0.0 mm 0.00 in0.0 mm
06:34 AM 39.9°F4.4°C 28.0°F-2.2°C 61% 0.2 mph NNW0.3 kmh NNW 2.5 mph4.0 kmh 29.75 in1007.5 mb 0.00 in0.0 mm 0.00 in0.0 mm 0.04 in1.0 mm
06:33 AM 39.9°F4.4°C 28.0°F-2.2°C 61% 0.2 mph NNW0.3 kmh NNW 2.5 mph4.0 kmh 29.75 in1007.5 mb 0.00 in0.0 mm 0.00 in0.0 mm 0.04 in1.0 mm
06:32 AM 39.9°F4.4°C 28.0°F-2.2°C 61% 0.2 mph NNW0.3 kmh NNW 2.5 mph4.0 kmh 29.75 in1007.5 mb 0.00 in0.0 mm 0.00 in0.0 mm 0.04 in1.0 mm
06:31 AM 39.9°F4.4°C 28.0°F-2.2°C 61% 0.2 mph NNW0.3 kmh NNW 2.5 mph4.0 kmh 29.75 in1007.5 mb 0.00 in0.0 mm 0.00 in0.0 mm 0.04 in1.0 mm
06:30 AM 39.9°F4.4°C 28.0°F-2.2°C 61% 0.2 mph NNW0.3 kmh NNW 2.5 mph4.0 kmh 29.75 in1007.5 mb 0.00 in0.0 mm 0.00 in0.0 mm 0.04 in1.0 mm
06:29 AM 39.9°F4.4°C 28.0°F-2.2°C 62% 1.3 mph N2.1 kmh N 2.5 mph4.0 kmh 29.75 in1007.5 mb 0.00 in0.0 mm 0.00 in0.0 mm 0.04 in1.0 mm
06:28 AM 39.9°F4.4°C 28.0°F-2.2°C 62% 1.3 mph N2.1 kmh N 2.5 mph4.0 kmh 29.75 in1007.5 mb 0.00 in0.0 mm 0.00 in0.0 mm 0.04 in1.0 mm
06:27 AM 39.9°F4.4°C 28.0°F-2.2°C 62% 1.3 mph N2.1 kmh N 2.5 mph4.0 kmh 29.75 in1007.5 mb 0.00 in0.0 mm 0.00 in0.0 mm 0.04 in1.0 mm
06:26 AM 39.9°F4.4°C 28.0°F-2.2°C 62% 1.3 mph N2.1 kmh N 2.5 mph4.0 kmh 29.75 in1007.5 mb 0.00 in0.0 mm 0.00 in0.0 mm 0.04 in1.0 mm
06:25 AM 39.9°F4.4°C 28.0°F-2.2°C 62% 1.3 mph N2.1 kmh N 2.5 mph4.0 kmh 29.75 in1007.5 mb 0.00 in0.0 mm 0.00 in0.0 mm 0.04 in1.0 mm
06:24 AM 39.9°F4.4°C 28.0°F-2.2°C 62% 4.0 mph SW6.4 kmh SW 4.9 mph7.9 kmh 29.75 in1007.5 mb 0.00 in0.0 mm 0.00 in0.0 mm 0.04 in1.0 mm
06:23 AM 39.9°F4.4°C 28.0°F-2.2°C 62% 4.0 mph SW6.4 kmh SW 4.9 mph7.9 kmh 29.75 in1007.5 mb 0.00 in0.0 mm 0.00 in0.0 mm 0.04 in1.0 mm
06:22 AM 39.9°F4.4°C 28.0°F-2.2°C 62% 4.0 mph SW6.4 kmh SW 4.9 mph7.9 kmh 29.75 in1007.5 mb 0.00 in0.0 mm 0.00 in0.0 mm 0.04 in1.0 mm
06:21 AM 39.9°F4.4°C 28.0°F-2.2°C 62% 4.0 mph SW6.4 kmh SW 4.9 mph7.9 kmh 29.75 in1007.5 mb 0.00 in0.0 mm 0.00 in0.0 mm 0.04 in1.0 mm
06:20 AM 39.9°F4.4°C 28.0°F-2.2°C 62% 4.0 mph SW6.4 kmh SW 4.9 mph7.9 kmh 29.75 in1007.5 mb 0.00 in0.0 mm 0.00 in0.0 mm 0.04 in1.0 mm
06:19 AM 39.9°F4.4°C 28.0°F-2.2°C 62% 0.4 mph W0.6 kmh W 2.5 mph4.0 kmh 29.75 in1007.5 mb 0.00 in0.0 mm 0.00 in0.0 mm 0.04 in1.0 mm
06:18 AM 39.9°F4.4°C 28.0°F-2.2°C 62% 0.4 mph W0.6 kmh W 2.5 mph4.0 kmh 29.75 in1007.5 mb 0.00 in0.0 mm 0.00 in0.0 mm 0.04 in1.0 mm
06:17 AM 39.9°F4.4°C 28.0°F-2.2°C 62% 0.4 mph W0.6 kmh W 2.5 mph4.0 kmh 29.75 in1007.5 mb 0.00 in0.0 mm 0.00 in0.0 mm 0.04 in1.0 mm
06:16 AM 39.9°F4.4°C 28.0°F-2.2°C 62% 0.4 mph W0.6 kmh W 2.5 mph4.0 kmh 29.75 in1007.5 mb 0.00 in0.0 mm 0.00 in0.0 mm 0.04 in1.0 mm
06:15 AM 39.9°F4.4°C 28.0°F-2.2°C 62% 0.4 mph W0.6 kmh W 2.5 mph4.0 kmh 29.75 in1007.5 mb 0.00 in0.0 mm 0.00 in0.0 mm 0.04 in1.0 mm
06:14 AM 39.9°F4.4°C 28.0°F-2.2°C 62% Calm Calm -- 29.75 in1007.5 mb 0.00 in0.0 mm 0.00 in0.0 mm 0.04 in1.0 mm
06:13 AM 39.9°F4.4°C 28.0°F-2.2°C 62% Calm Calm -- 29.75 in1007.5 mb 0.00 in0.0 mm 0.00 in0.0 mm 0.04 in1.0 mm
06:12 AM 39.9°F4.4°C 28.0°F-2.2°C 62% Calm Calm -- 29.75 in1007.5 mb 0.00 in0.0 mm 0.00 in0.0 mm 0.04 in1.0 mm
06:11 AM 39.9°F4.4°C 28.0°F-2.2°C 62% Calm Calm -- 29.75 in1007.5 mb 0.00 in0.0 mm 0.00 in0.0 mm 0.04 in1.0 mm
06:10 AM 39.9°F4.4°C 28.0°F-2.2°C 62% Calm Calm -- 29.75 in1007.5 mb 0.00 in0.0 mm 0.00 in0.0 mm 0.04 in1.0 mm
06:09 AM 39.7°F4.3°C 28.0°F-2.2°C 63% 3.6 mph W5.8 kmh W 4.9 mph7.9 kmh 29.75 in1007.5 mb 0.00 in0.0 mm 0.00 in0.0 mm 0.04 in1.0 mm
06:08 AM 39.7°F4.3°C 28.0°F-2.2°C 63% 3.6 mph W5.8 kmh W 4.9 mph7.9 kmh 29.75 in1007.5 mb 0.00 in0.0 mm 0.00 in0.0 mm 0.04 in1.0 mm
06:07 AM 39.9°F4.4°C 28.0°F-2.2°C 61% Calm Calm -- 29.75 in1007.5 mb 0.00 in0.0 mm 0.00 in0.0 mm 0.04 in1.0 mm
06:06 AM 39.9°F4.4°C 28.0°F-2.2°C 61% Calm Calm -- 29.75 in1007.5 mb 0.00 in0.0 mm 0.00 in0.0 mm 0.04 in1.0 mm
06:05 AM 39.9°F4.4°C 28.0°F-2.2°C 61% Calm Calm -- 29.75 in1007.5 mb 0.00 in0.0 mm 0.00 in0.0 mm 0.04 in1.0 mm
06:04 AM 39.9°F4.4°C 28.0°F-2.2°C 61% Calm Calm -- 29.75 in1007.5 mb 0.00 in0.0 mm 0.00 in0.0 mm 0.04 in1.0 mm
06:03 AM 39.9°F4.4°C 28.0°F-2.2°C 61% Calm Calm -- 29.75 in1007.5 mb 0.00 in0.0 mm 0.00 in0.0 mm 0.04 in1.0 mm
06:02 AM 39.9°F4.4°C 28.0°F-2.2°C 62% 0.4 mph W0.6 kmh W 2.5 mph4.0 kmh 29.71 in1006.1 mb 0.00 in0.0 mm 0.00 in0.0 mm 0.04 in1.0 mm
06:01 AM 39.9°F4.4°C 28.0°F-2.2°C 62% 0.4 mph W0.6 kmh W 2.5 mph4.0 kmh 29.71 in1006.1 mb 0.00 in0.0 mm 0.00 in0.0 mm 0.04 in1.0 mm
06:00 AM 39.9°F4.4°C 28.0°F-2.2°C 62% 0.4 mph W0.6 kmh W 2.5 mph4.0 kmh 29.71 in1006.1 mb 0.00 in0.0 mm 0.00 in0.0 mm 0.04 in1.0 mm
05:59 AM 39.9°F4.4°C 28.0°F-2.2°C 62% 0.4 mph W0.6 kmh W 2.5 mph4.0 kmh 29.71 in1006.1 mb 0.00 in0.0 mm 0.00 in0.0 mm 0.04 in1.0 mm
05:58 AM 39.9°F4.4°C 28.0°F-2.2°C 62% 0.4 mph W0.6 kmh W 2.5 mph4.0 kmh 29.71 in1006.1 mb 0.00 in0.0 mm 0.00 in0.0 mm 0.04 in1.0 mm
05:57 AM 39.9°F4.4°C 28.0°F-2.2°C 62% 2.0 mph SE3.2 kmh SE 4.9 mph7.9 kmh 29.71 in1006.1 mb 0.00 in0.0 mm 0.00 in0.0 mm 0.04 in1.0 mm
05:56 AM 39.9°F4.4°C 28.0°F-2.2°C 62% 2.0 mph SE3.2 kmh SE 4.9 mph7.9 kmh 29.71 in1006.1 mb 0.00 in0.0 mm 0.00 in0.0 mm 0.04 in1.0 mm
05:55 AM 39.9°F4.4°C 28.0°F-2.2°C 62% 2.0 mph SE3.2 kmh SE 4.9 mph7.9 kmh 29.71 in1006.1 mb 0.00 in0.0 mm 0.00 in0.0 mm 0.04 in1.0 mm
05:54 AM 39.9°F4.4°C 28.0°F-2.2°C 62% 2.0 mph SE3.2 kmh SE 4.9 mph7.9 kmh 29.71 in1006.1 mb 0.00 in0.0 mm 0.00 in0.0 mm 0.04 in1.0 mm
05:53 AM 39.9°F4.4°C 28.0°F-2.2°C 62% 2.0 mph SE3.2 kmh SE 4.9 mph7.9 kmh 29.71 in1006.1 mb 0.00 in0.0 mm 0.00 in0.0 mm 0.04 in1.0 mm
05:52 AM 39.9°F4.4°C 28.0°F-2.2°C 62% 8.7 mph S14.0 kmh S 9.8 mph15.8 kmh 29.71 in1006.1 mb 0.00 in0.0 mm 0.00 in0.0 mm 0.04 in1.0 mm
05:51 AM 39.9°F4.4°C 28.0°F-2.2°C 62% 8.7 mph S14.0 kmh S 9.8 mph15.8 kmh 29.71 in1006.1 mb 0.00 in0.0 mm 0.00 in0.0 mm 0.04 in1.0 mm
05:50 AM 39.9°F4.4°C 28.0°F-2.2°C 62% 8.7 mph S14.0 kmh S 9.8 mph15.8 kmh 29.71 in1006.1 mb 0.00 in0.0 mm 0.00 in0.0 mm 0.04 in1.0 mm
05:49 AM 39.9°F4.4°C 28.0°F-2.2°C 62% 8.7 mph S14.0 kmh S 9.8 mph15.8 kmh 29.71 in1006.1 mb 0.00 in0.0 mm 0.00 in0.0 mm 0.04 in1.0 mm
05:48 AM 39.9°F4.4°C 28.0°F-2.2°C 62% 8.7 mph S14.0 kmh S 9.8 mph15.8 kmh 29.71 in1006.1 mb 0.00 in0.0 mm 0.00 in0.0 mm 0.04 in1.0 mm
05:47 AM 39.9°F4.4°C 28.0°F-2.2°C 62% 2.9 mph NNW4.7 kmh NNW 4.9 mph7.9 kmh 29.71 in1006.1 mb 0.00 in0.0 mm 0.00 in0.0 mm 0.04 in1.0 mm
05:46 AM 39.9°F4.4°C 28.0°F-2.2°C 62% 2.9 mph NNW4.7 kmh NNW 4.9 mph7.9 kmh 29.71 in1006.1 mb 0.00 in0.0 mm 0.00 in0.0 mm 0.04 in1.0 mm
05:45 AM 39.9°F4.4°C 28.0°F-2.2°C 62% 2.9 mph NNW4.7 kmh NNW 4.9 mph7.9 kmh 29.71 in1006.1 mb 0.00 in0.0 mm 0.00 in0.0 mm 0.04 in1.0 mm
05:44 AM 39.9°F4.4°C 28.0°F-2.2°C 62% 2.9 mph NNW4.7 kmh NNW 4.9 mph7.9 kmh 29.71 in1006.1 mb 0.00 in0.0 mm 0.00 in0.0 mm 0.04 in1.0 mm
05:43 AM 39.9°F4.4°C 28.0°F-2.2°C 62% 2.9 mph NNW4.7 kmh NNW 4.9 mph7.9 kmh 29.71 in1006.1 mb 0.00 in0.0 mm 0.00 in0.0 mm 0.04 in1.0 mm
05:42 AM 40.1°F4.5°C 29.0°F-1.7°C 65% 8.1 mph WSW13.0 kmh WSW 12.3 mph19.8 kmh 29.71 in1006.1 mb 0.00 in0.0 mm 0.00 in0.0 mm 0.04 in1.0 mm
05:41 AM 40.1°F4.5°C 29.0°F-1.7°C 65% 8.1 mph WSW13.0 kmh WSW 12.3 mph19.8 kmh 29.71 in1006.1 mb 0.00 in0.0 mm 0.00 in0.0 mm 0.04 in1.0 mm
05:40 AM 40.1°F4.5°C 29.0°F-1.7°C 65% 8.1 mph WSW13.0 kmh WSW 12.3 mph19.8 kmh 29.71 in1006.1 mb 0.00 in0.0 mm 0.00 in0.0 mm 0.04 in1.0 mm
05:39 AM 40.1°F4.5°C 29.0°F-1.7°C 65% 8.1 mph WSW13.0 kmh WSW 12.3 mph19.8 kmh 29.71 in1006.1 mb 0.00 in0.0 mm 0.00 in0.0 mm 0.04 in1.0 mm
05:38 AM 40.1°F4.5°C 29.0°F-1.7°C 65% 8.1 mph WSW13.0 kmh WSW 12.3 mph19.8 kmh 29.71 in1006.1 mb 0.00 in0.0 mm 0.00 in0.0 mm 0.04 in1.0 mm
05:37 AM 40.1°F4.5°C 29.0°F-1.7°C 64% Calm Calm -- 29.71 in1006.1 mb 0.00 in0.0 mm 0.00 in0.0 mm 0.04 in1.0 mm
05:36 AM 40.1°F4.5°C 29.0°F-1.7°C 64% Calm Calm -- 29.71 in1006.1 mb 0.00 in0.0 mm 0.00 in0.0 mm 0.04 in1.0 mm
05:35 AM 40.1°F4.5°C 29.0°F-1.7°C 64% Calm Calm -- 29.71 in1006.1 mb 0.00 in0.0 mm 0.00 in0.0 mm 0.04 in1.0 mm
05:34 AM 40.1°F4.5°C 29.0°F-1.7°C 64% Calm Calm -- 29.71 in1006.1 mb 0.00 in0.0 mm 0.00 in0.0 mm 0.04 in1.0 mm
05:33 AM 40.1°F4.5°C 29.0°F-1.7°C 64% Calm Calm -- 29.71 in1006.1 mb 0.00 in0.0 mm 0.00 in0.0 mm 0.04 in1.0 mm
05:32 AM 40.3°F4.6°C 29.0°F-1.7°C 64% 4.3 mph WNW6.9 kmh WNW 9.8 mph15.8 kmh 29.71 in1006.1 mb 0.00 in0.0 mm 0.00 in0.0 mm 0.04 in1.0 mm
05:31 AM 40.3°F4.6°C 29.0°F-1.7°C 64% 4.3 mph WNW6.9 kmh WNW 9.8 mph15.8 kmh 29.71 in1006.1 mb 0.00 in0.0 mm 0.00 in0.0 mm 0.04 in1.0 mm
05:30 AM 40.3°F4.6°C 29.0°F-1.7°C 64% 4.3 mph WNW6.9 kmh WNW 9.8 mph15.8 kmh 29.71 in1006.1 mb 0.00 in0.0 mm 0.00 in0.0 mm 0.04 in1.0 mm
05:29 AM 40.3°F4.6°C 29.0°F-1.7°C 64% 4.3 mph WNW6.9 kmh WNW 9.8 mph15.8 kmh 29.71 in1006.1 mb 0.00 in0.0 mm 0.00 in0.0 mm 0.04 in1.0 mm
05:28 AM 40.3°F4.6°C 29.0°F-1.7°C 64% 4.3 mph WNW6.9 kmh WNW 9.8 mph15.8 kmh 29.71 in1006.1 mb 0.00 in0.0 mm 0.00 in0.0 mm 0.04 in1.0 mm
05:27 AM 40.3°F4.6°C 30.0°F-1.1°C 65% 3.4 mph NW5.5 kmh NW 4.9 mph7.9 kmh 29.71 in1006.1 mb 0.00 in0.0 mm 0.00 in0.0 mm 0.04 in1.0 mm
05:26 AM 40.3°F4.6°C 30.0°F-1.1°C 65% 3.4 mph NW5.5 kmh NW 4.9 mph7.9 kmh 29.71 in1006.1 mb 0.00 in0.0 mm 0.00 in0.0 mm 0.04 in1.0 mm
05:25 AM 40.3°F4.6°C 30.0°F-1.1°C 65% 3.4 mph NW5.5 kmh NW 4.9 mph7.9 kmh 29.71 in1006.1 mb 0.00 in0.0 mm 0.00 in0.0 mm 0.04 in1.0 mm
05:24 AM 40.3°F4.6°C 30.0°F-1.1°C 65% 3.4 mph NW5.5 kmh NW 4.9 mph7.9 kmh 29.71 in1006.1 mb 0.00 in0.0 mm 0.00 in0.0 mm 0.04 in1.0 mm
05:23 AM 40.3°F4.6°C 30.0°F-1.1°C 65% 3.4 mph NW5.5 kmh NW 4.9 mph7.9 kmh 29.71 in1006.1 mb 0.00 in0.0 mm 0.00 in0.0 mm 0.04 in1.0 mm
05:22 AM 40.3°F4.6°C 30.0°F-1.1°C 67% 4.9 mph WSW7.9 kmh WSW 7.4 mph11.9 kmh 29.71 in1006.1 mb 0.00 in0.0 mm 0.00 in0.0 mm 0.04 in1.0 mm
05:21 AM 40.3°F4.6°C 30.0°F-1.1°C 67% 4.9 mph WSW7.9 kmh WSW 7.4 mph11.9 kmh 29.71 in1006.1 mb 0.00 in0.0 mm 0.00 in0.0 mm 0.04 in1.0 mm
05:20 AM 40.3°F4.6°C 30.0°F-1.1°C 67% 4.9 mph WSW7.9 kmh WSW 7.4 mph11.9 kmh 29.71 in1006.1 mb 0.00 in0.0 mm 0.00 in0.0 mm 0.04 in1.0 mm
05:19 AM 40.3°F4.6°C 30.0°F-1.1°C 67% 4.9 mph WSW7.9 kmh WSW 7.4 mph11.9 kmh 29.71 in1006.1 mb 0.00 in0.0 mm 0.00 in0.0 mm 0.04 in1.0 mm
05:18 AM 40.3°F4.6°C 30.0°F-1.1°C 67% 4.9 mph WSW7.9 kmh WSW 7.4 mph11.9 kmh 29.71 in1006.1 mb 0.00 in0.0 mm 0.00 in0.0 mm 0.04 in1.0 mm
05:17 AM 40.3°F4.6°C 31.0°F-0.6°C 68% 10.5 mph SW16.9 kmh SW 12.3 mph19.8 kmh 29.71 in1006.1 mb 0.00 in0.0 mm 0.00 in0.0 mm 0.04 in1.0 mm
05:16 AM 40.3°F4.6°C 31.0°F-0.6°C 68% 10.5 mph SW16.9 kmh SW 12.3 mph19.8 kmh 29.71 in1006.1 mb 0.00 in0.0 mm 0.00 in0.0 mm 0.04 in1.0 mm
05:15 AM 40.3°F4.6°C 31.0°F-0.6°C 68% 10.5 mph SW16.9 kmh SW 12.3 mph19.8 kmh 29.71 in1006.1 mb 0.00 in0.0 mm 0.00 in0.0 mm 0.04 in1.0 mm
05:14 AM 40.3°F4.6°C 31.0°F-0.6°C 68% 10.5 mph SW16.9 kmh SW 12.3 mph19.8 kmh 29.71 in1006.1 mb 0.00 in0.0 mm 0.00 in0.0 mm 0.04 in1.0 mm
05:13 AM 40.3°F4.6°C 31.0°F-0.6°C 68% 10.5 mph SW16.9 kmh SW 12.3 mph19.8 kmh 29.71 in1006.1 mb 0.00 in0.0 mm 0.00 in0.0 mm 0.04 in1.0 mm
05:12 AM 40.5°F4.7°C 31.0°F-0.6°C 69% 1.1 mph NW1.8 kmh NW 2.5 mph4.0 kmh 29.71 in1006.1 mb 0.00 in0.0 mm 0.00 in0.0 mm 0.04 in1.0 mm
05:11 AM 40.5°F4.7°C 31.0°F-0.6°C 69% 1.1 mph NW1.8 kmh NW 2.5 mph4.0 kmh 29.71 in1006.1 mb 0.00 in0.0 mm 0.00 in0.0 mm 0.04 in1.0 mm
05:10 AM 40.5°F4.7°C 31.0°F-0.6°C 69% 1.1 mph NW1.8 kmh NW 2.5 mph4.0 kmh 29.71 in1006.1 mb 0.00 in0.0 mm 0.00 in0.0 mm 0.04 in1.0 mm
05:09 AM 40.5°F4.7°C 31.0°F-0.6°C 69% 1.1 mph NW1.8 kmh NW 2.5 mph4.0 kmh 29.71 in1006.1 mb 0.00 in0.0 mm 0.00 in0.0 mm 0.04 in1.0 mm
05:08 AM 40.5°F4.7°C 31.0°F-0.6°C 69% 1.1 mph NW1.8 kmh NW 2.5 mph4.0 kmh 29.71 in1006.1 mb 0.00 in0.0 mm 0.00 in0.0 mm 0.04 in1.0 mm
05:07 AM 40.3°F4.6°C 31.0°F-0.6°C 70% 4.9 mph SW7.9 kmh SW 7.4 mph11.9 kmh 29.71 in1006.1 mb 0.00 in0.0 mm 0.00 in0.0 mm 0.04 in1.0 mm
05:06 AM 40.3°F4.6°C 31.0°F-0.6°C 70% 4.9 mph SW7.9 kmh SW 7.4 mph11.9 kmh 29.71 in1006.1 mb 0.00 in0.0 mm 0.00 in0.0 mm 0.04 in1.0 mm
05:05 AM 40.3°F4.6°C 31.0°F-0.6°C 70% 4.9 mph SW7.9 kmh SW 7.4 mph11.9 kmh 29.71 in1006.1 mb 0.00 in0.0 mm 0.00 in0.0 mm 0.04 in1.0 mm
05:04 AM 40.3°F4.6°C 31.0°F-0.6°C 70% 4.9 mph SW7.9 kmh SW 7.4 mph11.9 kmh 29.71 in1006.1 mb 0.00 in0.0 mm 0.00 in0.0 mm 0.04 in1.0 mm
05:03 AM 40.3°F4.6°C 31.0°F-0.6°C 70% 4.9 mph SW7.9 kmh SW 7.4 mph11.9 kmh 29.71 in1006.1 mb 0.00 in0.0 mm 0.00 in0.0 mm 0.04 in1.0 mm
05:02 AM 40.3°F4.6°C 31.0°F-0.6°C 70% 0.4 mph NNW0.6 kmh NNW 2.5 mph4.0 kmh 29.69 in1005.4 mb 0.00 in0.0 mm 0.00 in0.0 mm 0.04 in1.0 mm
05:01 AM 40.3°F4.6°C 31.0°F-0.6°C 70% 0.4 mph NNW0.6 kmh NNW 2.5 mph4.0 kmh 29.69 in1005.4 mb 0.00 in0.0 mm 0.00 in0.0 mm 0.04 in1.0 mm
05:00 AM 40.3°F4.6°C 31.0°F-0.6°C 70% 0.4 mph NNW0.6 kmh NNW 2.5 mph4.0 kmh 29.69 in1005.4 mb 0.00 in0.0 mm 0.00 in0.0 mm 0.04 in1.0 mm
04:59 AM 40.3°F4.6°C 31.0°F-0.6°C 70% 0.4 mph NNW0.6 kmh NNW 2.5 mph4.0 kmh 29.69 in1005.4 mb 0.00 in0.0 mm 0.00 in0.0 mm 0.04 in1.0 mm
04:58 AM 40.3°F4.6°C 31.0°F-0.6°C 70% 0.4 mph NNW0.6 kmh NNW 2.5 mph4.0 kmh 29.69 in1005.4 mb 0.00 in0.0 mm 0.00 in0.0 mm 0.04 in1.0 mm
04:57 AM 40.3°F4.6°C 30.0°F-1.1°C 67% 4.3 mph W6.9 kmh W 7.4 mph11.9 kmh 29.69 in1005.4 mb 0.00 in0.0 mm 0.00 in0.0 mm 0.04 in1.0 mm
04:56 AM 40.3°F4.6°C 30.0°F-1.1°C 67% 4.3 mph W6.9 kmh W 7.4 mph11.9 kmh 29.69 in1005.4 mb 0.00 in0.0 mm 0.00 in0.0 mm 0.04 in1.0 mm
04:55 AM 40.3°F4.6°C 30.0°F-1.1°C 67% 4.3 mph W6.9 kmh W 7.4 mph11.9 kmh 29.69 in1005.4 mb 0.00 in0.0 mm 0.00 in0.0 mm 0.04 in1.0 mm
04:54 AM 40.3°F4.6°C 30.0°F-1.1°C 67% 4.3 mph W6.9 kmh W 7.4 mph11.9 kmh 29.69 in1005.4 mb 0.00 in0.0 mm 0.00 in0.0 mm 0.04 in1.0 mm
04:53 AM 40.3°F4.6°C 30.0°F-1.1°C 67% 4.3 mph W6.9 kmh W 7.4 mph11.9 kmh 29.69 in1005.4 mb 0.00 in0.0 mm 0.00 in0.0 mm 0.04 in1.0 mm
04:52 AM 40.3°F4.6°C 30.0°F-1.1°C 65% 2.0 mph NNW3.2 kmh NNW 4.9 mph7.9 kmh 29.69 in1005.4 mb 0.00 in0.0 mm 0.00 in0.0 mm 0.04 in1.0 mm
04:51 AM 40.3°F4.6°C 30.0°F-1.1°C 65% 2.0 mph NNW3.2 kmh NNW 4.9 mph7.9 kmh 29.69 in1005.4 mb 0.00 in0.0 mm 0.00 in0.0 mm 0.04 in1.0 mm
04:50 AM 40.3°F4.6°C 30.0°F-1.1°C 65% 2.0 mph NNW3.2 kmh NNW 4.9 mph7.9 kmh 29.69 in1005.4 mb 0.00 in0.0 mm 0.00 in0.0 mm 0.04 in1.0 mm
04:49 AM 40.3°F4.6°C 30.0°F-1.1°C 65% 2.0 mph NNW3.2 kmh NNW 4.9 mph7.9 kmh 29.69 in1005.4 mb 0.00 in0.0 mm 0.00 in0.0 mm 0.04 in1.0 mm
04:48 AM 40.3°F4.6°C 30.0°F-1.1°C 65% 2.0 mph NNW3.2 kmh NNW 4.9 mph7.9 kmh 29.69 in1005.4 mb 0.00 in0.0 mm 0.00 in0.0 mm 0.04 in1.0 mm
04:47 AM 40.1°F4.5°C 29.0°F-1.7°C 64% 0.9 mph N1.4 kmh N 2.5 mph4.0 kmh 29.69 in1005.4 mb 0.00 in0.0 mm 0.00 in0.0 mm 0.04 in1.0 mm
04:46 AM 40.1°F4.5°C 29.0°F-1.7°C 64% 0.9 mph N1.4 kmh N 2.5 mph4.0 kmh 29.69 in1005.4 mb 0.00 in0.0 mm 0.00 in0.0 mm 0.04 in1.0 mm
04:45 AM 40.1°F4.5°C 29.0°F-1.7°C 64% 0.9 mph N1.4 kmh N 2.5 mph4.0 kmh 29.69 in1005.4 mb 0.00 in0.0 mm 0.00 in0.0 mm 0.04 in1.0 mm
04:44 AM 40.1°F4.5°C 29.0°F-1.7°C 64% 0.9 mph N1.4 kmh N 2.5 mph4.0 kmh 29.69 in1005.4 mb 0.00 in0.0 mm 0.00 in0.0 mm 0.04 in1.0 mm
04:43 AM 40.1°F4.5°C 29.0°F-1.7°C 64% 0.9 mph N1.4 kmh N 2.5 mph4.0 kmh 29.69 in1005.4 mb 0.00 in0.0 mm 0.00 in0.0 mm 0.04 in1.0 mm
04:42 AM 40.1°F4.5°C 29.0°F-1.7°C 64% 11.2 mph W18.0 kmh W 12.3 mph19.8 kmh 29.69 in1005.4 mb 0.00 in0.0 mm 0.00 in0.0 mm 0.04 in1.0 mm
04:41 AM 40.1°F4.5°C 29.0°F-1.7°C 64% 11.2 mph W18.0 kmh W 12.3 mph19.8 kmh 29.69 in1005.4 mb 0.00 in0.0 mm 0.00 in0.0 mm 0.04 in1.0 mm
04:40 AM 40.1°F4.5°C 29.0°F-1.7°C 64% 11.2 mph W18.0 kmh W 12.3 mph19.8 kmh 29.69 in1005.4 mb 0.00 in0.0 mm 0.00 in0.0 mm 0.04 in1.0 mm
04:39 AM 40.1°F4.5°C 29.0°F-1.7°C 64% 11.2 mph W18.0 kmh W 12.3 mph19.8 kmh 29.69 in1005.4 mb 0.00 in0.0 mm 0.00 in0.0 mm 0.04 in1.0 mm
04:38 AM 40.1°F4.5°C 29.0°F-1.7°C 64% 11.2 mph W18.0 kmh W 12.3 mph19.8 kmh 29.69 in1005.4 mb 0.00 in0.0 mm 0.00 in0.0 mm 0.04 in1.0 mm
04:37 AM 40.1°F4.5°C 29.0°F-1.7°C 63% 3.4 mph W5.5 kmh W 4.9 mph7.9 kmh 29.69 in1005.4 mb 0.00 in0.0 mm 0.00 in0.0 mm 0.04 in1.0 mm
04:36 AM 40.1°F4.5°C 29.0°F-1.7°C 63% 3.4 mph W5.5 kmh W 4.9 mph7.9 kmh 29.69 in1005.4 mb 0.00 in0.0 mm 0.00 in0.0 mm 0.04 in1.0 mm
04:35 AM 40.1°F4.5°C 29.0°F-1.7°C 63% 3.4 mph W5.5 kmh W 4.9 mph7.9 kmh 29.69 in1005.4 mb 0.00 in0.0 mm 0.00 in0.0 mm 0.04 in1.0 mm
04:34 AM 40.1°F4.5°C 29.0°F-1.7°C 63% 3.4 mph W5.5 kmh W 4.9 mph7.9 kmh 29.69 in1005.4 mb 0.00 in0.0 mm 0.00 in0.0 mm 0.04 in1.0 mm
04:33 AM 40.1°F4.5°C 29.0°F-1.7°C 63% 3.4 mph W5.5 kmh W 4.9 mph7.9 kmh 29.69 in1005.4 mb 0.00 in0.0 mm 0.00 in0.0 mm 0.04 in1.0 mm
04:32 AM 40.1°F4.5°C 29.0°F-1.7°C 63% 0.9 mph NNE1.4 kmh NNE 2.5 mph4.0 kmh 29.69 in1005.4 mb 0.00 in0.0 mm 0.00 in0.0 mm 0.04 in1.0 mm
04:31 AM 40.1°F4.5°C 29.0°F-1.7°C 63% 0.9 mph NNE1.4 kmh NNE 2.5 mph4.0 kmh 29.69 in1005.4 mb 0.00 in0.0 mm 0.00 in0.0 mm 0.04 in1.0 mm
04:30 AM 40.1°F4.5°C 29.0°F-1.7°C 63% 0.9 mph NNE1.4 kmh NNE 2.5 mph4.0 kmh 29.69 in1005.4 mb 0.00 in0.0 mm 0.00 in0.0 mm 0.04 in1.0 mm
04:29 AM 40.1°F4.5°C 29.0°F-1.7°C 63% 0.9 mph NNE1.4 kmh NNE 2.5 mph4.0 kmh 29.69 in1005.4 mb 0.00 in0.0 mm 0.00 in0.0 mm 0.04 in1.0 mm
04:28 AM 40.1°F4.5°C 29.0°F-1.7°C 63% 0.9 mph NNE1.4 kmh NNE 2.5 mph4.0 kmh 29.69 in1005.4 mb 0.00 in0.0 mm 0.00 in0.0 mm 0.04 in1.0 mm
04:27 AM 40.1°F4.5°C 30.0°F-1.1°C 66% 4.3 mph WSW6.9 kmh WSW 7.4 mph11.9 kmh 29.69 in1005.4 mb 0.00 in0.0 mm 0.00 in0.0 mm 0.04 in1.0 mm
04:26 AM 40.1°F4.5°C 30.0°F-1.1°C 66% 4.3 mph WSW6.9 kmh WSW 7.4 mph11.9 kmh 29.69 in1005.4 mb 0.00 in0.0 mm 0.00 in0.0 mm 0.04 in1.0 mm
04:25 AM 40.1°F4.5°C 30.0°F-1.1°C 66% 4.3 mph WSW6.9 kmh WSW 7.4 mph11.9 kmh 29.69 in1005.4 mb 0.00 in0.0 mm 0.00 in0.0 mm 0.04 in1.0 mm
04:24 AM 40.1°F4.5°C 30.0°F-1.1°C 66% 4.3 mph WSW6.9 kmh WSW 7.4 mph11.9 kmh 29.69 in1005.4 mb 0.00 in0.0 mm 0.00 in0.0 mm 0.04 in1.0 mm
04:23 AM 40.1°F4.5°C 30.0°F-1.1°C 66% 4.3 mph WSW6.9 kmh WSW 7.4 mph11.9 kmh 29.69 in1005.4 mb 0.00 in0.0 mm 0.00 in0.0 mm 0.04 in1.0 mm
04:22 AM 40.3°F4.6°C 30.0°F-1.1°C 65% 0.9 mph N1.4 kmh N 2.5 mph4.0 kmh 29.68 in1005.1 mb 0.00 in0.0 mm 0.00 in0.0 mm 0.04 in1.0 mm
04:21 AM 40.3°F4.6°C 30.0°F-1.1°C 65% 0.9 mph N1.4 kmh N 2.5 mph4.0 kmh 29.68 in1005.1 mb 0.00 in0.0 mm 0.00 in0.0 mm 0.04 in1.0 mm
04:20 AM 40.3°F4.6°C 30.0°F-1.1°C 65% 0.9 mph N1.4 kmh N 2.5 mph4.0 kmh 29.68 in1005.1 mb 0.00 in0.0 mm 0.00 in0.0 mm 0.04 in1.0 mm
04:19 AM 40.3°F4.6°C 30.0°F-1.1°C 65% 0.9 mph N1.4 kmh N 2.5 mph4.0 kmh 29.68 in1005.1 mb 0.00 in0.0 mm 0.00 in0.0 mm 0.04 in1.0 mm
04:18 AM 40.3°F4.6°C 30.0°F-1.1°C 65% 0.9 mph N1.4 kmh N 2.5 mph4.0 kmh 29.68 in1005.1 mb 0.00 in0.0 mm 0.00 in0.0 mm 0.04 in1.0 mm
04:17 AM 40.5°F4.7°C 29.0°F-1.7°C 64% 1.8 mph W2.9 kmh W 2.5 mph4.0 kmh 29.68 in1005.1 mb 0.00 in0.0 mm 0.00 in0.0 mm 0.04 in1.0 mm
04:16 AM 40.5°F4.7°C 29.0°F-1.7°C 64% 1.8 mph W2.9 kmh W 2.5 mph4.0 kmh 29.68 in1005.1 mb 0.00 in0.0 mm 0.00 in0.0 mm 0.04 in1.0 mm
04:15 AM 40.5°F4.7°C 29.0°F-1.7°C 64% 1.8 mph W2.9 kmh W 2.5 mph4.0 kmh 29.68 in1005.1 mb 0.00 in0.0 mm 0.00 in0.0 mm 0.04 in1.0 mm
04:14 AM 40.5°F4.7°C 29.0°F-1.7°C 64% 1.8 mph W2.9 kmh W 2.5 mph4.0 kmh 29.68 in1005.1 mb 0.00 in0.0 mm 0.00 in0.0 mm 0.04 in1.0 mm
04:13 AM 40.5°F4.7°C 29.0°F-1.7°C 64% 1.8 mph W2.9 kmh W 2.5 mph4.0 kmh 29.68 in1005.1 mb 0.00 in0.0 mm 0.00 in0.0 mm 0.04 in1.0 mm
04:12 AM 40.5°F4.7°C 29.0°F-1.7°C 63% 6.5 mph WSW10.5 kmh WSW 9.8 mph15.8 kmh 29.68 in1005.1 mb 0.00 in0.0 mm 0.00 in0.0 mm 0.04 in1.0 mm
04:11 AM 40.5°F4.7°C 29.0°F-1.7°C 63% 6.5 mph WSW10.5 kmh WSW 9.8 mph15.8 kmh 29.68 in1005.1 mb 0.00 in0.0 mm 0.00 in0.0 mm 0.04 in1.0 mm
04:10 AM 40.5°F4.7°C 29.0°F-1.7°C 63% 6.5 mph WSW10.5 kmh WSW 9.8 mph15.8 kmh 29.68 in1005.1 mb 0.00 in0.0 mm 0.00 in0.0 mm 0.04 in1.0 mm
04:09 AM 40.5°F4.7°C 29.0°F-1.7°C 63% 6.5 mph WSW10.5 kmh WSW 9.8 mph15.8 kmh 29.68 in1005.1 mb 0.00 in0.0 mm 0.00 in0.0 mm 0.04 in1.0 mm
04:08 AM 40.5°F4.7°C 29.0°F-1.7°C 63% 6.5 mph WSW10.5 kmh WSW 9.8 mph15.8 kmh 29.68 in1005.1 mb 0.00 in0.0 mm 0.00 in0.0 mm 0.04 in1.0 mm
04:07 AM 40.6°F4.8°C 30.0°F-1.1°C 65% 13.9 mph SW22.4 kmh SW 17.4 mph28.0 kmh 29.68 in1005.1 mb 0.00 in0.0 mm 0.00 in0.0 mm 0.04 in1.0 mm
04:06 AM 40.6°F4.8°C 30.0°F-1.1°C 65% 13.9 mph SW22.4 kmh SW 17.4 mph28.0 kmh 29.68 in1005.1 mb 0.00 in0.0 mm 0.00 in0.0 mm 0.04 in1.0 mm
04:05 AM 40.6°F4.8°C 30.0°F-1.1°C 65% 13.9 mph SW22.4 kmh SW 17.4 mph28.0 kmh 29.68 in1005.1 mb 0.00 in0.0 mm 0.00 in0.0 mm 0.04 in1.0 mm
04:04 AM 40.6°F4.8°C 30.0°F-1.1°C 65% 13.9 mph SW22.4 kmh SW 17.4 mph28.0 kmh 29.68 in1005.1 mb 0.00 in0.0 mm 0.00 in0.0 mm 0.04 in1.0 mm
04:03 AM 40.6°F4.8°C 30.0°F-1.1°C 65% 13.9 mph SW22.4 kmh SW 17.4 mph28.0 kmh 29.68 in1005.1 mb 0.00 in0.0 mm 0.00 in0.0 mm 0.04 in1.0 mm
04:02 AM 40.6°F4.8°C 30.0°F-1.1°C 66% 6.5 mph SW10.5 kmh SW 9.8 mph15.8 kmh 29.66 in1004.4 mb 0.00 in0.0 mm 0.00 in0.0 mm 0.04 in1.0 mm
04:01 AM 40.6°F4.8°C 30.0°F-1.1°C 66% 6.5 mph SW10.5 kmh SW 9.8 mph15.8 kmh 29.66 in1004.4 mb 0.00 in0.0 mm 0.00 in0.0 mm 0.04 in1.0 mm
04:00 AM 40.6°F4.8°C 30.0°F-1.1°C 66% 6.5 mph SW10.5 kmh SW 9.8 mph15.8 kmh 29.66 in1004.4 mb 0.00 in0.0 mm 0.00 in0.0 mm 0.04 in1.0 mm
03:59 AM 40.6°F4.8°C 30.0°F-1.1°C 66% 6.5 mph SW10.5 kmh SW 9.8 mph15.8 kmh 29.66 in1004.4 mb 0.00 in0.0 mm 0.00 in0.0 mm 0.04 in1.0 mm
03:58 AM 40.6°F4.8°C 30.0°F-1.1°C 66% 6.5 mph SW10.5 kmh SW 9.8 mph15.8 kmh 29.66 in1004.4 mb 0.00 in0.0 mm 0.00 in0.0 mm 0.04 in1.0 mm
03:57 AM 40.6°F4.8°C 30.0°F-1.1°C 66% 8.1 mph NNW13.0 kmh NNW 9.8 mph15.8 kmh 29.66 in1004.4 mb 0.00 in0.0 mm 0.00 in0.0 mm 0.04 in1.0 mm
03:56 AM 40.6°F4.8°C 30.0°F-1.1°C 66% 8.1 mph NNW13.0 kmh NNW 9.8 mph15.8 kmh 29.66 in1004.4 mb 0.00 in0.0 mm 0.00 in0.0 mm 0.04 in1.0 mm
03:55 AM 40.6°F4.8°C 30.0°F-1.1°C 66% 8.1 mph NNW13.0 kmh NNW 9.8 mph15.8 kmh 29.66 in1004.4 mb 0.00 in0.0 mm 0.00 in0.0 mm 0.04 in1.0 mm
03:54 AM 40.6°F4.8°C 30.0°F-1.1°C 66% 8.1 mph NNW13.0 kmh NNW 9.8 mph15.8 kmh 29.66 in1004.4 mb 0.00 in0.0 mm 0.00 in0.0 mm 0.04 in1.0 mm
03:53 AM 40.6°F4.8°C 30.0°F-1.1°C 66% 8.1 mph NNW13.0 kmh NNW 9.8 mph15.8 kmh 29.66 in1004.4 mb 0.00 in0.0 mm 0.00 in0.0 mm 0.04 in1.0 mm
03:52 AM 40.6°F4.8°C 31.0°F-0.6°C 68% 8.7 mph W14.0 kmh W 12.3 mph19.8 kmh 29.66 in1004.4 mb 0.00 in0.0 mm 0.00 in0.0 mm 0.04 in1.0 mm
03:51 AM 40.6°F4.8°C 31.0°F-0.6°C 68% 8.7 mph W14.0 kmh W 12.3 mph19.8 kmh 29.66 in1004.4 mb 0.00 in0.0 mm 0.00 in0.0 mm 0.04 in1.0 mm
03:50 AM 40.6°F4.8°C 31.0°F-0.6°C 68% 8.7 mph W14.0 kmh W 12.3 mph19.8 kmh 29.66 in1004.4 mb 0.00 in0.0 mm 0.00 in0.0 mm 0.04 in1.0 mm
03:49 AM 40.6°F4.8°C 31.0°F-0.6°C 68% 8.7 mph W14.0 kmh W 12.3 mph19.8 kmh 29.66 in1004.4 mb 0.00 in0.0 mm 0.00 in0.0 mm 0.04 in1.0 mm
03:48 AM 40.6°F4.8°C 31.0°F-0.6°C 68% 8.7 mph W14.0 kmh W 12.3 mph19.8 kmh 29.66 in1004.4 mb 0.00 in0.0 mm 0.00 in0.0 mm 0.04 in1.0 mm
03:47 AM 40.6°F4.8°C 31.0°F-0.6°C 68% 4.3 mph NW6.9 kmh NW 7.4 mph11.9 kmh 29.66 in1004.4 mb 0.00 in0.0 mm 0.00 in0.0 mm 0.04 in1.0 mm
03:46 AM 40.6°F4.8°C 31.0°F-0.6°C 68% 4.3 mph NW6.9 kmh NW 7.4 mph11.9 kmh 29.66 in1004.4 mb 0.00 in0.0 mm 0.00 in0.0 mm 0.04 in1.0 mm
03:45 AM 40.6°F4.8°C 31.0°F-0.6°C 68% 4.3 mph NW6.9 kmh NW 7.4 mph11.9 kmh 29.66 in1004.4 mb 0.00 in0.0 mm 0.00 in0.0 mm 0.04 in1.0 mm
03:44 AM 40.6°F4.8°C 31.0°F-0.6°C 68% 4.3 mph NW6.9 kmh NW 7.4 mph11.9 kmh 29.66 in1004.4 mb 0.00 in0.0 mm 0.00 in0.0 mm 0.04 in1.0 mm
03:43 AM 40.6°F4.8°C 31.0°F-0.6°C 68% 4.3 mph NW6.9 kmh NW 7.4 mph11.9 kmh 29.66 in1004.4 mb 0.00 in0.0 mm 0.00 in0.0 mm 0.04 in1.0 mm
03:42 AM 40.6°F4.8°C 31.0°F-0.6°C 68% 6.0 mph SW9.7 kmh SW 9.8 mph15.8 kmh 29.66 in1004.4 mb 0.00 in0.0 mm 0.00 in0.0 mm 0.04 in1.0 mm
03:41 AM 40.6°F4.8°C 31.0°F-0.6°C 68% 6.0 mph SW9.7 kmh SW 9.8 mph15.8 kmh 29.66 in1004.4 mb 0.00 in0.0 mm 0.00 in0.0 mm 0.04 in1.0 mm
03:40 AM 40.6°F4.8°C 31.0°F-0.6°C 68% 6.0 mph SW9.7 kmh SW 9.8 mph15.8 kmh 29.66 in1004.4 mb 0.00 in0.0 mm 0.00 in0.0 mm 0.04 in1.0 mm
03:39 AM 40.6°F4.8°C 31.0°F-0.6°C 68% 6.0 mph SW9.7 kmh SW 9.8 mph15.8 kmh 29.66 in1004.4 mb 0.00 in0.0 mm 0.00 in0.0 mm 0.04 in1.0 mm
03:38 AM 40.6°F4.8°C 31.0°F-0.6°C 68% 6.0 mph SW9.7 kmh SW 9.8 mph15.8 kmh 29.66 in1004.4 mb 0.00 in0.0 mm 0.00 in0.0 mm 0.04 in1.0 mm
03:37 AM 40.6°F4.8°C 31.0°F-0.6°C 67% 3.4 mph SW5.5 kmh SW 4.9 mph7.9 kmh 29.64 in1003.7 mb 0.00 in0.0 mm 0.00 in0.0 mm 0.04 in1.0 mm
03:36 AM 40.6°F4.8°C 31.0°F-0.6°C 67% 3.4 mph SW5.5 kmh SW 4.9 mph7.9 kmh 29.64 in1003.7 mb 0.00 in0.0 mm 0.00 in0.0 mm 0.04 in1.0 mm
03:35 AM 40.6°F4.8°C 31.0°F-0.6°C 67% 3.4 mph SW5.5 kmh SW 4.9 mph7.9 kmh 29.64 in1003.7 mb 0.00 in0.0 mm 0.00 in0.0 mm 0.04 in1.0 mm
03:34 AM 40.6°F4.8°C 31.0°F-0.6°C 67% 3.4 mph SW5.5 kmh SW 4.9 mph7.9 kmh 29.64 in1003.7 mb 0.00 in0.0 mm 0.00 in0.0 mm 0.04 in1.0 mm
03:33 AM 40.6°F4.8°C 31.0°F-0.6°C 67% 3.4 mph SW5.5 kmh SW 4.9 mph7.9 kmh 29.64 in1003.7 mb 0.00 in0.0 mm 0.00 in0.0 mm 0.04 in1.0 mm
03:32 AM 40.6°F4.8°C 32.0°F0.0°C 70% 2.9 mph W4.7 kmh W 4.9 mph7.9 kmh 29.64 in1003.7 mb 0.00 in0.0 mm 0.00 in0.0 mm 0.04 in1.0 mm
03:31 AM 40.6°F4.8°C 32.0°F0.0°C 70% 2.9 mph W4.7 kmh W 4.9 mph7.9 kmh 29.64 in1003.7 mb 0.00 in0.0 mm 0.00 in0.0 mm 0.04 in1.0 mm
03:30 AM 40.6°F4.8°C 32.0°F0.0°C 70% 2.9 mph W4.7 kmh W 4.9 mph7.9 kmh 29.64 in1003.7 mb 0.00 in0.0 mm 0.00 in0.0 mm 0.04 in1.0 mm
03:29 AM 40.6°F4.8°C 32.0°F0.0°C 70% 2.9 mph W4.7 kmh W 4.9 mph7.9 kmh 29.64 in1003.7 mb 0.00 in0.0 mm 0.00 in0.0 mm 0.04 in1.0 mm
03:28 AM 40.6°F4.8°C 32.0°F0.0°C 70% 2.9 mph W4.7 kmh W 4.9 mph7.9 kmh 29.64 in1003.7 mb 0.00 in0.0 mm 0.00 in0.0 mm 0.04 in1.0 mm
03:27 AM 40.6°F4.8°C 32.0°F0.0°C 70% 0.9 mph NNW1.4 kmh NNW 2.5 mph4.0 kmh 29.64 in1003.7 mb 0.00 in0.0 mm 0.00 in0.0 mm 0.04 in1.0 mm
03:26 AM 40.6°F4.8°C 32.0°F0.0°C 70% 0.9 mph NNW1.4 kmh NNW 2.5 mph4.0 kmh 29.64 in1003.7 mb 0.00 in0.0 mm 0.00 in0.0 mm 0.04 in1.0 mm
03:25 AM 40.6°F4.8°C 32.0°F0.0°C 70% 0.9 mph NNW1.4 kmh NNW 2.5 mph4.0 kmh 29.64 in1003.7 mb 0.00 in0.0 mm 0.00 in0.0 mm 0.04 in1.0 mm
03:24 AM 40.6°F4.8°C 32.0°F0.0°C 70% 0.9 mph NNW1.4 kmh NNW 2.5 mph4.0 kmh 29.64 in1003.7 mb 0.00 in0.0 mm 0.00 in0.0 mm 0.04 in1.0 mm
03:23 AM 40.6°F4.8°C 32.0°F0.0°C 70% 0.9 mph NNW1.4 kmh NNW 2.5 mph4.0 kmh 29.64 in1003.7 mb 0.00 in0.0 mm 0.00 in0.0 mm 0.04 in1.0 mm
03:22 AM 40.6°F4.8°C 32.0°F0.0°C 72% 0.2 mph N0.3 kmh N 2.5 mph4.0 kmh 29.64 in1003.7 mb 0.00 in0.0 mm 0.00 in0.0 mm 0.04 in1.0 mm
03:21 AM 40.6°F4.8°C 32.0°F0.0°C 72% 0.2 mph N0.3 kmh N 2.5 mph4.0 kmh 29.64 in1003.7 mb 0.00 in0.0 mm 0.00 in0.0 mm 0.04 in1.0 mm
03:20 AM 40.6°F4.8°C 32.0°F0.0°C 72% 0.2 mph N0.3 kmh N 2.5 mph4.0 kmh 29.64 in1003.7 mb 0.00 in0.0 mm 0.00 in0.0 mm 0.04 in1.0 mm
03:19 AM 40.6°F4.8°C 32.0°F0.0°C 72% 0.2 mph N0.3 kmh N 2.5 mph4.0 kmh 29.64 in1003.7 mb 0.00 in0.0 mm 0.00 in0.0 mm 0.04 in1.0 mm
03:18 AM 40.6°F4.8°C 32.0°F0.0°C 72% 0.2 mph N0.3 kmh N 2.5 mph4.0 kmh 29.64 in1003.7 mb 0.00 in0.0 mm 0.00 in0.0 mm 0.04 in1.0 mm
03:17 AM 40.6°F4.8°C 33.0°F0.6°C 74% 5.8 mph WSW9.3 kmh WSW 7.4 mph11.9 kmh 29.63 in1003.4 mb 0.00 in0.0 mm 0.00 in0.0 mm 0.04 in1.0 mm
03:16 AM 40.6°F4.8°C 33.0°F0.6°C 74% 5.8 mph WSW9.3 kmh WSW 7.4 mph11.9 kmh 29.63 in1003.4 mb 0.00 in0.0 mm 0.00 in0.0 mm 0.04 in1.0 mm
03:15 AM 40.6°F4.8°C 33.0°F0.6°C 74% 5.8 mph WSW9.3 kmh WSW 7.4 mph11.9 kmh 29.63 in1003.4 mb 0.00 in0.0 mm 0.00 in0.0 mm 0.04 in1.0 mm
03:14 AM 40.6°F4.8°C 33.0°F0.6°C 74% 5.8 mph WSW9.3 kmh WSW 7.4 mph11.9 kmh 29.63 in1003.4 mb 0.00 in0.0 mm 0.00 in0.0 mm 0.04 in1.0 mm
03:13 AM 40.6°F4.8°C 33.0°F0.6°C 74% 5.8 mph WSW9.3 kmh WSW 7.4 mph11.9 kmh 29.63 in1003.4 mb 0.00 in0.0 mm 0.00 in0.0 mm 0.04 in1.0 mm
03:12 AM 40.8°F4.9°C 34.0°F1.1°C 78% 4.5 mph NNW7.2 kmh NNW 7.4 mph11.9 kmh 29.63 in1003.4 mb 0.00 in0.0 mm 0.00 in0.0 mm 0.04 in1.0 mm
03:11 AM 40.8°F4.9°C 34.0°F1.1°C 78% 4.5 mph NNW7.2 kmh NNW 7.4 mph11.9 kmh 29.63 in1003.4 mb 0.00 in0.0 mm 0.00 in0.0 mm 0.04 in1.0 mm
03:10 AM 40.8°F4.9°C 34.0°F1.1°C 78% 4.5 mph NNW7.2 kmh NNW 7.4 mph11.9 kmh 29.63 in1003.4 mb 0.00 in0.0 mm 0.00 in0.0 mm 0.04 in1.0 mm
03:09 AM 40.8°F4.9°C 34.0°F1.1°C 78% 4.5 mph NNW7.2 kmh NNW 7.4 mph11.9 kmh 29.63 in1003.4 mb 0.00 in0.0 mm 0.00 in0.0 mm 0.04 in1.0 mm
03:08 AM 40.8°F4.9°C 34.0°F1.1°C 78% 4.5 mph NNW7.2 kmh NNW 7.4 mph11.9 kmh 29.63 in1003.4 mb 0.00 in0.0 mm 0.00 in0.0 mm 0.04 in1.0 mm
03:07 AM 40.8°F4.9°C 34.0°F1.1°C 78% 3.6 mph NW5.8 kmh NW 4.9 mph7.9 kmh 29.63 in1003.4 mb 0.00 in0.0 mm 0.00 in0.0 mm 0.04 in1.0 mm
03:06 AM 40.8°F4.9°C 34.0°F1.1°C 78% 3.6 mph NW5.8 kmh NW 4.9 mph7.9 kmh 29.63 in1003.4 mb 0.00 in0.0 mm 0.00 in0.0 mm 0.04 in1.0 mm
03:05 AM 40.8°F4.9°C 34.0°F1.1°C 78% 3.6 mph NW5.8 kmh NW 4.9 mph7.9 kmh 29.63 in1003.4 mb 0.00 in0.0 mm 0.00 in0.0 mm 0.04 in1.0 mm
03:04 AM 40.8°F4.9°C 34.0°F1.1°C 78% 3.6 mph NW5.8 kmh NW 4.9 mph7.9 kmh 29.63 in1003.4 mb 0.00 in0.0 mm 0.00 in0.0 mm 0.04 in1.0 mm
03:03 AM 40.8°F4.9°C 34.0°F1.1°C 78% 3.6 mph NW5.8 kmh NW 4.9 mph7.9 kmh 29.63 in1003.4 mb 0.00 in0.0 mm 0.00 in0.0 mm 0.04 in1.0 mm
03:02 AM 40.8°F4.9°C 34.0°F1.1°C 78% 0.2 mph N0.3 kmh N 2.5 mph4.0 kmh 29.58 in1001.7 mb 0.00 in0.0 mm 0.00 in0.0 mm 0.04 in1.0 mm
03:01 AM 40.8°F4.9°C 34.0°F1.1°C 78% 0.2 mph N0.3 kmh N 2.5 mph4.0 kmh 29.58 in1001.7 mb 0.00 in0.0 mm 0.00 in0.0 mm 0.04 in1.0 mm
03:00 AM 40.8°F4.9°C 34.0°F1.1°C 78% 0.2 mph N0.3 kmh N 2.5 mph4.0 kmh 29.58 in1001.7 mb 0.00 in0.0 mm 0.00 in0.0 mm 0.04 in1.0 mm
02:59 AM 40.8°F4.9°C 34.0°F1.1°C 78% 0.2 mph N0.3 kmh N 2.5 mph4.0 kmh 29.58 in1001.7 mb 0.00 in0.0 mm 0.00 in0.0 mm 0.04 in1.0 mm
02:58 AM 40.8°F4.9°C 34.0°F1.1°C 78% 0.2 mph N0.3 kmh N 2.5 mph4.0 kmh 29.58 in1001.7 mb 0.00 in0.0 mm 0.00 in0.0 mm 0.04 in1.0 mm
02:57 AM 40.8°F4.9°C 35.0°F1.7°C 79% 10.5 mph W16.9 kmh W 15.0 mph24.1 kmh 29.58 in1001.7 mb 0.00 in0.0 mm 0.00 in0.0 mm 0.04 in1.0 mm
02:56 AM 40.8°F4.9°C 35.0°F1.7°C 79% 10.5 mph W16.9 kmh W 15.0 mph24.1 kmh 29.58 in1001.7 mb 0.00 in0.0 mm 0.00 in0.0 mm 0.04 in1.0 mm
02:55 AM 40.8°F4.9°C 35.0°F1.7°C 79% 10.5 mph W16.9 kmh W 15.0 mph24.1 kmh 29.58 in1001.7 mb 0.00 in0.0 mm 0.00 in0.0 mm 0.04 in1.0 mm
02:54 AM 40.8°F4.9°C 35.0°F1.7°C 79% 10.5 mph W16.9 kmh W 15.0 mph24.1 kmh 29.58 in1001.7 mb 0.00 in0.0 mm 0.00 in0.0 mm 0.04 in1.0 mm
02:53 AM 40.8°F4.9°C 35.0°F1.7°C 79% 10.5 mph W16.9 kmh W 15.0 mph24.1 kmh 29.58 in1001.7 mb 0.00 in0.0 mm 0.00 in0.0 mm 0.04 in1.0 mm
02:52 AM 40.8°F4.9°C 34.0°F1.1°C 77% 4.9 mph WNW7.9 kmh WNW 7.4 mph11.9 kmh 29.58 in1001.7 mb 0.00 in0.0 mm 0.00 in0.0 mm 0.04 in1.0 mm
02:51 AM 40.8°F4.9°C 34.0°F1.1°C 77% 4.9 mph WNW7.9 kmh WNW 7.4 mph11.9 kmh 29.58 in1001.7 mb 0.00 in0.0 mm 0.00 in0.0 mm 0.04 in1.0 mm
02:50 AM 40.8°F4.9°C 34.0°F1.1°C 77% 4.9 mph WNW7.9 kmh WNW 7.4 mph11.9 kmh 29.58 in1001.7 mb 0.00 in0.0 mm 0.00 in0.0 mm 0.04 in1.0 mm
02:49 AM 40.8°F4.9°C 34.0°F1.1°C 77% 4.9 mph WNW7.9 kmh WNW 7.4 mph11.9 kmh 29.58 in1001.7 mb 0.00 in0.0 mm 0.00 in0.0 mm 0.04 in1.0 mm
02:48 AM 40.8°F4.9°C 34.0°F1.1°C 77% 4.9 mph WNW7.9 kmh WNW 7.4 mph11.9 kmh 29.58 in1001.7 mb 0.00 in0.0 mm 0.00 in0.0 mm 0.04 in1.0 mm
02:47 AM 40.8°F4.9°C 34.0°F1.1°C 78% 3.6 mph WSW5.8 kmh WSW 4.9 mph7.9 kmh 29.58 in1001.7 mb 0.00 in0.0 mm 0.00 in0.0 mm 0.04 in1.0 mm
02:46 AM 40.8°F4.9°C 34.0°F1.1°C 78% 3.6 mph WSW5.8 kmh WSW 4.9 mph7.9 kmh 29.58 in1001.7 mb 0.00 in0.0 mm 0.00 in0.0 mm 0.04 in1.0 mm
02:45 AM 40.8°F4.9°C 34.0°F1.1°C 78% 3.6 mph WSW5.8 kmh WSW 4.9 mph7.9 kmh 29.58 in1001.7 mb 0.00 in0.0 mm 0.00 in0.0 mm 0.04 in1.0 mm
02:44 AM 40.8°F4.9°C 34.0°F1.1°C 78% 3.6 mph WSW5.8 kmh WSW 4.9 mph7.9 kmh 29.58 in1001.7 mb 0.00 in0.0 mm 0.00 in0.0 mm 0.04 in1.0 mm
02:43 AM 40.8°F4.9°C 34.0°F1.1°C 78% 3.6 mph WSW5.8 kmh WSW 4.9 mph7.9 kmh 29.58 in1001.7 mb 0.00 in0.0 mm 0.00 in0.0 mm 0.04 in1.0 mm
02:42 AM 40.8°F4.9°C 34.0°F1.1°C 77% 8.9 mph WSW14.3 kmh WSW 9.8 mph15.8 kmh 29.58 in1001.7 mb 0.00 in0.0 mm 0.00 in0.0 mm 0.04 in1.0 mm
02:41 AM 40.8°F4.9°C 34.0°F1.1°C 77% 8.9 mph WSW14.3 kmh WSW 9.8 mph15.8 kmh 29.58 in1001.7 mb 0.00 in0.0 mm 0.00 in0.0 mm 0.04 in1.0 mm
02:40 AM 40.8°F4.9°C 34.0°F1.1°C 77% 8.9 mph WSW14.3 kmh WSW 9.8 mph15.8 kmh 29.58 in1001.7 mb 0.00 in0.0 mm 0.00 in0.0 mm 0.04 in1.0 mm
02:39 AM 40.8°F4.9°C 34.0°F1.1°C 77% 8.9 mph WSW14.3 kmh WSW 9.8 mph15.8 kmh 29.58 in1001.7 mb 0.00 in0.0 mm 0.00 in0.0 mm 0.04 in1.0 mm
02:38 AM 40.8°F4.9°C 34.0°F1.1°C 77% 8.9 mph WSW14.3 kmh WSW 9.8 mph15.8 kmh 29.58 in1001.7 mb 0.00 in0.0 mm 0.00 in0.0 mm 0.04 in1.0 mm
02:37 AM 40.6°F4.8°C 34.0°F1.1°C 77% 0.2 mph N0.3 kmh N 2.5 mph4.0 kmh 29.58 in1001.7 mb 0.00 in0.0 mm 0.00 in0.0 mm 0.04 in1.0 mm
02:36 AM 40.6°F4.8°C 34.0°F1.1°C 77% 0.2 mph N0.3 kmh N 2.5 mph4.0 kmh 29.58 in1001.7 mb 0.00 in0.0 mm 0.00 in0.0 mm 0.04 in1.0 mm
02:35 AM 40.6°F4.8°C 34.0°F1.1°C 77% 0.2 mph N0.3 kmh N 2.5 mph4.0 kmh 29.58 in1001.7 mb 0.00 in0.0 mm 0.00 in0.0 mm 0.04 in1.0 mm
02:34 AM 40.6°F4.8°C 34.0°F1.1°C 77% 0.2 mph N0.3 kmh N 2.5 mph4.0 kmh 29.58 in1001.7 mb 0.00 in0.0 mm 0.00 in0.0 mm 0.04 in1.0 mm
02:33 AM 40.6°F4.8°C 34.0°F1.1°C 77% 0.2 mph N0.3 kmh N 2.5 mph4.0 kmh 29.58 in1001.7 mb 0.00 in0.0 mm 0.00 in0.0 mm 0.04 in1.0 mm
02:32 AM 40.6°F4.8°C 34.0°F1.1°C 76% 0.2 mph N0.3 kmh N 2.5 mph4.0 kmh 29.58 in1001.7 mb 0.00 in0.0 mm 0.00 in0.0 mm 0.04 in1.0 mm
02:31 AM 40.6°F4.8°C 34.0°F1.1°C 76% 0.2 mph N0.3 kmh N 2.5 mph4.0 kmh 29.58 in1001.7 mb 0.00 in0.0 mm 0.00 in0.0 mm 0.04 in1.0 mm
02:30 AM 40.6°F4.8°C 34.0°F1.1°C 76% 0.2 mph N0.3 kmh N 2.5 mph4.0 kmh 29.58 in1001.7 mb 0.00 in0.0 mm 0.00 in0.0 mm 0.04 in1.0 mm
02:29 AM 40.6°F4.8°C 34.0°F1.1°C 76% 0.2 mph N0.3 kmh N 2.5 mph4.0 kmh 29.58 in1001.7 mb 0.00 in0.0 mm 0.00 in0.0 mm 0.04 in1.0 mm
02:28 AM 40.6°F4.8°C 34.0°F1.1°C 76% 0.2 mph N0.3 kmh N 2.5 mph4.0 kmh 29.58 in1001.7 mb 0.00 in0.0 mm 0.00 in0.0 mm 0.04 in1.0 mm
02:27 AM 40.5°F4.7°C 33.0°F0.6°C 76% 6.0 mph W9.7 kmh W 7.4 mph11.9 kmh 29.58 in1001.7 mb 0.00 in0.0 mm 0.00 in0.0 mm 0.04 in1.0 mm
02:26 AM 40.5°F4.7°C 33.0°F0.6°C 76% 6.0 mph W9.7 kmh W 7.4 mph11.9 kmh 29.58 in1001.7 mb 0.00 in0.0 mm 0.00 in0.0 mm 0.04 in1.0 mm
02:25 AM 40.5°F4.7°C 33.0°F0.6°C 76% 6.0 mph W9.7 kmh W 7.4 mph11.9 kmh 29.58 in1001.7 mb 0.00 in0.0 mm 0.00 in0.0 mm 0.04 in1.0 mm
02:24 AM 40.5°F4.7°C 33.0°F0.6°C 76% 6.0 mph W9.7 kmh W 7.4 mph11.9 kmh 29.58 in1001.7 mb 0.00 in0.0 mm 0.00 in0.0 mm 0.04 in1.0 mm
02:23 AM 40.5°F4.7°C 33.0°F0.6°C 76% 6.0 mph W9.7 kmh W 7.4 mph11.9 kmh 29.58 in1001.7 mb 0.00 in0.0 mm 0.00 in0.0 mm 0.04 in1.0 mm
02:22 AM 40.5°F4.7°C 34.0°F1.1°C 78% 4.3 mph WSW6.9 kmh WSW 7.4 mph11.9 kmh 29.58 in1001.7 mb 0.00 in0.0 mm 0.00 in0.0 mm 0.04 in1.0 mm
02:21 AM 40.5°F4.7°C 34.0°F1.1°C 78% 4.3 mph WSW6.9 kmh WSW 7.4 mph11.9 kmh 29.58 in1001.7 mb 0.00 in0.0 mm 0.00 in0.0 mm 0.04 in1.0 mm
02:20 AM 40.5°F4.7°C 34.0°F1.1°C 78% 4.3 mph WSW6.9 kmh WSW 7.4 mph11.9 kmh 29.58 in1001.7 mb 0.00 in0.0 mm 0.00 in0.0 mm 0.04 in1.0 mm
02:19 AM 40.5°F4.7°C 34.0°F1.1°C 78% 4.3 mph WSW6.9 kmh WSW 7.4 mph11.9 kmh 29.58 in1001.7 mb 0.00 in0.0 mm 0.00 in0.0 mm 0.04 in1.0 mm
02:18 AM 40.5°F4.7°C 34.0°F1.1°C 78% 4.3 mph WSW6.9 kmh WSW 7.4 mph11.9 kmh 29.58 in1001.7 mb 0.00 in0.0 mm 0.00 in0.0 mm 0.04 in1.0 mm
02:17 AM 40.3°F4.6°C 34.0°F1.1°C 79% 6.0 mph WSW9.7 kmh WSW 7.4 mph11.9 kmh 29.58 in1001.7 mb 0.00 in0.0 mm 0.00 in0.0 mm 0.04 in1.0 mm
02:16 AM 40.3°F4.6°C 34.0°F1.1°C 79% 6.0 mph WSW9.7 kmh WSW 7.4 mph11.9 kmh 29.58 in1001.7 mb 0.00 in0.0 mm 0.00 in0.0 mm 0.04 in1.0 mm
02:15 AM 40.3°F4.6°C 34.0°F1.1°C 79% 6.0 mph WSW9.7 kmh WSW 7.4 mph11.9 kmh 29.58 in1001.7 mb 0.00 in0.0 mm 0.00 in0.0 mm 0.04 in1.0 mm
02:14 AM 40.3°F4.6°C 34.0°F1.1°C 79% 6.0 mph WSW9.7 kmh WSW 7.4 mph11.9 kmh 29.58 in1001.7 mb 0.00 in0.0 mm 0.00 in0.0 mm 0.04 in1.0 mm
02:13 AM 40.3°F4.6°C 34.0°F1.1°C 79% 6.0 mph WSW9.7 kmh WSW 7.4 mph11.9 kmh 29.58 in1001.7 mb 0.00 in0.0 mm 0.00 in0.0 mm 0.04 in1.0 mm
02:12 AM 40.3°F4.6°C 35.0°F1.7°C 81% 9.6 mph WSW15.4 kmh WSW 17.4 mph28.0 kmh 29.58 in1001.7 mb 0.00 in0.0 mm 0.00 in0.0 mm 0.04 in1.0 mm
02:11 AM 40.3°F4.6°C 35.0°F1.7°C 81% 9.6 mph WSW15.4 kmh WSW 17.4 mph28.0 kmh 29.58 in1001.7 mb 0.00 in0.0 mm 0.00 in0.0 mm 0.04 in1.0 mm
02:10 AM 40.3°F4.6°C 35.0°F1.7°C 81% 9.6 mph WSW15.4 kmh WSW 17.4 mph28.0 kmh 29.58 in1001.7 mb 0.00 in0.0 mm 0.00 in0.0 mm 0.04 in1.0 mm
02:09 AM 40.3°F4.6°C 35.0°F1.7°C 81% 9.6 mph WSW15.4 kmh WSW 17.4 mph28.0 kmh 29.58 in1001.7 mb 0.00 in0.0 mm 0.00 in0.0 mm 0.04 in1.0 mm
02:08 AM 40.3°F4.6°C 35.0°F1.7°C 81% 9.6 mph WSW15.4 kmh WSW 17.4 mph28.0 kmh 29.58 in1001.7 mb 0.00 in0.0 mm 0.00 in0.0 mm 0.04 in1.0 mm
02:07 AM 40.1°F4.5°C 35.0°F1.7°C 82% 4.5 mph SW7.2 kmh SW 9.8 mph15.8 kmh 29.58 in1001.7 mb 0.00 in0.0 mm 0.00 in0.0 mm 0.04 in1.0 mm
02:06 AM 40.1°F4.5°C 35.0°F1.7°C 82% 4.5 mph SW7.2 kmh SW 9.8 mph15.8 kmh 29.58 in1001.7 mb 0.00 in0.0 mm 0.00 in0.0 mm 0.04 in1.0 mm
02:05 AM 40.1°F4.5°C 35.0°F1.7°C 82% 4.5 mph SW7.2 kmh SW 9.8 mph15.8 kmh 29.58 in1001.7 mb 0.00 in0.0 mm 0.00 in0.0 mm 0.04 in1.0 mm
02:04 AM 40.1°F4.5°C 35.0°F1.7°C 82% 4.5 mph SW7.2 kmh SW 9.8 mph15.8 kmh 29.58 in1001.7 mb 0.00 in0.0 mm 0.00 in0.0 mm 0.04 in1.0 mm
02:03 AM 40.1°F4.5°C 35.0°F1.7°C 82% 4.5 mph SW7.2 kmh SW 9.8 mph15.8 kmh 29.58 in1001.7 mb 0.00 in0.0 mm 0.00 in0.0 mm 0.04 in1.0 mm
02:02 AM 40.1°F4.5°C 36.0°F2.2°C 84% 3.4 mph NNW5.5 kmh NNW 7.4 mph11.9 kmh 29.51 in999.3 mb 0.00 in0.0 mm 0.00 in0.0 mm 0.04 in1.0 mm
02:01 AM 40.1°F4.5°C 36.0°F2.2°C 84% 3.4 mph NNW5.5 kmh NNW 7.4 mph11.9 kmh 29.51 in999.3 mb 0.00 in0.0 mm 0.00 in0.0 mm 0.04 in1.0 mm
02:00 AM 40.1°F4.5°C 36.0°F2.2°C 84% 3.4 mph NNW5.5 kmh NNW 7.4 mph11.9 kmh 29.51 in999.3 mb 0.00 in0.0 mm 0.00 in0.0 mm 0.04 in1.0 mm
01:59 AM 40.1°F4.5°C 36.0°F2.2°C 84% 3.4 mph NNW5.5 kmh NNW 7.4 mph11.9 kmh 29.51 in999.3 mb 0.00 in0.0 mm 0.00 in0.0 mm 0.04 in1.0 mm
01:58 AM 40.1°F4.5°C 36.0°F2.2°C 84% 3.4 mph NNW5.5 kmh NNW 7.4 mph11.9 kmh 29.51 in999.3 mb 0.00 in0.0 mm 0.00 in0.0 mm 0.04 in1.0 mm
01:57 AM 40.1°F4.5°C 36.0°F2.2°C 85% 2.7 mph WNW4.3 kmh WNW 4.9 mph7.9 kmh 29.51 in999.3 mb 0.00 in0.0 mm 0.00 in0.0 mm 0.04 in1.0 mm
01:56 AM 40.1°F4.5°C 36.0°F2.2°C 85% 2.7 mph WNW4.3 kmh WNW 4.9 mph7.9 kmh 29.51 in999.3 mb 0.00 in0.0 mm 0.00 in0.0 mm 0.04 in1.0 mm
01:55 AM 40.1°F4.5°C 36.0°F2.2°C 85% 2.7 mph WNW4.3 kmh WNW 4.9 mph7.9 kmh 29.51 in999.3 mb 0.00 in0.0 mm 0.00 in0.0 mm 0.04 in1.0 mm
01:54 AM 40.1°F4.5°C 36.0°F2.2°C 85% 2.7 mph WNW4.3 kmh WNW 4.9 mph7.9 kmh 29.51 in999.3 mb 0.00 in0.0 mm 0.00 in0.0 mm 0.04 in1.0 mm
01:53 AM 40.1°F4.5°C 36.0°F2.2°C 85% 2.7 mph WNW4.3 kmh WNW 4.9 mph7.9 kmh 29.51 in999.3 mb 0.00 in0.0 mm 0.00 in0.0 mm 0.04 in1.0 mm
01:52 AM 39.9°F4.4°C 36.0°F2.2°C 87% 5.6 mph SW9.0 kmh SW 7.4 mph11.9 kmh 29.51 in999.3 mb 0.00 in0.0 mm 0.00 in0.0 mm 0.04 in1.0 mm
01:51 AM 39.9°F4.4°C 36.0°F2.2°C 87% 5.6 mph SW9.0 kmh SW 7.4 mph11.9 kmh 29.51 in999.3 mb 0.00 in0.0 mm 0.00 in0.0 mm 0.04 in1.0 mm
01:50 AM 39.9°F4.4°C 36.0°F2.2°C 87% 5.6 mph SW9.0 kmh SW 7.4 mph11.9 kmh 29.51 in999.3 mb 0.00 in0.0 mm 0.00 in0.0 mm 0.04 in1.0 mm
01:49 AM 39.9°F4.4°C 36.0°F2.2°C 87% 5.6 mph SW9.0 kmh SW 7.4 mph11.9 kmh 29.51 in999.3 mb 0.00 in0.0 mm 0.00 in0.0 mm 0.04 in1.0 mm
01:48 AM 39.9°F4.4°C 36.0°F2.2°C 87% 5.6 mph SW9.0 kmh SW 7.4 mph11.9 kmh 29.51 in999.3 mb 0.00 in0.0 mm 0.00 in0.0 mm 0.04 in1.0 mm
01:47 AM 39.9°F4.4°C 37.0°F2.8°C 88% 7.2 mph W11.6 kmh W 9.8 mph15.8 kmh 29.51 in999.3 mb 0.00 in0.0 mm 0.00 in0.0 mm 0.04 in1.0 mm
01:46 AM 39.9°F4.4°C 37.0°F2.8°C 88% 7.2 mph W11.6 kmh W 9.8 mph15.8 kmh 29.51 in999.3 mb 0.00 in0.0 mm 0.00 in0.0 mm 0.04 in1.0 mm
01:45 AM 39.9°F4.4°C 37.0°F2.8°C 88% 7.2 mph W11.6 kmh W 9.8 mph15.8 kmh 29.51 in999.3 mb 0.00 in0.0 mm 0.00 in0.0 mm 0.04 in1.0 mm
01:44 AM 39.9°F4.4°C 37.0°F2.8°C 88% 7.2 mph W11.6 kmh W 9.8 mph15.8 kmh 29.51 in999.3 mb 0.00 in0.0 mm 0.00 in0.0 mm 0.04 in1.0 mm
01:43 AM 39.9°F4.4°C 37.0°F2.8°C 88% 7.2 mph W11.6 kmh W 9.8 mph15.8 kmh 29.51 in999.3 mb 0.00 in0.0 mm 0.00 in0.0 mm 0.04 in1.0 mm
01:42 AM 39.7°F4.3°C 37.0°F2.8°C 90% 5.8 mph WSW9.3 kmh WSW 7.4 mph11.9 kmh 29.51 in999.3 mb 0.00 in0.0 mm 0.00 in0.0 mm 0.04 in1.0 mm
01:41 AM 39.7°F4.3°C 37.0°F2.8°C 90% 5.8 mph WSW9.3 kmh WSW 7.4 mph11.9 kmh 29.51 in999.3 mb 0.00 in0.0 mm 0.00 in0.0 mm 0.04 in1.0 mm
01:40 AM 39.7°F4.3°C 37.0°F2.8°C 90% 5.8 mph WSW9.3 kmh WSW 7.4 mph11.9 kmh 29.51 in999.3 mb 0.00 in0.0 mm 0.00 in0.0 mm 0.04 in1.0 mm
01:39 AM 39.7°F4.3°C 37.0°F2.8°C 90% 5.8 mph WSW9.3 kmh WSW 7.4 mph11.9 kmh 29.51 in999.3 mb 0.00 in0.0 mm 0.00 in0.0 mm 0.04 in1.0 mm
01:38 AM 39.7°F4.3°C 37.0°F2.8°C 90% 5.8 mph WSW9.3 kmh WSW 7.4 mph11.9 kmh 29.51 in999.3 mb 0.00 in0.0 mm 0.00 in0.0 mm 0.04 in1.0 mm
01:37 AM 39.7°F4.3°C 37.0°F2.8°C 91% 9.2 mph WSW14.8 kmh WSW 15.0 mph24.1 kmh 29.51 in999.3 mb 0.00 in0.0 mm 0.00 in0.0 mm 0.04 in1.0 mm
01:36 AM 39.7°F4.3°C 37.0°F2.8°C 91% 9.2 mph WSW14.8 kmh WSW 15.0 mph24.1 kmh 29.51 in999.3 mb 0.00 in0.0 mm 0.00 in0.0 mm 0.04 in1.0 mm
01:35 AM 39.7°F4.3°C 37.0°F2.8°C 91% 9.2 mph WSW14.8 kmh WSW 15.0 mph24.1 kmh 29.51 in999.3 mb 0.00 in0.0 mm 0.00 in0.0 mm 0.04 in1.0 mm
01:34 AM 39.7°F4.3°C 37.0°F2.8°C 91% 9.2 mph WSW14.8 kmh WSW 15.0 mph24.1 kmh 29.51 in999.3 mb 0.00 in0.0 mm 0.00 in0.0 mm 0.04 in1.0 mm
01:33 AM 39.7°F4.3°C 37.0°F2.8°C 91% 9.2 mph WSW14.8 kmh WSW 15.0 mph24.1 kmh 29.51 in999.3 mb 0.00 in0.0 mm 0.00 in0.0 mm 0.04 in1.0 mm
01:32 AM 39.6°F4.2°C 37.0°F2.8°C 91% 3.6 mph WSW5.8 kmh WSW 9.8 mph15.8 kmh 29.51 in999.3 mb 0.00 in0.0 mm 0.00 in0.0 mm 0.04 in1.0 mm
01:31 AM 39.6°F4.2°C 37.0°F2.8°C 91% 3.6 mph WSW5.8 kmh WSW 9.8 mph15.8 kmh 29.51 in999.3 mb 0.00 in0.0 mm 0.00 in0.0 mm 0.04 in1.0 mm
01:30 AM 39.6°F4.2°C 37.0°F2.8°C 91% 3.6 mph WSW5.8 kmh WSW 9.8 mph15.8 kmh 29.51 in999.3 mb 0.00 in0.0 mm 0.00 in0.0 mm 0.04 in1.0 mm
01:29 AM 39.6°F4.2°C 37.0°F2.8°C 91% 3.6 mph WSW5.8 kmh WSW 9.8 mph15.8 kmh 29.51 in999.3 mb 0.00 in0.0 mm 0.00 in0.0 mm 0.04 in1.0 mm
01:28 AM 39.6°F4.2°C 37.0°F2.8°C 91% 3.6 mph WSW5.8 kmh WSW 9.8 mph15.8 kmh 29.51 in999.3 mb 0.00 in0.0 mm 0.00 in0.0 mm 0.04 in1.0 mm
01:27 AM 39.6°F4.2°C 37.0°F2.8°C 91% 1.1 mph NW1.8 kmh NW 2.5 mph4.0 kmh 29.51 in999.3 mb 0.00 in0.0 mm 0.00 in0.0 mm 0.04 in1.0 mm
01:26 AM 39.6°F4.2°C 37.0°F2.8°C 91% 1.1 mph NW1.8 kmh NW 2.5 mph4.0 kmh 29.51 in999.3 mb 0.00 in0.0 mm 0.00 in0.0 mm 0.04 in1.0 mm
01:25 AM 39.6°F4.2°C 37.0°F2.8°C 91% 1.1 mph NW1.8 kmh NW 2.5 mph4.0 kmh 29.51 in999.3 mb 0.00 in0.0 mm 0.00 in0.0 mm 0.04 in1.0 mm
01:24 AM 39.6°F4.2°C 37.0°F2.8°C 91% 1.1 mph NW1.8 kmh NW 2.5 mph4.0 kmh 29.51 in999.3 mb 0.00 in0.0 mm 0.00 in0.0 mm 0.04 in1.0 mm
01:23 AM 39.6°F4.2°C 37.0°F2.8°C 91% 1.1 mph NW1.8 kmh NW 2.5 mph4.0 kmh 29.51 in999.3 mb 0.00 in0.0 mm 0.00 in0.0 mm 0.04 in1.0 mm
01:22 AM 39.6°F4.2°C 37.0°F2.8°C 92% 3.6 mph NW5.8 kmh NW 4.9 mph7.9 kmh 29.51 in999.3 mb 0.00 in0.0 mm 0.00 in0.0 mm 0.04 in1.0 mm
01:21 AM 39.6°F4.2°C 37.0°F2.8°C 92% 3.6 mph NW5.8 kmh NW 4.9 mph7.9 kmh 29.51 in999.3 mb 0.00 in0.0 mm 0.00 in0.0 mm 0.04 in1.0 mm
01:20 AM 39.6°F4.2°C 37.0°F2.8°C 92% 3.6 mph NW5.8 kmh NW 4.9 mph7.9 kmh 29.51 in999.3 mb 0.00 in0.0 mm 0.00 in0.0 mm 0.04 in1.0 mm
01:19 AM 39.6°F4.2°C 37.0°F2.8°C 92% 3.6 mph NW5.8 kmh NW 4.9 mph7.9 kmh 29.51 in999.3 mb 0.00 in0.0 mm 0.00 in0.0 mm 0.04 in1.0 mm
01:18 AM 39.6°F4.2°C 37.0°F2.8°C 92% 3.6 mph NW5.8 kmh NW 4.9 mph7.9 kmh 29.51 in999.3 mb 0.00 in0.0 mm 0.00 in0.0 mm 0.04 in1.0 mm
01:17 AM 39.4°F4.1°C 38.0°F3.3°C 93% 8.9 mph WSW14.3 kmh WSW 9.8 mph15.8 kmh 29.51 in999.3 mb 0.00 in0.0 mm 0.00 in0.0 mm 0.04 in1.0 mm
01:16 AM 39.4°F4.1°C 38.0°F3.3°C 93% 8.9 mph WSW14.3 kmh WSW 9.8 mph15.8 kmh 29.51 in999.3 mb 0.00 in0.0 mm 0.00 in0.0 mm 0.04 in1.0 mm
01:15 AM 39.4°F4.1°C 38.0°F3.3°C 93% 8.9 mph WSW14.3 kmh WSW 9.8 mph15.8 kmh 29.51 in999.3 mb 0.00 in0.0 mm 0.00 in0.0 mm 0.04 in1.0 mm
01:14 AM 39.4°F4.1°C 38.0°F3.3°C 93% 8.9 mph WSW14.3 kmh WSW 9.8 mph15.8 kmh 29.51 in999.3 mb 0.00 in0.0 mm 0.00 in0.0 mm 0.04 in1.0 mm
01:13 AM 39.4°F4.1°C 38.0°F3.3°C 93% 8.9 mph WSW14.3 kmh WSW 9.8 mph15.8 kmh 29.51 in999.3 mb 0.00 in0.0 mm 0.00 in0.0 mm 0.04 in1.0 mm
01:12 AM 39.4°F4.1°C 38.0°F3.3°C 94% 4.9 mph NE7.9 kmh NE 12.3 mph19.8 kmh 29.52 in999.7 mb 0.00 in0.0 mm 0.00 in0.0 mm 0.04 in1.0 mm
01:11 AM 39.4°F4.1°C 38.0°F3.3°C 94% 4.9 mph NE7.9 kmh NE 12.3 mph19.8 kmh 29.52 in999.7 mb 0.00 in0.0 mm 0.00 in0.0 mm 0.04 in1.0 mm
01:10 AM 39.4°F4.1°C 38.0°F3.3°C 94% 4.9 mph NE7.9 kmh NE 12.3 mph19.8 kmh 29.52 in999.7 mb 0.00 in0.0 mm 0.00 in0.0 mm 0.04 in1.0 mm
01:09 AM 39.4°F4.1°C 38.0°F3.3°C 94% 4.9 mph NE7.9 kmh NE 12.3 mph19.8 kmh 29.52 in999.7 mb 0.00 in0.0 mm 0.00 in0.0 mm 0.04 in1.0 mm
01:08 AM 39.4°F4.1°C 38.0°F3.3°C 94% 4.9 mph NE7.9 kmh NE 12.3 mph19.8 kmh 29.52 in999.7 mb 0.00 in0.0 mm 0.00 in0.0 mm 0.04 in1.0 mm
01:07 AM 39.4°F4.1°C 38.0°F3.3°C 94% 13.6 mph SW21.9 kmh SW 19.9 mph32.0 kmh 29.52 in999.7 mb 0.00 in0.0 mm 0.00 in0.0 mm 0.04 in1.0 mm
01:06 AM 39.4°F4.1°C 38.0°F3.3°C 94% 13.6 mph SW21.9 kmh SW 19.9 mph32.0 kmh 29.52 in999.7 mb 0.00 in0.0 mm 0.00 in0.0 mm 0.04 in1.0 mm
01:05 AM 39.4°F4.1°C 38.0°F3.3°C 94% 13.6 mph SW21.9 kmh SW 19.9 mph32.0 kmh 29.52 in999.7 mb 0.00 in0.0 mm 0.00 in0.0 mm 0.04 in1.0 mm
01:04 AM 39.4°F4.1°C 38.0°F3.3°C 94% 13.6 mph SW21.9 kmh SW 19.9 mph32.0 kmh 29.52 in999.7 mb 0.00 in0.0 mm 0.00 in0.0 mm 0.04 in1.0 mm
01:03 AM 39.4°F4.1°C 38.0°F3.3°C 94% 13.6 mph SW21.9 kmh SW 19.9 mph32.0 kmh 29.52 in999.7 mb 0.00 in0.0 mm 0.00 in0.0 mm 0.04 in1.0 mm
01:02 AM 39.2°F4.0°C 38.0°F3.3°C 95% 2.7 mph SW4.3 kmh SW 4.9 mph7.9 kmh 29.46 in997.6 mb 0.00 in0.0 mm 0.00 in0.0 mm 0.02 in0.5 mm
01:01 AM 39.2°F4.0°C 38.0°F3.3°C 95% 2.7 mph SW4.3 kmh SW 4.9 mph7.9 kmh 29.46 in997.6 mb 0.00 in0.0 mm 0.00 in0.0 mm 0.02 in0.5 mm
01:00 AM 39.2°F4.0°C 38.0°F3.3°C 95% 2.7 mph SW4.3 kmh SW 4.9 mph7.9 kmh 29.46 in997.6 mb 0.00 in0.0 mm 0.00 in0.0 mm 0.02 in0.5 mm
12:59 AM 39.2°F4.0°C 38.0°F3.3°C 95% 2.7 mph SW4.3 kmh SW 4.9 mph7.9 kmh 29.46 in997.6 mb 0.00 in0.0 mm 0.00 in0.0 mm 0.02 in0.5 mm
12:58 AM 39.2°F4.0°C 38.0°F3.3°C 95% 2.7 mph SW4.3 kmh SW 4.9 mph7.9 kmh 29.46 in997.6 mb 0.00 in0.0 mm 0.00 in0.0 mm 0.02 in0.5 mm
12:57 AM 39.2°F4.0°C 38.0°F3.3°C 95% 5.8 mph NNW9.3 kmh NNW 7.4 mph11.9 kmh 29.46 in997.6 mb 0.00 in0.0 mm 0.00 in0.0 mm 0.02 in0.5 mm
12:56 AM 39.2°F4.0°C 38.0°F3.3°C 95% 5.8 mph NNW9.3 kmh NNW 7.4 mph11.9 kmh 29.46 in997.6 mb 0.00 in0.0 mm 0.00 in0.0 mm 0.02 in0.5 mm
12:55 AM 39.2°F4.0°C 38.0°F3.3°C 95% 5.8 mph NNW9.3 kmh NNW 7.4 mph11.9 kmh 29.46 in997.6 mb 0.00 in0.0 mm 0.00 in0.0 mm 0.02 in0.5 mm
12:54 AM 39.2°F4.0°C 38.0°F3.3°C 95% 5.8 mph NNW9.3 kmh NNW 7.4 mph11.9 kmh 29.46 in997.6 mb 0.00 in0.0 mm 0.00 in0.0 mm 0.02 in0.5 mm
12:53 AM 39.2°F4.0°C 38.0°F3.3°C 95% 5.8 mph NNW9.3 kmh NNW 7.4 mph11.9 kmh 29.46 in997.6 mb 0.00 in0.0 mm 0.00 in0.0 mm 0.02 in0.5 mm
12:52 AM 39.0°F3.9°C 38.0°F3.3°C 96% 4.9 mph NW7.9 kmh NW 7.4 mph11.9 kmh 29.46 in997.6 mb 0.00 in0.0 mm 0.00 in0.0 mm 0.02 in0.5 mm
12:51 AM 39.0°F3.9°C 38.0°F3.3°C 96% 4.9 mph NW7.9 kmh NW 7.4 mph11.9 kmh 29.46 in997.6 mb 0.00 in0.0 mm 0.00 in0.0 mm 0.02 in0.5 mm
12:50 AM 39.0°F3.9°C 38.0°F3.3°C 96% 4.9 mph NW7.9 kmh NW 7.4 mph11.9 kmh 29.46 in997.6 mb 0.00 in0.0 mm 0.00 in0.0 mm 0.02 in0.5 mm
12:49 AM 39.0°F3.9°C 38.0°F3.3°C 96% 4.9 mph NW7.9 kmh NW 7.4 mph11.9 kmh 29.46 in997.6 mb 0.00 in0.0 mm 0.00 in0.0 mm 0.02 in0.5 mm
12:48 AM 39.0°F3.9°C 38.0°F3.3°C 96% 4.9 mph NW7.9 kmh NW 7.4 mph11.9 kmh 29.46 in997.6 mb 0.00 in0.0 mm 0.00 in0.0 mm 0.02 in0.5 mm
12:47 AM 39.0°F3.9°C 38.0°F3.3°C 96% 10.5 mph W16.9 kmh W 15.0 mph24.1 kmh 29.46 in997.6 mb 0.00 in0.0 mm 0.00 in0.0 mm 0.02 in0.5 mm
12:46 AM 39.0°F3.9°C 38.0°F3.3°C 96% 10.5 mph W16.9 kmh W 15.0 mph24.1 kmh 29.46 in997.6 mb 0.00 in0.0 mm 0.00 in0.0 mm 0.02 in0.5 mm
12:45 AM 39.0°F3.9°C 38.0°F3.3°C 96% 10.5 mph W16.9 kmh W 15.0 mph24.1 kmh 29.46 in997.6 mb 0.00 in0.0 mm 0.00 in0.0 mm 0.02 in0.5 mm
12:44 AM 39.0°F3.9°C 38.0°F3.3°C 96% 10.5 mph W16.9 kmh W 15.0 mph24.1 kmh 29.46 in997.6 mb 0.00 in0.0 mm 0.00 in0.0 mm 0.02 in0.5 mm
12:43 AM 39.0°F3.9°C 38.0°F3.3°C 96% 10.5 mph W16.9 kmh W 15.0 mph24.1 kmh 29.46 in997.6 mb 0.00 in0.0 mm 0.00 in0.0 mm 0.02 in0.5 mm
12:42 AM 38.8°F3.8°C 38.0°F3.3°C 96% 6.0 mph WSW9.7 kmh WSW 9.8 mph15.8 kmh 29.46 in997.6 mb 0.00 in0.0 mm 0.00 in0.0 mm 0.02 in0.5 mm
12:41 AM 38.8°F3.8°C 38.0°F3.3°C 96% 6.0 mph WSW9.7 kmh WSW 9.8 mph15.8 kmh 29.46 in997.6 mb 0.00 in0.0 mm 0.00 in0.0 mm 0.02 in0.5 mm
12:40 AM 38.8°F3.8°C 38.0°F3.3°C 96% 6.0 mph WSW9.7 kmh WSW 9.8 mph15.8 kmh 29.46 in997.6 mb 0.00 in0.0 mm 0.00 in0.0 mm 0.02 in0.5 mm
12:39 AM 38.8°F3.8°C 38.0°F3.3°C 96% 6.0 mph WSW9.7 kmh WSW 9.8 mph15.8 kmh 29.46 in997.6 mb 0.00 in0.0 mm 0.00 in0.0 mm 0.02 in0.5 mm
12:38 AM 38.8°F3.8°C 38.0°F3.3°C 96% 6.0 mph WSW9.7 kmh WSW 9.8 mph15.8 kmh 29.46 in997.6 mb 0.00 in0.0 mm 0.00 in0.0 mm 0.02 in0.5 mm
12:37 AM 38.8°F3.8°C 38.0°F3.3°C 96% 3.6 mph SW5.8 kmh SW 9.8 mph15.8 kmh 29.46 in997.6 mb 0.00 in0.0 mm 0.00 in0.0 mm 0.00 in0.0 mm
12:36 AM 38.8°F3.8°C 38.0°F3.3°C 96% 3.6 mph SW5.8 kmh SW 9.8 mph15.8 kmh 29.46 in997.6 mb 0.00 in0.0 mm 0.00 in0.0 mm 0.00 in0.0 mm
12:35 AM 38.8°F3.8°C 38.0°F3.3°C 96% 3.6 mph SW5.8 kmh SW 9.8 mph15.8 kmh 29.46 in997.6 mb 0.00 in0.0 mm 0.00 in0.0 mm 0.00 in0.0 mm
12:34 AM 38.8°F3.8°C 38.0°F3.3°C 96% 3.6 mph SW5.8 kmh SW 9.8 mph15.8 kmh 29.46 in997.6 mb 0.00 in0.0 mm 0.00 in0.0 mm 0.00 in0.0 mm
12:33 AM 38.8°F3.8°C 38.0°F3.3°C 96% 3.6 mph SW5.8 kmh SW 9.8 mph15.8 kmh 29.46 in997.6 mb 0.00 in0.0 mm 0.00 in0.0 mm 0.00 in0.0 mm
12:32 AM 38.7°F3.7°C 38.0°F3.3°C 97% 0.4 mph W0.6 kmh W 2.5 mph4.0 kmh 29.46 in997.6 mb 0.00 in0.0 mm 0.00 in0.0 mm 0.00 in0.0 mm
12:31 AM 38.7°F3.7°C 38.0°F3.3°C 97% 0.4 mph W0.6 kmh W 2.5 mph4.0 kmh 29.46 in997.6 mb 0.00 in0.0 mm 0.00 in0.0 mm 0.00 in0.0 mm
12:30 AM 38.7°F3.7°C 38.0°F3.3°C 97% 0.4 mph W0.6 kmh W 2.5 mph4.0 kmh 29.46 in997.6 mb 0.00 in0.0 mm 0.00 in0.0 mm 0.00 in0.0 mm
12:29 AM 38.7°F3.7°C 38.0°F3.3°C 97% 0.4 mph W0.6 kmh W 2.5 mph4.0 kmh 29.46 in997.6 mb 0.00 in0.0 mm 0.00 in0.0 mm 0.00 in0.0 mm
12:28 AM 38.7°F3.7°C 38.0°F3.3°C 97% 0.4 mph W0.6 kmh W 2.5 mph4.0 kmh 29.46 in997.6 mb 0.00 in0.0 mm 0.00 in0.0 mm 0.00 in0.0 mm
12:27 AM 38.7°F3.7°C 38.0°F3.3°C 98% 5.1 mph SW8.2 kmh SW 9.8 mph15.8 kmh 29.46 in997.6 mb 0.00 in0.0 mm 0.00 in0.0 mm 0.00 in0.0 mm
12:26 AM 38.7°F3.7°C 38.0°F3.3°C 98% 5.1 mph SW8.2 kmh SW 9.8 mph15.8 kmh 29.46 in997.6 mb 0.00 in0.0 mm 0.00 in0.0 mm 0.00 in0.0 mm
12:25 AM 38.7°F3.7°C 38.0°F3.3°C 98% 5.1 mph SW8.2 kmh SW 9.8 mph15.8 kmh 29.46 in997.6 mb 0.00 in0.0 mm 0.00 in0.0 mm 0.00 in0.0 mm
12:24 AM 38.7°F3.7°C 38.0°F3.3°C 98% 5.1 mph SW8.2 kmh SW 9.8 mph15.8 kmh 29.46 in997.6 mb 0.00 in0.0 mm 0.00 in0.0 mm 0.00 in0.0 mm
12:23 AM 38.7°F3.7°C 38.0°F3.3°C 98% 5.1 mph SW8.2 kmh SW 9.8 mph15.8 kmh 29.46 in997.6 mb 0.00 in0.0 mm 0.00 in0.0 mm 0.00 in0.0 mm
12:22 AM 38.5°F3.6°C 38.0°F3.3°C 97% 11.4 mph WSW18.3 kmh WSW 15.0 mph24.1 kmh 29.46 in997.6 mb 0.00 in0.0 mm 0.00 in0.0 mm 0.00 in0.0 mm
12:21 AM 38.5°F3.6°C 38.0°F3.3°C 97% 11.4 mph WSW18.3 kmh WSW 15.0 mph24.1 kmh 29.46 in997.6 mb 0.00 in0.0 mm 0.00 in0.0 mm 0.00 in0.0 mm
12:20 AM 38.5°F3.6°C 38.0°F3.3°C 97% 11.4 mph WSW18.3 kmh WSW 15.0 mph24.1 kmh 29.46 in997.6 mb 0.00 in0.0 mm 0.00 in0.0 mm 0.00 in0.0 mm
12:19 AM 38.5°F3.6°C 38.0°F3.3°C 97% 11.4 mph WSW18.3 kmh WSW 15.0 mph24.1 kmh 29.46 in997.6 mb 0.00 in0.0 mm 0.00 in0.0 mm 0.00 in0.0 mm
12:18 AM 38.5°F3.6°C 38.0°F3.3°C 97% 11.4 mph WSW18.3 kmh WSW 15.0 mph24.1 kmh 29.46 in997.6 mb 0.00 in0.0 mm 0.00 in0.0 mm 0.00 in0.0 mm
12:17 AM 38.5°F3.6°C 38.0°F3.3°C 98% 4.3 mph W6.9 kmh W 4.9 mph7.9 kmh 29.45 in997.3 mb 0.00 in0.0 mm 0.00 in0.0 mm 0.00 in0.0 mm
12:16 AM 38.5°F3.6°C 38.0°F3.3°C 98% 4.3 mph W6.9 kmh W 4.9 mph7.9 kmh 29.45 in997.3 mb 0.00 in0.0 mm 0.00 in0.0 mm 0.00 in0.0 mm
12:15 AM 38.5°F3.6°C 38.0°F3.3°C 98% 4.3 mph W6.9 kmh W 4.9 mph7.9 kmh 29.45 in997.3 mb 0.00 in0.0 mm 0.00 in0.0 mm 0.00 in0.0 mm
12:14 AM 38.5°F3.6°C 38.0°F3.3°C 98% 4.3 mph W6.9 kmh W 4.9 mph7.9 kmh 29.45 in997.3 mb 0.00 in0.0 mm 0.00 in0.0 mm 0.00 in0.0 mm
12:13 AM 38.5°F3.6°C 38.0°F3.3°C 98% 4.3 mph W6.9 kmh W 4.9 mph7.9 kmh 29.45 in997.3 mb 0.00 in0.0 mm 0.00 in0.0 mm 0.00 in0.0 mm
12:12 AM 38.3°F3.5°C 38.0°F3.3°C 98% 4.0 mph NW6.4 kmh NW 4.9 mph7.9 kmh 29.45 in997.3 mb 0.00 in0.0 mm 0.00 in0.0 mm 0.00 in0.0 mm
12:11 AM 38.3°F3.5°C 38.0°F3.3°C 98% 4.0 mph NW6.4 kmh NW 4.9 mph7.9 kmh 29.45 in997.3 mb 0.00 in0.0 mm 0.00 in0.0 mm 0.00 in0.0 mm
12:10 AM 38.3°F3.5°C 38.0°F3.3°C 98% 4.0 mph NW6.4 kmh NW 4.9 mph7.9 kmh 29.45 in997.3 mb 0.00 in0.0 mm 0.00 in0.0 mm 0.00 in0.0 mm
12:09 AM 38.3°F3.5°C 38.0°F3.3°C 98% 4.0 mph NW6.4 kmh NW 4.9 mph7.9 kmh 29.45 in997.3 mb 0.00 in0.0 mm 0.00 in0.0 mm 0.00 in0.0 mm
12:08 AM 38.3°F3.5°C 38.0°F3.3°C 98% 4.0 mph NW6.4 kmh NW 4.9 mph7.9 kmh 29.45 in997.3 mb 0.00 in0.0 mm 0.00 in0.0 mm 0.00 in0.0 mm
12:07 AM 38.3°F3.5°C 38.0°F3.3°C 98% 3.6 mph WSW5.8 kmh WSW 4.9 mph7.9 kmh 29.45 in997.3 mb 0.00 in0.0 mm 0.00 in0.0 mm 2.88 in73.2 mm
12:06 AM 38.3°F3.5°C 38.0°F3.3°C 98% 3.6 mph WSW5.8 kmh WSW 4.9 mph7.9 kmh 29.45 in997.3 mb 0.00 in0.0 mm 0.00 in0.0 mm 2.88 in73.2 mm
12:05 AM 38.3°F3.5°C 38.0°F3.3°C 98% 3.6 mph WSW5.8 kmh WSW 4.9 mph7.9 kmh 29.45 in997.3 mb 0.00 in0.0 mm 0.00 in0.0 mm 2.88 in73.2 mm
12:04 AM 38.3°F3.5°C 38.0°F3.3°C 98% 3.6 mph WSW5.8 kmh WSW 4.9 mph7.9 kmh 29.45 in997.3 mb 0.00 in0.0 mm 0.00 in0.0 mm 2.88 in73.2 mm
12:03 AM 38.3°F3.5°C 38.0°F3.3°C 98% 3.6 mph WSW5.8 kmh WSW 4.9 mph7.9 kmh 29.45 in997.3 mb 0.00 in0.0 mm 0.00 in0.0 mm 2.88 in73.2 mm
12:02 AM 38.1°F3.4°C 38.0°F3.3°C 99% 5.8 mph WSW9.3 kmh WSW 7.4 mph11.9 kmh 29.41 in995.9 mb 0.00 in0.0 mm 0.00 in0.0 mm 2.88 in73.2 mm
12:01 AM 38.1°F3.4°C 38.0°F3.3°C 99% 5.8 mph WSW9.3 kmh WSW 7.4 mph11.9 kmh 29.41 in995.9 mb 0.00 in0.0 mm 0.00 in0.0 mm 2.88 in73.2 mm
12:00 AM 38.1°F3.4°C 38.0°F3.3°C 99% 5.8 mph WSW9.3 kmh WSW 7.4 mph11.9 kmh 29.41 in995.9 mb 0.00 in0.0 mm 0.00 in0.0 mm 2.88 in73.2 mm